<?xml version="1.0" encoding="UTF-8" standalone="no" ?>
<gpx xmlns="http://www.topografix.com/GPX/1/1" xmlns:xsi="http://www.w3.org/2001/XMLSchema-instance" xsi:schemaLocation="http://www.topografix.com/GPX/1/1 http://www.topografix.com/GPX/1/1/gpx.xsd" version="1.1" creator="VisuGPX - https://www.visugpx.com">
  <metadata>
    <name>Sainte Colombe sur Gand</name>
  </metadata>
  <trk>
    <name><![CDATA[Sainte Colombe sur Gand_1]]></name>
    <trkseg>
      <trkpt lat="45.879" lon="4.27402">
        <ele>617.412</ele>
        <time>2019-10-28T12:50:48Z</time>
      </trkpt>
      <trkpt lat="45.879" lon="4.27402">
        <ele>617.704</ele>
        <time>2019-10-28T12:50:53Z</time>
      </trkpt>
      <trkpt lat="45.879" lon="4.27402">
        <ele>617.747</ele>
        <time>2019-10-28T12:50:58Z</time>
      </trkpt>
      <trkpt lat="45.879" lon="4.27402">
        <ele>617.761</ele>
        <time>2019-10-28T12:51:04Z</time>
      </trkpt>
      <trkpt lat="45.879" lon="4.27402">
        <ele>617.72</ele>
        <time>2019-10-28T12:51:09Z</time>
      </trkpt>
      <trkpt lat="45.87901" lon="4.27401">
        <ele>617.702</ele>
        <time>2019-10-28T12:51:15Z</time>
      </trkpt>
      <trkpt lat="45.87901" lon="4.27399">
        <ele>616.224</ele>
        <time>2019-10-28T12:51:21Z</time>
      </trkpt>
      <trkpt lat="45.87901" lon="4.27396">
        <ele>615.935</ele>
        <time>2019-10-28T12:51:27Z</time>
      </trkpt>
      <trkpt lat="45.87899" lon="4.27393">
        <ele>616.902</ele>
        <time>2019-10-28T12:51:33Z</time>
      </trkpt>
      <trkpt lat="45.87898" lon="4.27394">
        <ele>616.858</ele>
        <time>2019-10-28T12:51:38Z</time>
      </trkpt>
      <trkpt lat="45.87894" lon="4.27396">
        <ele>616.275</ele>
        <time>2019-10-28T12:51:44Z</time>
      </trkpt>
      <trkpt lat="45.87889" lon="4.27392">
        <ele>615.392</ele>
        <time>2019-10-28T12:51:49Z</time>
      </trkpt>
      <trkpt lat="45.87885" lon="4.27389">
        <ele>614.431</ele>
        <time>2019-10-28T12:51:54Z</time>
      </trkpt>
      <trkpt lat="45.87883" lon="4.2739">
        <ele>614.74</ele>
        <time>2019-10-28T12:52:00Z</time>
      </trkpt>
      <trkpt lat="45.87882" lon="4.27388">
        <ele>614.531</ele>
        <time>2019-10-28T12:52:05Z</time>
      </trkpt>
      <trkpt lat="45.87882" lon="4.27386">
        <ele>614.885</ele>
        <time>2019-10-28T12:52:10Z</time>
      </trkpt>
      <trkpt lat="45.87883" lon="4.27377">
        <ele>615.619</ele>
        <time>2019-10-28T12:52:16Z</time>
      </trkpt>
      <trkpt lat="45.87885" lon="4.27369">
        <ele>616.772</ele>
        <time>2019-10-28T12:52:21Z</time>
      </trkpt>
      <trkpt lat="45.87888" lon="4.27359">
        <ele>617.383</ele>
        <time>2019-10-28T12:52:27Z</time>
      </trkpt>
      <trkpt lat="45.87888" lon="4.27351">
        <ele>617.789</ele>
        <time>2019-10-28T12:52:33Z</time>
      </trkpt>
      <trkpt lat="45.87888" lon="4.27341">
        <ele>616.915</ele>
        <time>2019-10-28T12:52:39Z</time>
      </trkpt>
      <trkpt lat="45.87887" lon="4.27333">
        <ele>615.869</ele>
        <time>2019-10-28T12:52:44Z</time>
      </trkpt>
      <trkpt lat="45.87886" lon="4.27327">
        <ele>613.829</ele>
        <time>2019-10-28T12:52:49Z</time>
      </trkpt>
      <trkpt lat="45.87882" lon="4.27324">
        <ele>612.586</ele>
        <time>2019-10-28T12:52:55Z</time>
      </trkpt>
      <trkpt lat="45.87878" lon="4.27327">
        <ele>612.073</ele>
        <time>2019-10-28T12:53:01Z</time>
      </trkpt>
      <trkpt lat="45.87875" lon="4.27332">
        <ele>613.652</ele>
        <time>2019-10-28T12:53:06Z</time>
      </trkpt>
      <trkpt lat="45.87871" lon="4.27336">
        <ele>612.848</ele>
        <time>2019-10-28T12:53:12Z</time>
      </trkpt>
      <trkpt lat="45.87866" lon="4.27341">
        <ele>614.325</ele>
        <time>2019-10-28T12:53:18Z</time>
      </trkpt>
      <trkpt lat="45.87861" lon="4.27348">
        <ele>614.685</ele>
        <time>2019-10-28T12:53:24Z</time>
      </trkpt>
      <trkpt lat="45.87856" lon="4.27353">
        <ele>616.353</ele>
        <time>2019-10-28T12:53:30Z</time>
      </trkpt>
      <trkpt lat="45.8785" lon="4.27358">
        <ele>616.743</ele>
        <time>2019-10-28T12:53:36Z</time>
      </trkpt>
      <trkpt lat="45.87848" lon="4.27363">
        <ele>617.02</ele>
        <time>2019-10-28T12:53:41Z</time>
      </trkpt>
      <trkpt lat="45.87844" lon="4.27369">
        <ele>618.651</ele>
        <time>2019-10-28T12:53:46Z</time>
      </trkpt>
      <trkpt lat="45.8784" lon="4.27373">
        <ele>619.684</ele>
        <time>2019-10-28T12:53:52Z</time>
      </trkpt>
      <trkpt lat="45.87838" lon="4.27379">
        <ele>620.542</ele>
        <time>2019-10-28T12:53:57Z</time>
      </trkpt>
      <trkpt lat="45.87835" lon="4.27381">
        <ele>621.166</ele>
        <time>2019-10-28T12:54:03Z</time>
      </trkpt>
      <trkpt lat="45.87833" lon="4.27382">
        <ele>622.042</ele>
        <time>2019-10-28T12:54:09Z</time>
      </trkpt>
      <trkpt lat="45.87836" lon="4.27378">
        <ele>623.879</ele>
        <time>2019-10-28T12:54:15Z</time>
      </trkpt>
      <trkpt lat="45.8784" lon="4.27373">
        <ele>622.72</ele>
        <time>2019-10-28T12:54:21Z</time>
      </trkpt>
      <trkpt lat="45.87843" lon="4.27366">
        <ele>622.081</ele>
        <time>2019-10-28T12:54:27Z</time>
      </trkpt>
      <trkpt lat="45.87849" lon="4.27356">
        <ele>623.237</ele>
        <time>2019-10-28T12:54:33Z</time>
      </trkpt>
      <trkpt lat="45.87849" lon="4.27348">
        <ele>622.945</ele>
        <time>2019-10-28T12:54:39Z</time>
      </trkpt>
      <trkpt lat="45.87849" lon="4.2734">
        <ele>623.168</ele>
        <time>2019-10-28T12:54:44Z</time>
      </trkpt>
      <trkpt lat="45.87852" lon="4.27329">
        <ele>624.547</ele>
        <time>2019-10-28T12:54:50Z</time>
      </trkpt>
      <trkpt lat="45.87851" lon="4.27323">
        <ele>625.204</ele>
        <time>2019-10-28T12:54:55Z</time>
      </trkpt>
      <trkpt lat="45.8785" lon="4.27316">
        <ele>625.735</ele>
        <time>2019-10-28T12:55:00Z</time>
      </trkpt>
      <trkpt lat="45.87851" lon="4.27306">
        <ele>626.77</ele>
        <time>2019-10-28T12:55:06Z</time>
      </trkpt>
      <trkpt lat="45.87851" lon="4.27303">
        <ele>627.371</ele>
        <time>2019-10-28T12:55:12Z</time>
      </trkpt>
      <trkpt lat="45.8785" lon="4.27298">
        <ele>628.678</ele>
        <time>2019-10-28T12:55:17Z</time>
      </trkpt>
      <trkpt lat="45.87848" lon="4.27292">
        <ele>627.628</ele>
        <time>2019-10-28T12:55:23Z</time>
      </trkpt>
      <trkpt lat="45.87848" lon="4.27289">
        <ele>626.985</ele>
        <time>2019-10-28T12:55:28Z</time>
      </trkpt>
      <trkpt lat="45.87848" lon="4.27285">
        <ele>628.845</ele>
        <time>2019-10-28T12:55:34Z</time>
      </trkpt>
      <trkpt lat="45.87847" lon="4.2728">
        <ele>627.641</ele>
        <time>2019-10-28T12:55:40Z</time>
      </trkpt>
      <trkpt lat="45.87846" lon="4.27273">
        <ele>627.357</ele>
        <time>2019-10-28T12:55:46Z</time>
      </trkpt>
      <trkpt lat="45.87846" lon="4.27265">
        <ele>628.801</ele>
        <time>2019-10-28T12:55:52Z</time>
      </trkpt>
      <trkpt lat="45.87844" lon="4.27257">
        <ele>630.761</ele>
        <time>2019-10-28T12:55:58Z</time>
      </trkpt>
      <trkpt lat="45.87842" lon="4.27249">
        <ele>630.923</ele>
        <time>2019-10-28T12:56:03Z</time>
      </trkpt>
      <trkpt lat="45.8784" lon="4.27243">
        <ele>629.327</ele>
        <time>2019-10-28T12:56:09Z</time>
      </trkpt>
      <trkpt lat="45.87839" lon="4.27237">
        <ele>630.026</ele>
        <time>2019-10-28T12:56:14Z</time>
      </trkpt>
      <trkpt lat="45.87838" lon="4.2723">
        <ele>629.61</ele>
        <time>2019-10-28T12:56:20Z</time>
      </trkpt>
      <trkpt lat="45.87838" lon="4.27226">
        <ele>630.774</ele>
        <time>2019-10-28T12:56:25Z</time>
      </trkpt>
      <trkpt lat="45.87835" lon="4.27217">
        <ele>633.174</ele>
        <time>2019-10-28T12:56:31Z</time>
      </trkpt>
      <trkpt lat="45.87829" lon="4.27212">
        <ele>635.684</ele>
        <time>2019-10-28T12:56:36Z</time>
      </trkpt>
      <trkpt lat="45.87824" lon="4.27211">
        <ele>638.086</ele>
        <time>2019-10-28T12:56:41Z</time>
      </trkpt>
      <trkpt lat="45.87824" lon="4.27208">
        <ele>635.809</ele>
        <time>2019-10-28T12:56:47Z</time>
      </trkpt>
      <trkpt lat="45.87815" lon="4.27205">
        <ele>639.282</ele>
        <time>2019-10-28T12:56:53Z</time>
      </trkpt>
      <trkpt lat="45.8781" lon="4.27201">
        <ele>645.408</ele>
        <time>2019-10-28T12:56:58Z</time>
      </trkpt>
      <trkpt lat="45.87805" lon="4.27199">
        <ele>647.141</ele>
        <time>2019-10-28T12:57:03Z</time>
      </trkpt>
      <trkpt lat="45.878" lon="4.27197">
        <ele>646.585</ele>
        <time>2019-10-28T12:57:09Z</time>
      </trkpt>
      <trkpt lat="45.87795" lon="4.27195">
        <ele>646.971</ele>
        <time>2019-10-28T12:57:14Z</time>
      </trkpt>
      <trkpt lat="45.87788" lon="4.27191">
        <ele>647.814</ele>
        <time>2019-10-28T12:57:20Z</time>
      </trkpt>
      <trkpt lat="45.87783" lon="4.27186">
        <ele>647.877</ele>
        <time>2019-10-28T12:57:25Z</time>
      </trkpt>
      <trkpt lat="45.87777" lon="4.27182">
        <ele>647.081</ele>
        <time>2019-10-28T12:57:30Z</time>
      </trkpt>
      <trkpt lat="45.87771" lon="4.27177">
        <ele>647.365</ele>
        <time>2019-10-28T12:57:36Z</time>
      </trkpt>
      <trkpt lat="45.87768" lon="4.27169">
        <ele>648.511</ele>
        <time>2019-10-28T12:57:42Z</time>
      </trkpt>
      <trkpt lat="45.87762" lon="4.27168">
        <ele>648.925</ele>
        <time>2019-10-28T12:57:48Z</time>
      </trkpt>
      <trkpt lat="45.87759" lon="4.27162">
        <ele>648.864</ele>
        <time>2019-10-28T12:57:54Z</time>
      </trkpt>
      <trkpt lat="45.87755" lon="4.27159">
        <ele>647.72</ele>
        <time>2019-10-28T12:58:00Z</time>
      </trkpt>
      <trkpt lat="45.87748" lon="4.27153">
        <ele>647.312</ele>
        <time>2019-10-28T12:58:06Z</time>
      </trkpt>
      <trkpt lat="45.87743" lon="4.27149">
        <ele>648.609</ele>
        <time>2019-10-28T12:58:11Z</time>
      </trkpt>
      <trkpt lat="45.87737" lon="4.27146">
        <ele>650.343</ele>
        <time>2019-10-28T12:58:17Z</time>
      </trkpt>
      <trkpt lat="45.87732" lon="4.27144">
        <ele>652.236</ele>
        <time>2019-10-28T12:58:23Z</time>
      </trkpt>
      <trkpt lat="45.87728" lon="4.27143">
        <ele>652.053</ele>
        <time>2019-10-28T12:58:28Z</time>
      </trkpt>
      <trkpt lat="45.87727" lon="4.27142">
        <ele>652.399</ele>
        <time>2019-10-28T12:58:33Z</time>
      </trkpt>
      <trkpt lat="45.87727" lon="4.27142">
        <ele>652.17</ele>
        <time>2019-10-28T12:58:38Z</time>
      </trkpt>
      <trkpt lat="45.87727" lon="4.27142">
        <ele>651.901</ele>
        <time>2019-10-28T12:58:44Z</time>
      </trkpt>
      <trkpt lat="45.87727" lon="4.27141">
        <ele>650.924</ele>
        <time>2019-10-28T12:58:49Z</time>
      </trkpt>
      <trkpt lat="45.87727" lon="4.27141">
        <ele>651.274</ele>
        <time>2019-10-28T12:58:55Z</time>
      </trkpt>
      <trkpt lat="45.87727" lon="4.27142">
        <ele>653.535</ele>
        <time>2019-10-28T12:59:01Z</time>
      </trkpt>
      <trkpt lat="45.87727" lon="4.27142">
        <ele>653.527</ele>
        <time>2019-10-28T12:59:06Z</time>
      </trkpt>
      <trkpt lat="45.87727" lon="4.27142">
        <ele>653.508</ele>
        <time>2019-10-28T12:59:12Z</time>
      </trkpt>
      <trkpt lat="45.87725" lon="4.27139">
        <ele>653.623</ele>
        <time>2019-10-28T12:59:18Z</time>
      </trkpt>
      <trkpt lat="45.87722" lon="4.27134">
        <ele>653.508</ele>
        <time>2019-10-28T12:59:24Z</time>
      </trkpt>
      <trkpt lat="45.87719" lon="4.27132">
        <ele>653.68</ele>
        <time>2019-10-28T12:59:29Z</time>
      </trkpt>
      <trkpt lat="45.87715" lon="4.27128">
        <ele>653.395</ele>
        <time>2019-10-28T12:59:34Z</time>
      </trkpt>
      <trkpt lat="45.8771" lon="4.27124">
        <ele>652.706</ele>
        <time>2019-10-28T12:59:39Z</time>
      </trkpt>
      <trkpt lat="45.87705" lon="4.27121">
        <ele>651.272</ele>
        <time>2019-10-28T12:59:45Z</time>
      </trkpt>
      <trkpt lat="45.87702" lon="4.27117">
        <ele>650.823</ele>
        <time>2019-10-28T12:59:50Z</time>
      </trkpt>
      <trkpt lat="45.87698" lon="4.27112">
        <ele>651.315</ele>
        <time>2019-10-28T12:59:55Z</time>
      </trkpt>
      <trkpt lat="45.87692" lon="4.27104">
        <ele>651.472</ele>
        <time>2019-10-28T13:00:01Z</time>
      </trkpt>
      <trkpt lat="45.87691" lon="4.27097">
        <ele>651.686</ele>
        <time>2019-10-28T13:00:06Z</time>
      </trkpt>
      <trkpt lat="45.87691" lon="4.27096">
        <ele>652.527</ele>
        <time>2019-10-28T13:00:12Z</time>
      </trkpt>
      <trkpt lat="45.87689" lon="4.27091">
        <ele>653.586</ele>
        <time>2019-10-28T13:00:17Z</time>
      </trkpt>
      <trkpt lat="45.87688" lon="4.27085">
        <ele>652.931</ele>
        <time>2019-10-28T13:00:23Z</time>
      </trkpt>
      <trkpt lat="45.87688" lon="4.27081">
        <ele>652.991</ele>
        <time>2019-10-28T13:00:28Z</time>
      </trkpt>
      <trkpt lat="45.87685" lon="4.2707">
        <ele>653.088</ele>
        <time>2019-10-28T13:00:34Z</time>
      </trkpt>
      <trkpt lat="45.87683" lon="4.27056">
        <ele>652.62</ele>
        <time>2019-10-28T13:00:40Z</time>
      </trkpt>
      <trkpt lat="45.87681" lon="4.27044">
        <ele>653.511</ele>
        <time>2019-10-28T13:00:46Z</time>
      </trkpt>
      <trkpt lat="45.87681" lon="4.27035">
        <ele>653.175</ele>
        <time>2019-10-28T13:00:51Z</time>
      </trkpt>
      <trkpt lat="45.87678" lon="4.27024">
        <ele>654.146</ele>
        <time>2019-10-28T13:00:57Z</time>
      </trkpt>
      <trkpt lat="45.87677" lon="4.27014">
        <ele>653.426</ele>
        <time>2019-10-28T13:01:03Z</time>
      </trkpt>
      <trkpt lat="45.87677" lon="4.27005">
        <ele>654.562</ele>
        <time>2019-10-28T13:01:08Z</time>
      </trkpt>
      <trkpt lat="45.87674" lon="4.26994">
        <ele>656.348</ele>
        <time>2019-10-28T13:01:14Z</time>
      </trkpt>
      <trkpt lat="45.87673" lon="4.26984">
        <ele>659.266</ele>
        <time>2019-10-28T13:01:20Z</time>
      </trkpt>
      <trkpt lat="45.87672" lon="4.26975">
        <ele>660.732</ele>
        <time>2019-10-28T13:01:26Z</time>
      </trkpt>
      <trkpt lat="45.87672" lon="4.26966">
        <ele>661.26</ele>
        <time>2019-10-28T13:01:31Z</time>
      </trkpt>
      <trkpt lat="45.87671" lon="4.26956">
        <ele>662.493</ele>
        <time>2019-10-28T13:01:37Z</time>
      </trkpt>
      <trkpt lat="45.87671" lon="4.2695">
        <ele>661.305</ele>
        <time>2019-10-28T13:01:42Z</time>
      </trkpt>
      <trkpt lat="45.8767" lon="4.26941">
        <ele>660.752</ele>
        <time>2019-10-28T13:01:48Z</time>
      </trkpt>
      <trkpt lat="45.87669" lon="4.26933">
        <ele>660.799</ele>
        <time>2019-10-28T13:01:53Z</time>
      </trkpt>
      <trkpt lat="45.87667" lon="4.26923">
        <ele>660.931</ele>
        <time>2019-10-28T13:01:59Z</time>
      </trkpt>
      <trkpt lat="45.87664" lon="4.26913">
        <ele>662.197</ele>
        <time>2019-10-28T13:02:05Z</time>
      </trkpt>
      <trkpt lat="45.87663" lon="4.26907">
        <ele>661.899</ele>
        <time>2019-10-28T13:02:11Z</time>
      </trkpt>
      <trkpt lat="45.87663" lon="4.26901">
        <ele>661.411</ele>
        <time>2019-10-28T13:02:16Z</time>
      </trkpt>
      <trkpt lat="45.8766" lon="4.26892">
        <ele>661.214</ele>
        <time>2019-10-28T13:02:22Z</time>
      </trkpt>
      <trkpt lat="45.87659" lon="4.26883">
        <ele>660.269</ele>
        <time>2019-10-28T13:02:28Z</time>
      </trkpt>
      <trkpt lat="45.87658" lon="4.26876">
        <ele>659.633</ele>
        <time>2019-10-28T13:02:33Z</time>
      </trkpt>
      <trkpt lat="45.87655" lon="4.26866">
        <ele>659.479</ele>
        <time>2019-10-28T13:02:39Z</time>
      </trkpt>
      <trkpt lat="45.87651" lon="4.26856">
        <ele>659.309</ele>
        <time>2019-10-28T13:02:45Z</time>
      </trkpt>
      <trkpt lat="45.87649" lon="4.26846">
        <ele>659.098</ele>
        <time>2019-10-28T13:02:50Z</time>
      </trkpt>
      <trkpt lat="45.87643" lon="4.26836">
        <ele>660.458</ele>
        <time>2019-10-28T13:02:56Z</time>
      </trkpt>
      <trkpt lat="45.87638" lon="4.26829">
        <ele>661.304</ele>
        <time>2019-10-28T13:03:01Z</time>
      </trkpt>
      <trkpt lat="45.87632" lon="4.26822">
        <ele>660.42</ele>
        <time>2019-10-28T13:03:07Z</time>
      </trkpt>
      <trkpt lat="45.87626" lon="4.26816">
        <ele>660.071</ele>
        <time>2019-10-28T13:03:12Z</time>
      </trkpt>
      <trkpt lat="45.8762" lon="4.26811">
        <ele>660.315</ele>
        <time>2019-10-28T13:03:17Z</time>
      </trkpt>
      <trkpt lat="45.87615" lon="4.26805">
        <ele>661.46</ele>
        <time>2019-10-28T13:03:23Z</time>
      </trkpt>
      <trkpt lat="45.87609" lon="4.26799">
        <ele>661.774</ele>
        <time>2019-10-28T13:03:29Z</time>
      </trkpt>
      <trkpt lat="45.87602" lon="4.26793">
        <ele>664.643</ele>
        <time>2019-10-28T13:03:35Z</time>
      </trkpt>
      <trkpt lat="45.87596" lon="4.26789">
        <ele>663.187</ele>
        <time>2019-10-28T13:03:40Z</time>
      </trkpt>
      <trkpt lat="45.87591" lon="4.26784">
        <ele>663.085</ele>
        <time>2019-10-28T13:03:46Z</time>
      </trkpt>
      <trkpt lat="45.87583" lon="4.26786">
        <ele>664.076</ele>
        <time>2019-10-28T13:03:51Z</time>
      </trkpt>
      <trkpt lat="45.87575" lon="4.26785">
        <ele>664.815</ele>
        <time>2019-10-28T13:03:56Z</time>
      </trkpt>
      <trkpt lat="45.87569" lon="4.26781">
        <ele>663.831</ele>
        <time>2019-10-28T13:04:02Z</time>
      </trkpt>
      <trkpt lat="45.87562" lon="4.26778">
        <ele>666.065</ele>
        <time>2019-10-28T13:04:08Z</time>
      </trkpt>
      <trkpt lat="45.87557" lon="4.26772">
        <ele>663.275</ele>
        <time>2019-10-28T13:04:13Z</time>
      </trkpt>
      <trkpt lat="45.87552" lon="4.26766">
        <ele>664.21</ele>
        <time>2019-10-28T13:04:18Z</time>
      </trkpt>
      <trkpt lat="45.87546" lon="4.26762">
        <ele>664.187</ele>
        <time>2019-10-28T13:04:24Z</time>
      </trkpt>
      <trkpt lat="45.87539" lon="4.26758">
        <ele>669.706</ele>
        <time>2019-10-28T13:04:30Z</time>
      </trkpt>
      <trkpt lat="45.87535" lon="4.26754">
        <ele>670.638</ele>
        <time>2019-10-28T13:04:35Z</time>
      </trkpt>
      <trkpt lat="45.8753" lon="4.26749">
        <ele>673.969</ele>
        <time>2019-10-28T13:04:40Z</time>
      </trkpt>
      <trkpt lat="45.87526" lon="4.2674">
        <ele>670.273</ele>
        <time>2019-10-28T13:04:46Z</time>
      </trkpt>
      <trkpt lat="45.87522" lon="4.26732">
        <ele>672.296</ele>
        <time>2019-10-28T13:04:51Z</time>
      </trkpt>
      <trkpt lat="45.8752" lon="4.2672">
        <ele>674.676</ele>
        <time>2019-10-28T13:04:57Z</time>
      </trkpt>
      <trkpt lat="45.87519" lon="4.26709">
        <ele>676.52</ele>
        <time>2019-10-28T13:05:03Z</time>
      </trkpt>
      <trkpt lat="45.8752" lon="4.26701">
        <ele>675.915</ele>
        <time>2019-10-28T13:05:08Z</time>
      </trkpt>
      <trkpt lat="45.87521" lon="4.26694">
        <ele>675.153</ele>
        <time>2019-10-28T13:05:14Z</time>
      </trkpt>
      <trkpt lat="45.87523" lon="4.2669">
        <ele>673.664</ele>
        <time>2019-10-28T13:05:19Z</time>
      </trkpt>
      <trkpt lat="45.87526" lon="4.26686">
        <ele>661.179</ele>
        <time>2019-10-28T13:05:24Z</time>
      </trkpt>
      <trkpt lat="45.87528" lon="4.26677">
        <ele>660.785</ele>
        <time>2019-10-28T13:05:29Z</time>
      </trkpt>
      <trkpt lat="45.87527" lon="4.26667">
        <ele>663.392</ele>
        <time>2019-10-28T13:05:35Z</time>
      </trkpt>
      <trkpt lat="45.87532" lon="4.2666">
        <ele>657.705</ele>
        <time>2019-10-28T13:05:41Z</time>
      </trkpt>
      <trkpt lat="45.87538" lon="4.26651">
        <ele>656.915</ele>
        <time>2019-10-28T13:05:47Z</time>
      </trkpt>
      <trkpt lat="45.87541" lon="4.26644">
        <ele>655.485</ele>
        <time>2019-10-28T13:05:53Z</time>
      </trkpt>
      <trkpt lat="45.87544" lon="4.26636">
        <ele>656.127</ele>
        <time>2019-10-28T13:05:58Z</time>
      </trkpt>
      <trkpt lat="45.87549" lon="4.26627">
        <ele>654.015</ele>
        <time>2019-10-28T13:06:04Z</time>
      </trkpt>
      <trkpt lat="45.87553" lon="4.2662">
        <ele>657.751</ele>
        <time>2019-10-28T13:06:09Z</time>
      </trkpt>
      <trkpt lat="45.87556" lon="4.2661">
        <ele>657.905</ele>
        <time>2019-10-28T13:06:15Z</time>
      </trkpt>
      <trkpt lat="45.8756" lon="4.266">
        <ele>661.38</ele>
        <time>2019-10-28T13:06:21Z</time>
      </trkpt>
      <trkpt lat="45.87564" lon="4.26591">
        <ele>662.827</ele>
        <time>2019-10-28T13:06:27Z</time>
      </trkpt>
      <trkpt lat="45.87566" lon="4.26584">
        <ele>664.759</ele>
        <time>2019-10-28T13:06:32Z</time>
      </trkpt>
      <trkpt lat="45.87571" lon="4.26578">
        <ele>662.162</ele>
        <time>2019-10-28T13:06:38Z</time>
      </trkpt>
      <trkpt lat="45.87574" lon="4.26571">
        <ele>663.693</ele>
        <time>2019-10-28T13:06:43Z</time>
      </trkpt>
      <trkpt lat="45.87579" lon="4.2656">
        <ele>659.742</ele>
        <time>2019-10-28T13:06:49Z</time>
      </trkpt>
      <trkpt lat="45.87582" lon="4.26553">
        <ele>658.703</ele>
        <time>2019-10-28T13:06:54Z</time>
      </trkpt>
      <trkpt lat="45.87585" lon="4.26543">
        <ele>660.647</ele>
        <time>2019-10-28T13:07:00Z</time>
      </trkpt>
      <trkpt lat="45.87587" lon="4.26535">
        <ele>663.291</ele>
        <time>2019-10-28T13:07:05Z</time>
      </trkpt>
      <trkpt lat="45.8759" lon="4.26527">
        <ele>658.049</ele>
        <time>2019-10-28T13:07:11Z</time>
      </trkpt>
      <trkpt lat="45.87592" lon="4.2652">
        <ele>656.877</ele>
        <time>2019-10-28T13:07:17Z</time>
      </trkpt>
      <trkpt lat="45.87591" lon="4.26518">
        <ele>658.491</ele>
        <time>2019-10-28T13:07:22Z</time>
      </trkpt>
      <trkpt lat="45.8759" lon="4.26516">
        <ele>660.031</ele>
        <time>2019-10-28T13:07:28Z</time>
      </trkpt>
      <trkpt lat="45.87591" lon="4.26507">
        <ele>660.157</ele>
        <time>2019-10-28T13:07:33Z</time>
      </trkpt>
      <trkpt lat="45.87593" lon="4.26496">
        <ele>662.723</ele>
        <time>2019-10-28T13:07:39Z</time>
      </trkpt>
      <trkpt lat="45.87593" lon="4.26438">
        <ele>654.997</ele>
        <time>2019-10-28T13:08:08Z</time>
      </trkpt>
      <trkpt lat="45.87586" lon="4.26427">
        <ele>666.957</ele>
        <time>2019-10-28T13:08:13Z</time>
      </trkpt>
      <trkpt lat="45.87587" lon="4.26417">
        <ele>666.154</ele>
        <time>2019-10-28T13:08:18Z</time>
      </trkpt>
      <trkpt lat="45.87592" lon="4.26408">
        <ele>662.258</ele>
        <time>2019-10-28T13:08:24Z</time>
      </trkpt>
      <trkpt lat="45.87593" lon="4.26399">
        <ele>663.771</ele>
        <time>2019-10-28T13:08:29Z</time>
      </trkpt>
      <trkpt lat="45.87593" lon="4.26391">
        <ele>663.392</ele>
        <time>2019-10-28T13:08:35Z</time>
      </trkpt>
      <trkpt lat="45.87593" lon="4.26386">
        <ele>663.681</ele>
        <time>2019-10-28T13:08:41Z</time>
      </trkpt>
      <trkpt lat="45.87594" lon="4.26385">
        <ele>622.825</ele>
        <time>2019-10-28T13:08:47Z</time>
      </trkpt>
      <trkpt lat="45.87594" lon="4.26378">
        <ele>607.498</ele>
        <time>2019-10-28T13:08:52Z</time>
      </trkpt>
      <trkpt lat="45.87594" lon="4.2637">
        <ele>622.363</ele>
        <time>2019-10-28T13:08:58Z</time>
      </trkpt>
      <trkpt lat="45.87594" lon="4.26368">
        <ele>607.504</ele>
        <time>2019-10-28T13:09:03Z</time>
      </trkpt>
      <trkpt lat="45.87594" lon="4.26365">
        <ele>664.507</ele>
        <time>2019-10-28T13:09:09Z</time>
      </trkpt>
      <trkpt lat="45.87591" lon="4.2636">
        <ele>669.821</ele>
        <time>2019-10-28T13:09:15Z</time>
      </trkpt>
      <trkpt lat="45.87591" lon="4.26359">
        <ele>673.573</ele>
        <time>2019-10-28T13:09:21Z</time>
      </trkpt>
      <trkpt lat="45.87591" lon="4.26358">
        <ele>726.677</ele>
        <time>2019-10-28T13:09:26Z</time>
      </trkpt>
      <trkpt lat="45.87591" lon="4.26358">
        <ele>720.357</ele>
        <time>2019-10-28T13:09:32Z</time>
      </trkpt>
      <trkpt lat="45.87591" lon="4.26358">
        <ele>727.577</ele>
        <time>2019-10-28T13:09:37Z</time>
      </trkpt>
      <trkpt lat="45.87591" lon="4.26358">
        <ele>607.343</ele>
        <time>2019-10-28T13:09:42Z</time>
      </trkpt>
      <trkpt lat="45.87591" lon="4.26358">
        <ele>618.723</ele>
        <time>2019-10-28T13:09:48Z</time>
      </trkpt>
      <trkpt lat="45.87591" lon="4.26358">
        <ele>631.114</ele>
        <time>2019-10-28T13:09:53Z</time>
      </trkpt>
      <trkpt lat="45.87591" lon="4.26358">
        <ele>628.537</ele>
        <time>2019-10-28T13:09:58Z</time>
      </trkpt>
      <trkpt lat="45.87591" lon="4.26358">
        <ele>635.479</ele>
        <time>2019-10-28T13:10:04Z</time>
      </trkpt>
      <trkpt lat="45.87591" lon="4.26358">
        <ele>606.206</ele>
        <time>2019-10-28T13:10:09Z</time>
      </trkpt>
      <trkpt lat="45.87591" lon="4.26358">
        <ele>746.728</ele>
        <time>2019-10-28T13:10:15Z</time>
      </trkpt>
      <trkpt lat="45.87591" lon="4.26358">
        <ele>673.016</ele>
        <time>2019-10-28T13:10:21Z</time>
      </trkpt>
      <trkpt lat="45.87591" lon="4.26358">
        <ele>673.237</ele>
        <time>2019-10-28T13:10:27Z</time>
      </trkpt>
      <trkpt lat="45.87591" lon="4.26358">
        <ele>673.285</ele>
        <time>2019-10-28T13:10:32Z</time>
      </trkpt>
      <trkpt lat="45.8759" lon="4.26359">
        <ele>674.573</ele>
        <time>2019-10-28T13:10:38Z</time>
      </trkpt>
      <trkpt lat="45.87591" lon="4.26358">
        <ele>673.34</ele>
        <time>2019-10-28T13:10:44Z</time>
      </trkpt>
      <trkpt lat="45.87591" lon="4.26358">
        <ele>672.654</ele>
        <time>2019-10-28T13:10:49Z</time>
      </trkpt>
      <trkpt lat="45.87592" lon="4.26358">
        <ele>672.583</ele>
        <time>2019-10-28T13:10:55Z</time>
      </trkpt>
      <trkpt lat="45.87592" lon="4.26358">
        <ele>672.629</ele>
        <time>2019-10-28T13:11:00Z</time>
      </trkpt>
      <trkpt lat="45.87585" lon="4.26358">
        <ele>671.314</ele>
        <time>2019-10-28T13:11:06Z</time>
      </trkpt>
      <trkpt lat="45.87581" lon="4.26359">
        <ele>669.684</ele>
        <time>2019-10-28T13:11:12Z</time>
      </trkpt>
      <trkpt lat="45.87575" lon="4.26358">
        <ele>669.821</ele>
        <time>2019-10-28T13:11:17Z</time>
      </trkpt>
      <trkpt lat="45.87571" lon="4.2636">
        <ele>669.36</ele>
        <time>2019-10-28T13:11:23Z</time>
      </trkpt>
      <trkpt lat="45.87568" lon="4.2636">
        <ele>668.592</ele>
        <time>2019-10-28T13:11:29Z</time>
      </trkpt>
      <trkpt lat="45.87561" lon="4.26361">
        <ele>670.021</ele>
        <time>2019-10-28T13:11:34Z</time>
      </trkpt>
      <trkpt lat="45.87555" lon="4.26361">
        <ele>662.776</ele>
        <time>2019-10-28T13:11:40Z</time>
      </trkpt>
      <trkpt lat="45.87551" lon="4.26362">
        <ele>659.543</ele>
        <time>2019-10-28T13:11:45Z</time>
      </trkpt>
      <trkpt lat="45.87542" lon="4.26362">
        <ele>659.075</ele>
        <time>2019-10-28T13:11:51Z</time>
      </trkpt>
      <trkpt lat="45.87537" lon="4.26361">
        <ele>663.863</ele>
        <time>2019-10-28T13:11:57Z</time>
      </trkpt>
      <trkpt lat="45.87532" lon="4.2636">
        <ele>664.294</ele>
        <time>2019-10-28T13:12:02Z</time>
      </trkpt>
      <trkpt lat="45.87529" lon="4.26362">
        <ele>654.897</ele>
        <time>2019-10-28T13:12:08Z</time>
      </trkpt>
      <trkpt lat="45.87524" lon="4.26362">
        <ele>654.89</ele>
        <time>2019-10-28T13:12:13Z</time>
      </trkpt>
      <trkpt lat="45.87519" lon="4.26364">
        <ele>653.547</ele>
        <time>2019-10-28T13:12:19Z</time>
      </trkpt>
      <trkpt lat="45.87515" lon="4.26365">
        <ele>653.354</ele>
        <time>2019-10-28T13:12:24Z</time>
      </trkpt>
      <trkpt lat="45.8751" lon="4.26371">
        <ele>647.012</ele>
        <time>2019-10-28T13:12:29Z</time>
      </trkpt>
      <trkpt lat="45.87504" lon="4.26373">
        <ele>646.667</ele>
        <time>2019-10-28T13:12:35Z</time>
      </trkpt>
      <trkpt lat="45.87501" lon="4.2637">
        <ele>642.852</ele>
        <time>2019-10-28T13:12:40Z</time>
      </trkpt>
      <trkpt lat="45.87496" lon="4.26372">
        <ele>642.276</ele>
        <time>2019-10-28T13:12:46Z</time>
      </trkpt>
      <trkpt lat="45.8749" lon="4.26373">
        <ele>641.947</ele>
        <time>2019-10-28T13:12:52Z</time>
      </trkpt>
      <trkpt lat="45.87485" lon="4.26377">
        <ele>641.982</ele>
        <time>2019-10-28T13:12:58Z</time>
      </trkpt>
      <trkpt lat="45.87484" lon="4.26381">
        <ele>641.799</ele>
        <time>2019-10-28T13:13:03Z</time>
      </trkpt>
      <trkpt lat="45.87481" lon="4.26383">
        <ele>655.861</ele>
        <time>2019-10-28T13:13:09Z</time>
      </trkpt>
      <trkpt lat="45.87478" lon="4.26383">
        <ele>655.401</ele>
        <time>2019-10-28T13:13:14Z</time>
      </trkpt>
      <trkpt lat="45.87474" lon="4.26384">
        <ele>663.648</ele>
        <time>2019-10-28T13:13:20Z</time>
      </trkpt>
      <trkpt lat="45.87469" lon="4.26386">
        <ele>659.643</ele>
        <time>2019-10-28T13:13:25Z</time>
      </trkpt>
      <trkpt lat="45.87463" lon="4.26391">
        <ele>654.466</ele>
        <time>2019-10-28T13:13:31Z</time>
      </trkpt>
      <trkpt lat="45.87461" lon="4.26391">
        <ele>662.158</ele>
        <time>2019-10-28T13:13:36Z</time>
      </trkpt>
      <trkpt lat="45.87458" lon="4.26394">
        <ele>661.382</ele>
        <time>2019-10-28T13:13:41Z</time>
      </trkpt>
      <trkpt lat="45.87454" lon="4.26392">
        <ele>658.152</ele>
        <time>2019-10-28T13:13:47Z</time>
      </trkpt>
      <trkpt lat="45.87448" lon="4.26389">
        <ele>655.058</ele>
        <time>2019-10-28T13:13:52Z</time>
      </trkpt>
      <trkpt lat="45.87441" lon="4.26388">
        <ele>659.391</ele>
        <time>2019-10-28T13:13:57Z</time>
      </trkpt>
      <trkpt lat="45.87436" lon="4.2639">
        <ele>652.419</ele>
        <time>2019-10-28T13:14:02Z</time>
      </trkpt>
      <trkpt lat="45.8743" lon="4.2639">
        <ele>648.531</ele>
        <time>2019-10-28T13:14:07Z</time>
      </trkpt>
      <trkpt lat="45.87425" lon="4.26388">
        <ele>645.083</ele>
        <time>2019-10-28T13:14:13Z</time>
      </trkpt>
      <trkpt lat="45.87422" lon="4.26388">
        <ele>646.29</ele>
        <time>2019-10-28T13:14:18Z</time>
      </trkpt>
      <trkpt lat="45.87417" lon="4.26387">
        <ele>636.475</ele>
        <time>2019-10-28T13:14:24Z</time>
      </trkpt>
      <trkpt lat="45.87413" lon="4.26386">
        <ele>634.085</ele>
        <time>2019-10-28T13:14:29Z</time>
      </trkpt>
      <trkpt lat="45.8741" lon="4.26386">
        <ele>641.967</ele>
        <time>2019-10-28T13:14:34Z</time>
      </trkpt>
      <trkpt lat="45.87408" lon="4.26386">
        <ele>646.038</ele>
        <time>2019-10-28T13:14:40Z</time>
      </trkpt>
      <trkpt lat="45.87407" lon="4.26384">
        <ele>644.561</ele>
        <time>2019-10-28T13:14:46Z</time>
      </trkpt>
      <trkpt lat="45.87407" lon="4.26386">
        <ele>646.203</ele>
        <time>2019-10-28T13:14:52Z</time>
      </trkpt>
      <trkpt lat="45.87407" lon="4.26388">
        <ele>638.707</ele>
        <time>2019-10-28T13:14:57Z</time>
      </trkpt>
      <trkpt lat="45.87407" lon="4.26388">
        <ele>643.643</ele>
        <time>2019-10-28T13:15:03Z</time>
      </trkpt>
      <trkpt lat="45.87405" lon="4.26387">
        <ele>646.826</ele>
        <time>2019-10-28T13:15:09Z</time>
      </trkpt>
      <trkpt lat="45.87403" lon="4.26386">
        <ele>650.745</ele>
        <time>2019-10-28T13:15:15Z</time>
      </trkpt>
      <trkpt lat="45.87402" lon="4.26385">
        <ele>651.219</ele>
        <time>2019-10-28T13:15:20Z</time>
      </trkpt>
      <trkpt lat="45.87402" lon="4.26385">
        <ele>640.101</ele>
        <time>2019-10-28T13:15:26Z</time>
      </trkpt>
      <trkpt lat="45.87401" lon="4.26385">
        <ele>638.298</ele>
        <time>2019-10-28T13:15:32Z</time>
      </trkpt>
      <trkpt lat="45.87401" lon="4.26385">
        <ele>643.28</ele>
        <time>2019-10-28T13:15:37Z</time>
      </trkpt>
      <trkpt lat="45.87401" lon="4.26385">
        <ele>646.782</ele>
        <time>2019-10-28T13:15:42Z</time>
      </trkpt>
      <trkpt lat="45.87401" lon="4.26385">
        <ele>640.094</ele>
        <time>2019-10-28T13:15:48Z</time>
      </trkpt>
      <trkpt lat="45.87401" lon="4.26385">
        <ele>638.158</ele>
        <time>2019-10-28T13:15:54Z</time>
      </trkpt>
      <trkpt lat="45.87401" lon="4.26385">
        <ele>642.772</ele>
        <time>2019-10-28T13:16:00Z</time>
      </trkpt>
      <trkpt lat="45.87401" lon="4.26385">
        <ele>635.705</ele>
        <time>2019-10-28T13:16:06Z</time>
      </trkpt>
      <trkpt lat="45.87401" lon="4.26385">
        <ele>634.206</ele>
        <time>2019-10-28T13:16:11Z</time>
      </trkpt>
      <trkpt lat="45.87401" lon="4.26385">
        <ele>636.932</ele>
        <time>2019-10-28T13:16:17Z</time>
      </trkpt>
      <trkpt lat="45.87401" lon="4.26385">
        <ele>635.431</ele>
        <time>2019-10-28T13:16:22Z</time>
      </trkpt>
      <trkpt lat="45.87396" lon="4.26382">
        <ele>634.008</ele>
        <time>2019-10-28T13:16:28Z</time>
      </trkpt>
      <trkpt lat="45.87395" lon="4.26381">
        <ele>635.789</ele>
        <time>2019-10-28T13:16:33Z</time>
      </trkpt>
      <trkpt lat="45.87395" lon="4.26381">
        <ele>642.634</ele>
        <time>2019-10-28T13:16:39Z</time>
      </trkpt>
      <trkpt lat="45.87395" lon="4.26382">
        <ele>641.828</ele>
        <time>2019-10-28T13:16:44Z</time>
      </trkpt>
      <trkpt lat="45.87393" lon="4.2638">
        <ele>643.459</ele>
        <time>2019-10-28T13:16:50Z</time>
      </trkpt>
      <trkpt lat="45.87387" lon="4.26374">
        <ele>645.29</ele>
        <time>2019-10-28T13:16:56Z</time>
      </trkpt>
      <trkpt lat="45.87382" lon="4.26371">
        <ele>646.099</ele>
        <time>2019-10-28T13:17:01Z</time>
      </trkpt>
      <trkpt lat="45.87376" lon="4.26367">
        <ele>642.613</ele>
        <time>2019-10-28T13:17:06Z</time>
      </trkpt>
      <trkpt lat="45.87373" lon="4.26367">
        <ele>637.198</ele>
        <time>2019-10-28T13:17:11Z</time>
      </trkpt>
      <trkpt lat="45.87367" lon="4.26364">
        <ele>629.929</ele>
        <time>2019-10-28T13:17:17Z</time>
      </trkpt>
      <trkpt lat="45.87366" lon="4.26364">
        <ele>644.955</ele>
        <time>2019-10-28T13:17:23Z</time>
      </trkpt>
      <trkpt lat="45.87363" lon="4.26366">
        <ele>642.846</ele>
        <time>2019-10-28T13:17:28Z</time>
      </trkpt>
      <trkpt lat="45.87359" lon="4.26366">
        <ele>640.921</ele>
        <time>2019-10-28T13:17:34Z</time>
      </trkpt>
      <trkpt lat="45.87357" lon="4.26365">
        <ele>633.169</ele>
        <time>2019-10-28T13:17:39Z</time>
      </trkpt>
      <trkpt lat="45.8735" lon="4.26363">
        <ele>639.188</ele>
        <time>2019-10-28T13:17:44Z</time>
      </trkpt>
      <trkpt lat="45.87342" lon="4.26365">
        <ele>635.376</ele>
        <time>2019-10-28T13:17:50Z</time>
      </trkpt>
      <trkpt lat="45.87337" lon="4.26367">
        <ele>637.263</ele>
        <time>2019-10-28T13:17:56Z</time>
      </trkpt>
      <trkpt lat="45.87336" lon="4.26367">
        <ele>641.196</ele>
        <time>2019-10-28T13:18:01Z</time>
      </trkpt>
      <trkpt lat="45.87335" lon="4.26367">
        <ele>640.833</ele>
        <time>2019-10-28T13:18:06Z</time>
      </trkpt>
      <trkpt lat="45.87334" lon="4.26367">
        <ele>649.058</ele>
        <time>2019-10-28T13:18:12Z</time>
      </trkpt>
      <trkpt lat="45.87333" lon="4.26367">
        <ele>648.901</ele>
        <time>2019-10-28T13:18:17Z</time>
      </trkpt>
      <trkpt lat="45.87332" lon="4.26367">
        <ele>641.935</ele>
        <time>2019-10-28T13:18:23Z</time>
      </trkpt>
      <trkpt lat="45.87326" lon="4.26366">
        <ele>637.032</ele>
        <time>2019-10-28T13:18:29Z</time>
      </trkpt>
      <trkpt lat="45.87325" lon="4.26367">
        <ele>636.693</ele>
        <time>2019-10-28T13:18:34Z</time>
      </trkpt>
      <trkpt lat="45.87323" lon="4.26368">
        <ele>635.529</ele>
        <time>2019-10-28T13:18:40Z</time>
      </trkpt>
      <trkpt lat="45.87321" lon="4.26367">
        <ele>639.25</ele>
        <time>2019-10-28T13:18:45Z</time>
      </trkpt>
      <trkpt lat="45.87321" lon="4.26368">
        <ele>642.125</ele>
        <time>2019-10-28T13:18:51Z</time>
      </trkpt>
      <trkpt lat="45.87321" lon="4.26368">
        <ele>640.955</ele>
        <time>2019-10-28T13:18:57Z</time>
      </trkpt>
      <trkpt lat="45.87321" lon="4.26368">
        <ele>635.251</ele>
        <time>2019-10-28T13:19:03Z</time>
      </trkpt>
      <trkpt lat="45.87321" lon="4.26368">
        <ele>638.589</ele>
        <time>2019-10-28T13:19:08Z</time>
      </trkpt>
      <trkpt lat="45.87321" lon="4.26368">
        <ele>638.519</ele>
        <time>2019-10-28T13:19:13Z</time>
      </trkpt>
      <trkpt lat="45.87319" lon="4.26367">
        <ele>630.673</ele>
        <time>2019-10-28T13:19:19Z</time>
      </trkpt>
      <trkpt lat="45.8732" lon="4.26368">
        <ele>628.46</ele>
        <time>2019-10-28T13:19:24Z</time>
      </trkpt>
      <trkpt lat="45.8732" lon="4.26368">
        <ele>625.47</ele>
        <time>2019-10-28T13:19:29Z</time>
      </trkpt>
      <trkpt lat="45.87319" lon="4.26368">
        <ele>637.353</ele>
        <time>2019-10-28T13:19:35Z</time>
      </trkpt>
      <trkpt lat="45.8732" lon="4.26368">
        <ele>641.894</ele>
        <time>2019-10-28T13:19:40Z</time>
      </trkpt>
      <trkpt lat="45.8732" lon="4.26368">
        <ele>645.425</ele>
        <time>2019-10-28T13:19:46Z</time>
      </trkpt>
      <trkpt lat="45.87319" lon="4.26367">
        <ele>641.602</ele>
        <time>2019-10-28T13:19:52Z</time>
      </trkpt>
      <trkpt lat="45.8731" lon="4.26362">
        <ele>645.636</ele>
        <time>2019-10-28T13:19:58Z</time>
      </trkpt>
      <trkpt lat="45.87299" lon="4.26359">
        <ele>648.533</ele>
        <time>2019-10-28T13:20:04Z</time>
      </trkpt>
      <trkpt lat="45.87291" lon="4.26357">
        <ele>640.106</ele>
        <time>2019-10-28T13:20:09Z</time>
      </trkpt>
      <trkpt lat="45.87287" lon="4.26354">
        <ele>620.584</ele>
        <time>2019-10-28T13:20:15Z</time>
      </trkpt>
      <trkpt lat="45.87283" lon="4.26352">
        <ele>624.057</ele>
        <time>2019-10-28T13:20:20Z</time>
      </trkpt>
      <trkpt lat="45.87276" lon="4.26348">
        <ele>640.315</ele>
        <time>2019-10-28T13:20:25Z</time>
      </trkpt>
      <trkpt lat="45.87269" lon="4.26344">
        <ele>639.198</ele>
        <time>2019-10-28T13:20:31Z</time>
      </trkpt>
      <trkpt lat="45.87264" lon="4.26338">
        <ele>650.238</ele>
        <time>2019-10-28T13:20:37Z</time>
      </trkpt>
      <trkpt lat="45.87258" lon="4.26334">
        <ele>646.934</ele>
        <time>2019-10-28T13:20:42Z</time>
      </trkpt>
      <trkpt lat="45.87251" lon="4.26329">
        <ele>649.836</ele>
        <time>2019-10-28T13:20:48Z</time>
      </trkpt>
      <trkpt lat="45.87246" lon="4.26325">
        <ele>642.936</ele>
        <time>2019-10-28T13:20:54Z</time>
      </trkpt>
      <trkpt lat="45.87243" lon="4.26323">
        <ele>631.213</ele>
        <time>2019-10-28T13:20:59Z</time>
      </trkpt>
      <trkpt lat="45.87239" lon="4.26323">
        <ele>641.66</ele>
        <time>2019-10-28T13:21:05Z</time>
      </trkpt>
      <trkpt lat="45.87237" lon="4.26321">
        <ele>644.44</ele>
        <time>2019-10-28T13:21:11Z</time>
      </trkpt>
      <trkpt lat="45.87237" lon="4.2632">
        <ele>642.827</ele>
        <time>2019-10-28T13:21:16Z</time>
      </trkpt>
      <trkpt lat="45.87237" lon="4.2632">
        <ele>630.987</ele>
        <time>2019-10-28T13:21:22Z</time>
      </trkpt>
      <trkpt lat="45.87237" lon="4.2632">
        <ele>631.361</ele>
        <time>2019-10-28T13:21:28Z</time>
      </trkpt>
      <trkpt lat="45.87237" lon="4.2632">
        <ele>627.931</ele>
        <time>2019-10-28T13:21:34Z</time>
      </trkpt>
      <trkpt lat="45.87237" lon="4.2632">
        <ele>633.577</ele>
        <time>2019-10-28T13:21:40Z</time>
      </trkpt>
      <trkpt lat="45.87237" lon="4.2632">
        <ele>643.942</ele>
        <time>2019-10-28T13:21:46Z</time>
      </trkpt>
      <trkpt lat="45.87237" lon="4.2632">
        <ele>636.773</ele>
        <time>2019-10-28T13:21:52Z</time>
      </trkpt>
      <trkpt lat="45.87237" lon="4.2632">
        <ele>634.915</ele>
        <time>2019-10-28T13:21:57Z</time>
      </trkpt>
      <trkpt lat="45.87237" lon="4.2632">
        <ele>644.755</ele>
        <time>2019-10-28T13:22:03Z</time>
      </trkpt>
      <trkpt lat="45.87237" lon="4.2632">
        <ele>640.731</ele>
        <time>2019-10-28T13:22:09Z</time>
      </trkpt>
      <trkpt lat="45.87237" lon="4.2632">
        <ele>640.706</ele>
        <time>2019-10-28T13:22:15Z</time>
      </trkpt>
      <trkpt lat="45.87237" lon="4.2632">
        <ele>642.055</ele>
        <time>2019-10-28T13:22:21Z</time>
      </trkpt>
      <trkpt lat="45.87237" lon="4.2632">
        <ele>650.571</ele>
        <time>2019-10-28T13:22:27Z</time>
      </trkpt>
      <trkpt lat="45.87237" lon="4.2632">
        <ele>645.58</ele>
        <time>2019-10-28T13:22:33Z</time>
      </trkpt>
      <trkpt lat="45.87237" lon="4.2632">
        <ele>649.565</ele>
        <time>2019-10-28T13:22:38Z</time>
      </trkpt>
      <trkpt lat="45.87236" lon="4.2632">
        <ele>647.619</ele>
        <time>2019-10-28T13:22:44Z</time>
      </trkpt>
      <trkpt lat="45.87231" lon="4.26319">
        <ele>648.408</ele>
        <time>2019-10-28T13:22:49Z</time>
      </trkpt>
      <trkpt lat="45.87225" lon="4.26317">
        <ele>636.687</ele>
        <time>2019-10-28T13:22:54Z</time>
      </trkpt>
      <trkpt lat="45.87219" lon="4.26314">
        <ele>635.93</ele>
        <time>2019-10-28T13:23:00Z</time>
      </trkpt>
      <trkpt lat="45.87214" lon="4.2631">
        <ele>644.977</ele>
        <time>2019-10-28T13:23:06Z</time>
      </trkpt>
      <trkpt lat="45.87209" lon="4.26306">
        <ele>643.64</ele>
        <time>2019-10-28T13:23:12Z</time>
      </trkpt>
      <trkpt lat="45.87206" lon="4.26302">
        <ele>646.357</ele>
        <time>2019-10-28T13:23:18Z</time>
      </trkpt>
      <trkpt lat="45.87204" lon="4.26298">
        <ele>632.494</ele>
        <time>2019-10-28T13:23:24Z</time>
      </trkpt>
      <trkpt lat="45.872" lon="4.26297">
        <ele>639.57</ele>
        <time>2019-10-28T13:23:29Z</time>
      </trkpt>
      <trkpt lat="45.87195" lon="4.26294">
        <ele>636.226</ele>
        <time>2019-10-28T13:23:35Z</time>
      </trkpt>
      <trkpt lat="45.8719" lon="4.26289">
        <ele>629.26</ele>
        <time>2019-10-28T13:23:40Z</time>
      </trkpt>
      <trkpt lat="45.87185" lon="4.26286">
        <ele>634.135</ele>
        <time>2019-10-28T13:23:45Z</time>
      </trkpt>
      <trkpt lat="45.87181" lon="4.26282">
        <ele>639.126</ele>
        <time>2019-10-28T13:23:51Z</time>
      </trkpt>
      <trkpt lat="45.87178" lon="4.26276">
        <ele>639.97</ele>
        <time>2019-10-28T13:23:57Z</time>
      </trkpt>
      <trkpt lat="45.87174" lon="4.26272">
        <ele>630.1</ele>
        <time>2019-10-28T13:24:02Z</time>
      </trkpt>
      <trkpt lat="45.87169" lon="4.26266">
        <ele>648.546</ele>
        <time>2019-10-28T13:24:08Z</time>
      </trkpt>
      <trkpt lat="45.87166" lon="4.2626">
        <ele>647.272</ele>
        <time>2019-10-28T13:24:13Z</time>
      </trkpt>
      <trkpt lat="45.87162" lon="4.26253">
        <ele>647.097</ele>
        <time>2019-10-28T13:24:19Z</time>
      </trkpt>
      <trkpt lat="45.87158" lon="4.26246">
        <ele>634.927</ele>
        <time>2019-10-28T13:24:24Z</time>
      </trkpt>
      <trkpt lat="45.87156" lon="4.26241">
        <ele>650.928</ele>
        <time>2019-10-28T13:24:30Z</time>
      </trkpt>
      <trkpt lat="45.87155" lon="4.26232">
        <ele>646.055</ele>
        <time>2019-10-28T13:24:36Z</time>
      </trkpt>
      <trkpt lat="45.87153" lon="4.26221">
        <ele>635.26</ele>
        <time>2019-10-28T13:24:42Z</time>
      </trkpt>
      <trkpt lat="45.87151" lon="4.26215">
        <ele>646.018</ele>
        <time>2019-10-28T13:24:47Z</time>
      </trkpt>
      <trkpt lat="45.8715" lon="4.2621">
        <ele>644.371</ele>
        <time>2019-10-28T13:24:52Z</time>
      </trkpt>
      <trkpt lat="45.87151" lon="4.262">
        <ele>641.608</ele>
        <time>2019-10-28T13:24:58Z</time>
      </trkpt>
      <trkpt lat="45.8715" lon="4.2619">
        <ele>627.856</ele>
        <time>2019-10-28T13:25:04Z</time>
      </trkpt>
      <trkpt lat="45.87147" lon="4.26183">
        <ele>637.411</ele>
        <time>2019-10-28T13:25:09Z</time>
      </trkpt>
      <trkpt lat="45.87147" lon="4.26173">
        <ele>641.523</ele>
        <time>2019-10-28T13:25:15Z</time>
      </trkpt>
      <trkpt lat="45.87148" lon="4.26166">
        <ele>633.114</ele>
        <time>2019-10-28T13:25:20Z</time>
      </trkpt>
      <trkpt lat="45.87147" lon="4.26159">
        <ele>621.163</ele>
        <time>2019-10-28T13:25:25Z</time>
      </trkpt>
      <trkpt lat="45.87148" lon="4.26148">
        <ele>632.88</ele>
        <time>2019-10-28T13:25:31Z</time>
      </trkpt>
      <trkpt lat="45.87145" lon="4.2614">
        <ele>635.941</ele>
        <time>2019-10-28T13:25:36Z</time>
      </trkpt>
      <trkpt lat="45.8714" lon="4.26133">
        <ele>635.473</ele>
        <time>2019-10-28T13:25:42Z</time>
      </trkpt>
      <trkpt lat="45.87137" lon="4.26124">
        <ele>637.863</ele>
        <time>2019-10-28T13:25:47Z</time>
      </trkpt>
      <trkpt lat="45.87133" lon="4.26117">
        <ele>632.852</ele>
        <time>2019-10-28T13:25:52Z</time>
      </trkpt>
      <trkpt lat="45.87128" lon="4.26108">
        <ele>630.527</ele>
        <time>2019-10-28T13:25:58Z</time>
      </trkpt>
      <trkpt lat="45.87126" lon="4.26102">
        <ele>634.964</ele>
        <time>2019-10-28T13:26:04Z</time>
      </trkpt>
      <trkpt lat="45.87123" lon="4.26091">
        <ele>625.724</ele>
        <time>2019-10-28T13:26:10Z</time>
      </trkpt>
      <trkpt lat="45.87119" lon="4.26084">
        <ele>620.457</ele>
        <time>2019-10-28T13:26:16Z</time>
      </trkpt>
      <trkpt lat="45.87116" lon="4.26076">
        <ele>622.28</ele>
        <time>2019-10-28T13:26:22Z</time>
      </trkpt>
      <trkpt lat="45.87113" lon="4.26069">
        <ele>632.803</ele>
        <time>2019-10-28T13:26:28Z</time>
      </trkpt>
      <trkpt lat="45.8711" lon="4.26064">
        <ele>637.953</ele>
        <time>2019-10-28T13:26:34Z</time>
      </trkpt>
      <trkpt lat="45.87106" lon="4.26051">
        <ele>646.547</ele>
        <time>2019-10-28T13:26:40Z</time>
      </trkpt>
      <trkpt lat="45.87103" lon="4.26045">
        <ele>648.91</ele>
        <time>2019-10-28T13:26:45Z</time>
      </trkpt>
      <trkpt lat="45.87096" lon="4.26037">
        <ele>635.086</ele>
        <time>2019-10-28T13:26:51Z</time>
      </trkpt>
      <trkpt lat="45.87084" lon="4.26033">
        <ele>639.828</ele>
        <time>2019-10-28T13:26:57Z</time>
      </trkpt>
      <trkpt lat="45.87077" lon="4.26026">
        <ele>633.141</ele>
        <time>2019-10-28T13:27:03Z</time>
      </trkpt>
      <trkpt lat="45.8707" lon="4.26016">
        <ele>646.261</ele>
        <time>2019-10-28T13:27:08Z</time>
      </trkpt>
      <trkpt lat="45.87063" lon="4.2601">
        <ele>648.816</ele>
        <time>2019-10-28T13:27:13Z</time>
      </trkpt>
      <trkpt lat="45.87057" lon="4.26006">
        <ele>635.99</ele>
        <time>2019-10-28T13:27:19Z</time>
      </trkpt>
      <trkpt lat="45.87051" lon="4.26004">
        <ele>632.958</ele>
        <time>2019-10-28T13:27:25Z</time>
      </trkpt>
      <trkpt lat="45.87042" lon="4.26002">
        <ele>643.055</ele>
        <time>2019-10-28T13:27:31Z</time>
      </trkpt>
      <trkpt lat="45.87033" lon="4.26003">
        <ele>640.128</ele>
        <time>2019-10-28T13:27:37Z</time>
      </trkpt>
      <trkpt lat="45.87025" lon="4.26005">
        <ele>635.217</ele>
        <time>2019-10-28T13:27:43Z</time>
      </trkpt>
      <trkpt lat="45.87019" lon="4.26001">
        <ele>622.14</ele>
        <time>2019-10-28T13:27:48Z</time>
      </trkpt>
      <trkpt lat="45.87013" lon="4.25998">
        <ele>634.948</ele>
        <time>2019-10-28T13:27:54Z</time>
      </trkpt>
      <trkpt lat="45.87008" lon="4.25999">
        <ele>631.272</ele>
        <time>2019-10-28T13:27:59Z</time>
      </trkpt>
      <trkpt lat="45.87004" lon="4.25996">
        <ele>618.914</ele>
        <time>2019-10-28T13:28:04Z</time>
      </trkpt>
      <trkpt lat="45.87" lon="4.25994">
        <ele>630.772</ele>
        <time>2019-10-28T13:28:10Z</time>
      </trkpt>
      <trkpt lat="45.86995" lon="4.25993">
        <ele>633.145</ele>
        <time>2019-10-28T13:28:16Z</time>
      </trkpt>
      <trkpt lat="45.86993" lon="4.25992">
        <ele>640.307</ele>
        <time>2019-10-28T13:28:21Z</time>
      </trkpt>
      <trkpt lat="45.86993" lon="4.25992">
        <ele>626.663</ele>
        <time>2019-10-28T13:28:27Z</time>
      </trkpt>
      <trkpt lat="45.86992" lon="4.25992">
        <ele>632.499</ele>
        <time>2019-10-28T13:28:33Z</time>
      </trkpt>
      <trkpt lat="45.86991" lon="4.25992">
        <ele>630.25</ele>
        <time>2019-10-28T13:28:38Z</time>
      </trkpt>
      <trkpt lat="45.8699" lon="4.25991">
        <ele>631.495</ele>
        <time>2019-10-28T13:28:43Z</time>
      </trkpt>
      <trkpt lat="45.86989" lon="4.2599">
        <ele>626.382</ele>
        <time>2019-10-28T13:28:48Z</time>
      </trkpt>
      <trkpt lat="45.86984" lon="4.25988">
        <ele>642.616</ele>
        <time>2019-10-28T13:28:54Z</time>
      </trkpt>
      <trkpt lat="45.86979" lon="4.25985">
        <ele>641.447</ele>
        <time>2019-10-28T13:29:00Z</time>
      </trkpt>
      <trkpt lat="45.86975" lon="4.25982">
        <ele>643.045</ele>
        <time>2019-10-28T13:29:06Z</time>
      </trkpt>
      <trkpt lat="45.86971" lon="4.25979">
        <ele>645.021</ele>
        <time>2019-10-28T13:29:11Z</time>
      </trkpt>
      <trkpt lat="45.86966" lon="4.25975">
        <ele>642.508</ele>
        <time>2019-10-28T13:29:17Z</time>
      </trkpt>
      <trkpt lat="45.86962" lon="4.2597">
        <ele>645.58</ele>
        <time>2019-10-28T13:29:22Z</time>
      </trkpt>
      <trkpt lat="45.86956" lon="4.25968">
        <ele>640.249</ele>
        <time>2019-10-28T13:29:28Z</time>
      </trkpt>
      <trkpt lat="45.86953" lon="4.25962">
        <ele>632.603</ele>
        <time>2019-10-28T13:29:34Z</time>
      </trkpt>
      <trkpt lat="45.86952" lon="4.25962">
        <ele>625.782</ele>
        <time>2019-10-28T13:29:39Z</time>
      </trkpt>
      <trkpt lat="45.86947" lon="4.25961">
        <ele>628.168</ele>
        <time>2019-10-28T13:29:45Z</time>
      </trkpt>
      <trkpt lat="45.86943" lon="4.25957">
        <ele>624.25</ele>
        <time>2019-10-28T13:29:51Z</time>
      </trkpt>
      <trkpt lat="45.8694" lon="4.25953">
        <ele>629.198</ele>
        <time>2019-10-28T13:29:57Z</time>
      </trkpt>
      <trkpt lat="45.86938" lon="4.25948">
        <ele>631.193</ele>
        <time>2019-10-28T13:30:03Z</time>
      </trkpt>
      <trkpt lat="45.86936" lon="4.25942">
        <ele>623.092</ele>
        <time>2019-10-28T13:30:09Z</time>
      </trkpt>
      <trkpt lat="45.86937" lon="4.25941">
        <ele>636.176</ele>
        <time>2019-10-28T13:30:14Z</time>
      </trkpt>
      <trkpt lat="45.86937" lon="4.25936">
        <ele>645.12</ele>
        <time>2019-10-28T13:30:20Z</time>
      </trkpt>
      <trkpt lat="45.86937" lon="4.2593">
        <ele>641.007</ele>
        <time>2019-10-28T13:30:26Z</time>
      </trkpt>
      <trkpt lat="45.86936" lon="4.25929">
        <ele>631.636</ele>
        <time>2019-10-28T13:30:32Z</time>
      </trkpt>
      <trkpt lat="45.86935" lon="4.25929">
        <ele>634.234</ele>
        <time>2019-10-28T13:30:38Z</time>
      </trkpt>
      <trkpt lat="45.86935" lon="4.25929">
        <ele>636.26</ele>
        <time>2019-10-28T13:30:43Z</time>
      </trkpt>
      <trkpt lat="45.86935" lon="4.25929">
        <ele>632.608</ele>
        <time>2019-10-28T13:30:49Z</time>
      </trkpt>
      <trkpt lat="45.86935" lon="4.25929">
        <ele>633.223</ele>
        <time>2019-10-28T13:30:54Z</time>
      </trkpt>
      <trkpt lat="45.86935" lon="4.25929">
        <ele>626.246</ele>
        <time>2019-10-28T13:31:00Z</time>
      </trkpt>
      <trkpt lat="45.86935" lon="4.2592">
        <ele>627.033</ele>
        <time>2019-10-28T13:31:06Z</time>
      </trkpt>
      <trkpt lat="45.86935" lon="4.25917">
        <ele>623.699</ele>
        <time>2019-10-28T13:31:12Z</time>
      </trkpt>
      <trkpt lat="45.86935" lon="4.25917">
        <ele>628.562</ele>
        <time>2019-10-28T13:31:18Z</time>
      </trkpt>
      <trkpt lat="45.86935" lon="4.25918">
        <ele>647.744</ele>
        <time>2019-10-28T13:31:23Z</time>
      </trkpt>
      <trkpt lat="45.86934" lon="4.25918">
        <ele>640.95</ele>
        <time>2019-10-28T13:31:29Z</time>
      </trkpt>
      <trkpt lat="45.86934" lon="4.25918">
        <ele>636.826</ele>
        <time>2019-10-28T13:31:35Z</time>
      </trkpt>
      <trkpt lat="45.86934" lon="4.25919">
        <ele>637.316</ele>
        <time>2019-10-28T13:31:41Z</time>
      </trkpt>
      <trkpt lat="45.86934" lon="4.25919">
        <ele>638.017</ele>
        <time>2019-10-28T13:31:46Z</time>
      </trkpt>
      <trkpt lat="45.86934" lon="4.2592">
        <ele>632.063</ele>
        <time>2019-10-28T13:31:52Z</time>
      </trkpt>
      <trkpt lat="45.86934" lon="4.2592">
        <ele>643.454</ele>
        <time>2019-10-28T13:31:58Z</time>
      </trkpt>
      <trkpt lat="45.86934" lon="4.2592">
        <ele>627.331</ele>
        <time>2019-10-28T13:32:03Z</time>
      </trkpt>
      <trkpt lat="45.86934" lon="4.2592">
        <ele>620.209</ele>
        <time>2019-10-28T13:32:09Z</time>
      </trkpt>
      <trkpt lat="45.86934" lon="4.2592">
        <ele>624.293</ele>
        <time>2019-10-28T13:32:15Z</time>
      </trkpt>
      <trkpt lat="45.86934" lon="4.2592">
        <ele>619.965</ele>
        <time>2019-10-28T13:32:21Z</time>
      </trkpt>
      <trkpt lat="45.86933" lon="4.2592">
        <ele>621.076</ele>
        <time>2019-10-28T13:32:27Z</time>
      </trkpt>
      <trkpt lat="45.86933" lon="4.2592">
        <ele>633.757</ele>
        <time>2019-10-28T13:32:32Z</time>
      </trkpt>
      <trkpt lat="45.86933" lon="4.2592">
        <ele>636.701</ele>
        <time>2019-10-28T13:32:38Z</time>
      </trkpt>
      <trkpt lat="45.86933" lon="4.2592">
        <ele>635.878</ele>
        <time>2019-10-28T13:32:43Z</time>
      </trkpt>
      <trkpt lat="45.86932" lon="4.25922">
        <ele>637.222</ele>
        <time>2019-10-28T13:32:48Z</time>
      </trkpt>
      <trkpt lat="45.86929" lon="4.25926">
        <ele>637.843</ele>
        <time>2019-10-28T13:32:54Z</time>
      </trkpt>
      <trkpt lat="45.86926" lon="4.25924">
        <ele>638.567</ele>
        <time>2019-10-28T13:32:59Z</time>
      </trkpt>
      <trkpt lat="45.86922" lon="4.25921">
        <ele>637.977</ele>
        <time>2019-10-28T13:33:04Z</time>
      </trkpt>
      <trkpt lat="45.86918" lon="4.25917">
        <ele>637.588</ele>
        <time>2019-10-28T13:33:09Z</time>
      </trkpt>
      <trkpt lat="45.86914" lon="4.25916">
        <ele>627.465</ele>
        <time>2019-10-28T13:33:15Z</time>
      </trkpt>
      <trkpt lat="45.8691" lon="4.25916">
        <ele>623.244</ele>
        <time>2019-10-28T13:33:20Z</time>
      </trkpt>
      <trkpt lat="45.86904" lon="4.25917">
        <ele>618.432</ele>
        <time>2019-10-28T13:33:26Z</time>
      </trkpt>
      <trkpt lat="45.86901" lon="4.25917">
        <ele>677.942</ele>
        <time>2019-10-28T13:33:32Z</time>
      </trkpt>
      <trkpt lat="45.86895" lon="4.25918">
        <ele>708.188</ele>
        <time>2019-10-28T13:33:37Z</time>
      </trkpt>
      <trkpt lat="45.86892" lon="4.2592">
        <ele>737.476</ele>
        <time>2019-10-28T13:33:43Z</time>
      </trkpt>
      <trkpt lat="45.86891" lon="4.25922">
        <ele>648.781</ele>
        <time>2019-10-28T13:33:49Z</time>
      </trkpt>
      <trkpt lat="45.8689" lon="4.25929">
        <ele>633.088</ele>
        <time>2019-10-28T13:33:55Z</time>
      </trkpt>
      <trkpt lat="45.86887" lon="4.25933">
        <ele>640.176</ele>
        <time>2019-10-28T13:34:01Z</time>
      </trkpt>
      <trkpt lat="45.86886" lon="4.25936">
        <ele>634.488</ele>
        <time>2019-10-28T13:34:06Z</time>
      </trkpt>
      <trkpt lat="45.86875" lon="4.2595">
        <ele>639.954</ele>
        <time>2019-10-28T13:34:12Z</time>
      </trkpt>
      <trkpt lat="45.86868" lon="4.25955">
        <ele>639.465</ele>
        <time>2019-10-28T13:34:17Z</time>
      </trkpt>
      <trkpt lat="45.86861" lon="4.25954">
        <ele>635.266</ele>
        <time>2019-10-28T13:34:23Z</time>
      </trkpt>
      <trkpt lat="45.86854" lon="4.25955">
        <ele>641.164</ele>
        <time>2019-10-28T13:34:28Z</time>
      </trkpt>
      <trkpt lat="45.86845" lon="4.25958">
        <ele>633.434</ele>
        <time>2019-10-28T13:34:34Z</time>
      </trkpt>
      <trkpt lat="45.86838" lon="4.25959">
        <ele>636.334</ele>
        <time>2019-10-28T13:34:39Z</time>
      </trkpt>
      <trkpt lat="45.86831" lon="4.25957">
        <ele>634.624</ele>
        <time>2019-10-28T13:34:44Z</time>
      </trkpt>
      <trkpt lat="45.86825" lon="4.25954">
        <ele>622.874</ele>
        <time>2019-10-28T13:34:50Z</time>
      </trkpt>
      <trkpt lat="45.86822" lon="4.25952">
        <ele>625.602</ele>
        <time>2019-10-28T13:34:55Z</time>
      </trkpt>
      <trkpt lat="45.86819" lon="4.25949">
        <ele>594.665</ele>
        <time>2019-10-28T13:35:01Z</time>
      </trkpt>
      <trkpt lat="45.86811" lon="4.25946">
        <ele>608.592</ele>
        <time>2019-10-28T13:35:06Z</time>
      </trkpt>
      <trkpt lat="45.86806" lon="4.25947">
        <ele>612.056</ele>
        <time>2019-10-28T13:35:12Z</time>
      </trkpt>
      <trkpt lat="45.86798" lon="4.25945">
        <ele>613.247</ele>
        <time>2019-10-28T13:35:18Z</time>
      </trkpt>
      <trkpt lat="45.86788" lon="4.25941">
        <ele>615.016</ele>
        <time>2019-10-28T13:35:24Z</time>
      </trkpt>
      <trkpt lat="45.86781" lon="4.25938">
        <ele>610.597</ele>
        <time>2019-10-28T13:35:29Z</time>
      </trkpt>
      <trkpt lat="45.86773" lon="4.25937">
        <ele>604.597</ele>
        <time>2019-10-28T13:35:35Z</time>
      </trkpt>
      <trkpt lat="45.86772" lon="4.25938">
        <ele>600.45</ele>
        <time>2019-10-28T13:35:40Z</time>
      </trkpt>
      <trkpt lat="45.86766" lon="4.25937">
        <ele>585.86</ele>
        <time>2019-10-28T13:35:46Z</time>
      </trkpt>
      <trkpt lat="45.86755" lon="4.25935">
        <ele>587.662</ele>
        <time>2019-10-28T13:35:52Z</time>
      </trkpt>
      <trkpt lat="45.86747" lon="4.25934">
        <ele>586.724</ele>
        <time>2019-10-28T13:35:58Z</time>
      </trkpt>
      <trkpt lat="45.86742" lon="4.25933">
        <ele>589.287</ele>
        <time>2019-10-28T13:36:03Z</time>
      </trkpt>
      <trkpt lat="45.86733" lon="4.25928">
        <ele>699.746</ele>
        <time>2019-10-28T13:36:09Z</time>
      </trkpt>
      <trkpt lat="45.86726" lon="4.25928">
        <ele>687.907</ele>
        <time>2019-10-28T13:36:14Z</time>
      </trkpt>
      <trkpt lat="45.86719" lon="4.25926">
        <ele>681.127</ele>
        <time>2019-10-28T13:36:19Z</time>
      </trkpt>
      <trkpt lat="45.86712" lon="4.25924">
        <ele>606.926</ele>
        <time>2019-10-28T13:36:25Z</time>
      </trkpt>
      <trkpt lat="45.86708" lon="4.25923">
        <ele>610.367</ele>
        <time>2019-10-28T13:36:31Z</time>
      </trkpt>
      <trkpt lat="45.86703" lon="4.25923">
        <ele>609.667</ele>
        <time>2019-10-28T13:36:36Z</time>
      </trkpt>
      <trkpt lat="45.86696" lon="4.25926">
        <ele>618.859</ele>
        <time>2019-10-28T13:36:41Z</time>
      </trkpt>
      <trkpt lat="45.86692" lon="4.25925">
        <ele>619.022</ele>
        <time>2019-10-28T13:36:47Z</time>
      </trkpt>
      <trkpt lat="45.86691" lon="4.2592">
        <ele>613.178</ele>
        <time>2019-10-28T13:36:52Z</time>
      </trkpt>
      <trkpt lat="45.86687" lon="4.25921">
        <ele>602.583</ele>
        <time>2019-10-28T13:36:58Z</time>
      </trkpt>
      <trkpt lat="45.86682" lon="4.2592">
        <ele>605.031</ele>
        <time>2019-10-28T13:37:03Z</time>
      </trkpt>
      <trkpt lat="45.86677" lon="4.25921">
        <ele>599.1</ele>
        <time>2019-10-28T13:37:09Z</time>
      </trkpt>
      <trkpt lat="45.86672" lon="4.2592">
        <ele>611.023</ele>
        <time>2019-10-28T13:37:14Z</time>
      </trkpt>
      <trkpt lat="45.86666" lon="4.25919">
        <ele>608.243</ele>
        <time>2019-10-28T13:37:19Z</time>
      </trkpt>
      <trkpt lat="45.86659" lon="4.25918">
        <ele>607.448</ele>
        <time>2019-10-28T13:37:25Z</time>
      </trkpt>
      <trkpt lat="45.86653" lon="4.25918">
        <ele>599.888</ele>
        <time>2019-10-28T13:37:30Z</time>
      </trkpt>
      <trkpt lat="45.86644" lon="4.25918">
        <ele>602.207</ele>
        <time>2019-10-28T13:37:35Z</time>
      </trkpt>
      <trkpt lat="45.86638" lon="4.25915">
        <ele>692.334</ele>
        <time>2019-10-28T13:37:41Z</time>
      </trkpt>
      <trkpt lat="45.86635" lon="4.25912">
        <ele>724.079</ele>
        <time>2019-10-28T13:37:46Z</time>
      </trkpt>
      <trkpt lat="45.86631" lon="4.25912">
        <ele>723.728</ele>
        <time>2019-10-28T13:37:52Z</time>
      </trkpt>
      <trkpt lat="45.86624" lon="4.25911">
        <ele>752.552</ele>
        <time>2019-10-28T13:37:58Z</time>
      </trkpt>
      <trkpt lat="45.86617" lon="4.25916">
        <ele>758.054</ele>
        <time>2019-10-28T13:38:03Z</time>
      </trkpt>
      <trkpt lat="45.86614" lon="4.25913">
        <ele>597.853</ele>
        <time>2019-10-28T13:38:08Z</time>
      </trkpt>
      <trkpt lat="45.86609" lon="4.25913">
        <ele>599.266</ele>
        <time>2019-10-28T13:38:14Z</time>
      </trkpt>
      <trkpt lat="45.86602" lon="4.25916">
        <ele>598.67</ele>
        <time>2019-10-28T13:38:20Z</time>
      </trkpt>
      <trkpt lat="45.86597" lon="4.2592">
        <ele>735.371</ele>
        <time>2019-10-28T13:38:26Z</time>
      </trkpt>
      <trkpt lat="45.86591" lon="4.25922">
        <ele>677.976</ele>
        <time>2019-10-28T13:38:32Z</time>
      </trkpt>
      <trkpt lat="45.86586" lon="4.25923">
        <ele>667.673</ele>
        <time>2019-10-28T13:38:38Z</time>
      </trkpt>
      <trkpt lat="45.86582" lon="4.25925">
        <ele>666.239</ele>
        <time>2019-10-28T13:38:43Z</time>
      </trkpt>
      <trkpt lat="45.86582" lon="4.25923">
        <ele>701.563</ele>
        <time>2019-10-28T13:38:48Z</time>
      </trkpt>
      <trkpt lat="45.86582" lon="4.25924">
        <ele>739.006</ele>
        <time>2019-10-28T13:38:54Z</time>
      </trkpt>
      <trkpt lat="45.86582" lon="4.25924">
        <ele>684.232</ele>
        <time>2019-10-28T13:39:00Z</time>
      </trkpt>
      <trkpt lat="45.86582" lon="4.25923">
        <ele>661.949</ele>
        <time>2019-10-28T13:39:05Z</time>
      </trkpt>
      <trkpt lat="45.86582" lon="4.25924">
        <ele>691.772</ele>
        <time>2019-10-28T13:39:11Z</time>
      </trkpt>
      <trkpt lat="45.86582" lon="4.25924">
        <ele>704.382</ele>
        <time>2019-10-28T13:39:16Z</time>
      </trkpt>
      <trkpt lat="45.86582" lon="4.25924">
        <ele>611.762</ele>
        <time>2019-10-28T13:39:21Z</time>
      </trkpt>
      <trkpt lat="45.86582" lon="4.25924">
        <ele>614.529</ele>
        <time>2019-10-28T13:39:27Z</time>
      </trkpt>
      <trkpt lat="45.86582" lon="4.25924">
        <ele>626.542</ele>
        <time>2019-10-28T13:39:33Z</time>
      </trkpt>
      <trkpt lat="45.86582" lon="4.25924">
        <ele>633.062</ele>
        <time>2019-10-28T13:39:38Z</time>
      </trkpt>
      <trkpt lat="45.86582" lon="4.25924">
        <ele>641.596</ele>
        <time>2019-10-28T13:39:44Z</time>
      </trkpt>
      <trkpt lat="45.86582" lon="4.25924">
        <ele>635.805</ele>
        <time>2019-10-28T13:39:49Z</time>
      </trkpt>
      <trkpt lat="45.86582" lon="4.25924">
        <ele>624.136</ele>
        <time>2019-10-28T13:39:54Z</time>
      </trkpt>
      <trkpt lat="45.86582" lon="4.25924">
        <ele>577.923</ele>
        <time>2019-10-28T13:40:00Z</time>
      </trkpt>
      <trkpt lat="45.86582" lon="4.25924">
        <ele>578.222</ele>
        <time>2019-10-28T13:40:05Z</time>
      </trkpt>
      <trkpt lat="45.86581" lon="4.25924">
        <ele>572.425</ele>
        <time>2019-10-28T13:40:11Z</time>
      </trkpt>
      <trkpt lat="45.8658" lon="4.2592">
        <ele>568.678</ele>
        <time>2019-10-28T13:40:17Z</time>
      </trkpt>
      <trkpt lat="45.86574" lon="4.25922">
        <ele>569.183</ele>
        <time>2019-10-28T13:40:23Z</time>
      </trkpt>
      <trkpt lat="45.86564" lon="4.25924">
        <ele>570.445</ele>
        <time>2019-10-28T13:40:29Z</time>
      </trkpt>
      <trkpt lat="45.86557" lon="4.25923">
        <ele>627.755</ele>
        <time>2019-10-28T13:40:34Z</time>
      </trkpt>
      <trkpt lat="45.8655" lon="4.25925">
        <ele>585.593</ele>
        <time>2019-10-28T13:40:39Z</time>
      </trkpt>
      <trkpt lat="45.86542" lon="4.25928">
        <ele>580.46</ele>
        <time>2019-10-28T13:40:45Z</time>
      </trkpt>
      <trkpt lat="45.86535" lon="4.25928">
        <ele>578.231</ele>
        <time>2019-10-28T13:40:51Z</time>
      </trkpt>
      <trkpt lat="45.86527" lon="4.25932">
        <ele>576.495</ele>
        <time>2019-10-28T13:40:57Z</time>
      </trkpt>
      <trkpt lat="45.86522" lon="4.25932">
        <ele>576.645</ele>
        <time>2019-10-28T13:41:02Z</time>
      </trkpt>
      <trkpt lat="45.86518" lon="4.25929">
        <ele>575.206</ele>
        <time>2019-10-28T13:41:08Z</time>
      </trkpt>
      <trkpt lat="45.86514" lon="4.25928">
        <ele>573.196</ele>
        <time>2019-10-28T13:41:13Z</time>
      </trkpt>
      <trkpt lat="45.86509" lon="4.25929">
        <ele>572.264</ele>
        <time>2019-10-28T13:41:19Z</time>
      </trkpt>
      <trkpt lat="45.86503" lon="4.25928">
        <ele>573.386</ele>
        <time>2019-10-28T13:41:24Z</time>
      </trkpt>
      <trkpt lat="45.86497" lon="4.25928">
        <ele>571.196</ele>
        <time>2019-10-28T13:41:30Z</time>
      </trkpt>
      <trkpt lat="45.86491" lon="4.25929">
        <ele>573.184</ele>
        <time>2019-10-28T13:41:35Z</time>
      </trkpt>
      <trkpt lat="45.86486" lon="4.25931">
        <ele>572.202</ele>
        <time>2019-10-28T13:41:40Z</time>
      </trkpt>
      <trkpt lat="45.86481" lon="4.2593">
        <ele>573.263</ele>
        <time>2019-10-28T13:41:46Z</time>
      </trkpt>
      <trkpt lat="45.86474" lon="4.25933">
        <ele>574.72</ele>
        <time>2019-10-28T13:41:52Z</time>
      </trkpt>
      <trkpt lat="45.86467" lon="4.25936">
        <ele>575.444</ele>
        <time>2019-10-28T13:41:58Z</time>
      </trkpt>
      <trkpt lat="45.86461" lon="4.25937">
        <ele>576.007</ele>
        <time>2019-10-28T13:42:04Z</time>
      </trkpt>
      <trkpt lat="45.86457" lon="4.25938">
        <ele>574.658</ele>
        <time>2019-10-28T13:42:09Z</time>
      </trkpt>
      <trkpt lat="45.86452" lon="4.25938">
        <ele>574.391</ele>
        <time>2019-10-28T13:42:15Z</time>
      </trkpt>
      <trkpt lat="45.86445" lon="4.25939">
        <ele>574.353</ele>
        <time>2019-10-28T13:42:21Z</time>
      </trkpt>
      <trkpt lat="45.86439" lon="4.25938">
        <ele>573.585</ele>
        <time>2019-10-28T13:42:26Z</time>
      </trkpt>
      <trkpt lat="45.86434" lon="4.2594">
        <ele>572.083</ele>
        <time>2019-10-28T13:42:32Z</time>
      </trkpt>
      <trkpt lat="45.8643" lon="4.25941">
        <ele>570.778</ele>
        <time>2019-10-28T13:42:38Z</time>
      </trkpt>
      <trkpt lat="45.86425" lon="4.25941">
        <ele>573.98</ele>
        <time>2019-10-28T13:42:44Z</time>
      </trkpt>
      <trkpt lat="45.86419" lon="4.2594">
        <ele>573.389</ele>
        <time>2019-10-28T13:42:50Z</time>
      </trkpt>
      <trkpt lat="45.86412" lon="4.25941">
        <ele>575.377</ele>
        <time>2019-10-28T13:42:55Z</time>
      </trkpt>
      <trkpt lat="45.86404" lon="4.25941">
        <ele>573.342</ele>
        <time>2019-10-28T13:43:01Z</time>
      </trkpt>
      <trkpt lat="45.86397" lon="4.25943">
        <ele>572.971</ele>
        <time>2019-10-28T13:43:06Z</time>
      </trkpt>
      <trkpt lat="45.86391" lon="4.25941">
        <ele>575.61</ele>
        <time>2019-10-28T13:43:12Z</time>
      </trkpt>
      <trkpt lat="45.86389" lon="4.25942">
        <ele>576.754</ele>
        <time>2019-10-28T13:43:18Z</time>
      </trkpt>
      <trkpt lat="45.86387" lon="4.25941">
        <ele>574.609</ele>
        <time>2019-10-28T13:43:24Z</time>
      </trkpt>
      <trkpt lat="45.86382" lon="4.25941">
        <ele>574.602</ele>
        <time>2019-10-28T13:43:29Z</time>
      </trkpt>
      <trkpt lat="45.86378" lon="4.25939">
        <ele>575.747</ele>
        <time>2019-10-28T13:43:34Z</time>
      </trkpt>
      <trkpt lat="45.86371" lon="4.2594">
        <ele>576.417</ele>
        <time>2019-10-28T13:43:40Z</time>
      </trkpt>
      <trkpt lat="45.86365" lon="4.25941">
        <ele>581.336</ele>
        <time>2019-10-28T13:43:46Z</time>
      </trkpt>
      <trkpt lat="45.86359" lon="4.25942">
        <ele>582.18</ele>
        <time>2019-10-28T13:43:52Z</time>
      </trkpt>
      <trkpt lat="45.86354" lon="4.25943">
        <ele>580.283</ele>
        <time>2019-10-28T13:43:57Z</time>
      </trkpt>
      <trkpt lat="45.8635" lon="4.25946">
        <ele>758.799</ele>
        <time>2019-10-28T13:44:03Z</time>
      </trkpt>
      <trkpt lat="45.86343" lon="4.25947">
        <ele>707.911</ele>
        <time>2019-10-28T13:44:09Z</time>
      </trkpt>
      <trkpt lat="45.86337" lon="4.25945">
        <ele>732.058</ele>
        <time>2019-10-28T13:44:14Z</time>
      </trkpt>
      <trkpt lat="45.8633" lon="4.25944">
        <ele>726.542</ele>
        <time>2019-10-28T13:44:20Z</time>
      </trkpt>
      <trkpt lat="45.86324" lon="4.25943">
        <ele>723.777</ele>
        <time>2019-10-28T13:44:26Z</time>
      </trkpt>
      <trkpt lat="45.86318" lon="4.25943">
        <ele>734.847</ele>
        <time>2019-10-28T13:44:32Z</time>
      </trkpt>
      <trkpt lat="45.86313" lon="4.25946">
        <ele>724.614</ele>
        <time>2019-10-28T13:44:37Z</time>
      </trkpt>
      <trkpt lat="45.86308" lon="4.25946">
        <ele>743.896</ele>
        <time>2019-10-28T13:44:42Z</time>
      </trkpt>
      <trkpt lat="45.86303" lon="4.2595">
        <ele>752.109</ele>
        <time>2019-10-28T13:44:48Z</time>
      </trkpt>
      <trkpt lat="45.86297" lon="4.25953">
        <ele>757.45</ele>
        <time>2019-10-28T13:44:54Z</time>
      </trkpt>
      <trkpt lat="45.8629" lon="4.25954">
        <ele>726.335</ele>
        <time>2019-10-28T13:44:59Z</time>
      </trkpt>
      <trkpt lat="45.86284" lon="4.25952">
        <ele>756.599</ele>
        <time>2019-10-28T13:45:05Z</time>
      </trkpt>
      <trkpt lat="45.86279" lon="4.25951">
        <ele>756.161</ele>
        <time>2019-10-28T13:45:10Z</time>
      </trkpt>
      <trkpt lat="45.86275" lon="4.2595">
        <ele>758.006</ele>
        <time>2019-10-28T13:45:16Z</time>
      </trkpt>
      <trkpt lat="45.86269" lon="4.25949">
        <ele>737.887</ele>
        <time>2019-10-28T13:45:22Z</time>
      </trkpt>
      <trkpt lat="45.86264" lon="4.25947">
        <ele>723.006</ele>
        <time>2019-10-28T13:45:28Z</time>
      </trkpt>
      <trkpt lat="45.86255" lon="4.25946">
        <ele>740.337</ele>
        <time>2019-10-28T13:45:34Z</time>
      </trkpt>
      <trkpt lat="45.86249" lon="4.25948">
        <ele>746.442</ele>
        <time>2019-10-28T13:45:39Z</time>
      </trkpt>
      <trkpt lat="45.86247" lon="4.25951">
        <ele>726.932</ele>
        <time>2019-10-28T13:45:44Z</time>
      </trkpt>
      <trkpt lat="45.86243" lon="4.25949">
        <ele>693.654</ele>
        <time>2019-10-28T13:45:50Z</time>
      </trkpt>
      <trkpt lat="45.86243" lon="4.25946">
        <ele>689.864</ele>
        <time>2019-10-28T13:45:56Z</time>
      </trkpt>
      <trkpt lat="45.86244" lon="4.25946">
        <ele>683.813</ele>
        <time>2019-10-28T13:46:01Z</time>
      </trkpt>
      <trkpt lat="45.86244" lon="4.25946">
        <ele>692.804</ele>
        <time>2019-10-28T13:46:07Z</time>
      </trkpt>
      <trkpt lat="45.86244" lon="4.25945">
        <ele>723.465</ele>
        <time>2019-10-28T13:46:13Z</time>
      </trkpt>
      <trkpt lat="45.86244" lon="4.25946">
        <ele>740.499</ele>
        <time>2019-10-28T13:46:18Z</time>
      </trkpt>
      <trkpt lat="45.86244" lon="4.25946">
        <ele>773.696</ele>
        <time>2019-10-28T13:46:24Z</time>
      </trkpt>
      <trkpt lat="45.86245" lon="4.25945">
        <ele>771.273</ele>
        <time>2019-10-28T13:46:30Z</time>
      </trkpt>
      <trkpt lat="45.86245" lon="4.25946">
        <ele>731.854</ele>
        <time>2019-10-28T13:46:35Z</time>
      </trkpt>
      <trkpt lat="45.86245" lon="4.25945">
        <ele>731.033</ele>
        <time>2019-10-28T13:46:40Z</time>
      </trkpt>
      <trkpt lat="45.86246" lon="4.25946">
        <ele>730.622</ele>
        <time>2019-10-28T13:46:46Z</time>
      </trkpt>
      <trkpt lat="45.86245" lon="4.25948">
        <ele>717.592</ele>
        <time>2019-10-28T13:46:51Z</time>
      </trkpt>
      <trkpt lat="45.86244" lon="4.25949">
        <ele>735.279</ele>
        <time>2019-10-28T13:46:57Z</time>
      </trkpt>
      <trkpt lat="45.86244" lon="4.25949">
        <ele>716.544</ele>
        <time>2019-10-28T13:47:03Z</time>
      </trkpt>
      <trkpt lat="45.86244" lon="4.25949">
        <ele>699.198</ele>
        <time>2019-10-28T13:47:09Z</time>
      </trkpt>
      <trkpt lat="45.86243" lon="4.25949">
        <ele>705.359</ele>
        <time>2019-10-28T13:47:14Z</time>
      </trkpt>
      <trkpt lat="45.86243" lon="4.25949">
        <ele>738.241</ele>
        <time>2019-10-28T13:47:19Z</time>
      </trkpt>
      <trkpt lat="45.86243" lon="4.25949">
        <ele>734.85</ele>
        <time>2019-10-28T13:47:25Z</time>
      </trkpt>
      <trkpt lat="45.86244" lon="4.25949">
        <ele>733.202</ele>
        <time>2019-10-28T13:47:31Z</time>
      </trkpt>
      <trkpt lat="45.86244" lon="4.25946">
        <ele>747.195</ele>
        <time>2019-10-28T13:47:36Z</time>
      </trkpt>
      <trkpt lat="45.86245" lon="4.25945">
        <ele>705.507</ele>
        <time>2019-10-28T13:47:41Z</time>
      </trkpt>
      <trkpt lat="45.86244" lon="4.25945">
        <ele>701.773</ele>
        <time>2019-10-28T13:47:47Z</time>
      </trkpt>
      <trkpt lat="45.86244" lon="4.25945">
        <ele>678.471</ele>
        <time>2019-10-28T13:47:53Z</time>
      </trkpt>
      <trkpt lat="45.86244" lon="4.25945">
        <ele>689.376</ele>
        <time>2019-10-28T13:47:59Z</time>
      </trkpt>
      <trkpt lat="45.86244" lon="4.25945">
        <ele>700.556</ele>
        <time>2019-10-28T13:48:05Z</time>
      </trkpt>
      <trkpt lat="45.86243" lon="4.25945">
        <ele>704.62</ele>
        <time>2019-10-28T13:48:10Z</time>
      </trkpt>
      <trkpt lat="45.86244" lon="4.25947">
        <ele>696.4</ele>
        <time>2019-10-28T13:48:16Z</time>
      </trkpt>
      <trkpt lat="45.86244" lon="4.25948">
        <ele>687.937</ele>
        <time>2019-10-28T13:48:21Z</time>
      </trkpt>
      <trkpt lat="45.86244" lon="4.25948">
        <ele>697.72</ele>
        <time>2019-10-28T13:48:27Z</time>
      </trkpt>
      <trkpt lat="45.86244" lon="4.25948">
        <ele>695.778</ele>
        <time>2019-10-28T13:48:33Z</time>
      </trkpt>
      <trkpt lat="45.86244" lon="4.25948">
        <ele>699.53</ele>
        <time>2019-10-28T13:48:39Z</time>
      </trkpt>
      <trkpt lat="45.86244" lon="4.25948">
        <ele>709.265</ele>
        <time>2019-10-28T13:48:44Z</time>
      </trkpt>
      <trkpt lat="45.86244" lon="4.25948">
        <ele>691.12</ele>
        <time>2019-10-28T13:48:50Z</time>
      </trkpt>
      <trkpt lat="45.86244" lon="4.25947">
        <ele>711.461</ele>
        <time>2019-10-28T13:48:56Z</time>
      </trkpt>
      <trkpt lat="45.86244" lon="4.25946">
        <ele>710.906</ele>
        <time>2019-10-28T13:49:01Z</time>
      </trkpt>
      <trkpt lat="45.86244" lon="4.25946">
        <ele>710.771</ele>
        <time>2019-10-28T13:49:07Z</time>
      </trkpt>
      <trkpt lat="45.86244" lon="4.25946">
        <ele>708.844</ele>
        <time>2019-10-28T13:49:12Z</time>
      </trkpt>
      <trkpt lat="45.86244" lon="4.25946">
        <ele>714.941</ele>
        <time>2019-10-28T13:49:17Z</time>
      </trkpt>
      <trkpt lat="45.86244" lon="4.25945">
        <ele>648.136</ele>
        <time>2019-10-28T13:49:23Z</time>
      </trkpt>
      <trkpt lat="45.86242" lon="4.25944">
        <ele>610.321</ele>
        <time>2019-10-28T13:49:28Z</time>
      </trkpt>
      <trkpt lat="45.86238" lon="4.2594">
        <ele>586.843</ele>
        <time>2019-10-28T13:49:34Z</time>
      </trkpt>
      <trkpt lat="45.86233" lon="4.25938">
        <ele>736.941</ele>
        <time>2019-10-28T13:49:40Z</time>
      </trkpt>
      <trkpt lat="45.86229" lon="4.25936">
        <ele>700.585</ele>
        <time>2019-10-28T13:49:45Z</time>
      </trkpt>
      <trkpt lat="45.86224" lon="4.25934">
        <ele>727.553</ele>
        <time>2019-10-28T13:49:50Z</time>
      </trkpt>
      <trkpt lat="45.8622" lon="4.25931">
        <ele>732.292</ele>
        <time>2019-10-28T13:49:55Z</time>
      </trkpt>
      <trkpt lat="45.86216" lon="4.25924">
        <ele>747.313</ele>
        <time>2019-10-28T13:50:01Z</time>
      </trkpt>
      <trkpt lat="45.86212" lon="4.25919">
        <ele>727.883</ele>
        <time>2019-10-28T13:50:07Z</time>
      </trkpt>
      <trkpt lat="45.86207" lon="4.25915">
        <ele>772.665</ele>
        <time>2019-10-28T13:50:13Z</time>
      </trkpt>
      <trkpt lat="45.86203" lon="4.25911">
        <ele>756.959</ele>
        <time>2019-10-28T13:50:19Z</time>
      </trkpt>
      <trkpt lat="45.86199" lon="4.25909">
        <ele>764.489</ele>
        <time>2019-10-28T13:50:24Z</time>
      </trkpt>
      <trkpt lat="45.86196" lon="4.25901">
        <ele>784.765</ele>
        <time>2019-10-28T13:50:29Z</time>
      </trkpt>
      <trkpt lat="45.86192" lon="4.25892">
        <ele>791.918</ele>
        <time>2019-10-28T13:50:35Z</time>
      </trkpt>
      <trkpt lat="45.86188" lon="4.25886">
        <ele>777.926</ele>
        <time>2019-10-28T13:50:40Z</time>
      </trkpt>
      <trkpt lat="45.86182" lon="4.25883">
        <ele>743.377</ele>
        <time>2019-10-28T13:50:45Z</time>
      </trkpt>
      <trkpt lat="45.86178" lon="4.25878">
        <ele>724.906</ele>
        <time>2019-10-28T13:50:51Z</time>
      </trkpt>
      <trkpt lat="45.86174" lon="4.25874">
        <ele>741.328</ele>
        <time>2019-10-28T13:50:57Z</time>
      </trkpt>
      <trkpt lat="45.8617" lon="4.25868">
        <ele>734.585</ele>
        <time>2019-10-28T13:51:03Z</time>
      </trkpt>
      <trkpt lat="45.86166" lon="4.25862">
        <ele>675.162</ele>
        <time>2019-10-28T13:51:08Z</time>
      </trkpt>
      <trkpt lat="45.86162" lon="4.25857">
        <ele>596.6</ele>
        <time>2019-10-28T13:51:13Z</time>
      </trkpt>
      <trkpt lat="45.8616" lon="4.25852">
        <ele>594.74</ele>
        <time>2019-10-28T13:51:19Z</time>
      </trkpt>
      <trkpt lat="45.86159" lon="4.25851">
        <ele>594.483</ele>
        <time>2019-10-28T13:51:24Z</time>
      </trkpt>
      <trkpt lat="45.86154" lon="4.25848">
        <ele>594.049</ele>
        <time>2019-10-28T13:51:30Z</time>
      </trkpt>
      <trkpt lat="45.86148" lon="4.25844">
        <ele>593.638</ele>
        <time>2019-10-28T13:51:35Z</time>
      </trkpt>
      <trkpt lat="45.86143" lon="4.25841">
        <ele>592.865</ele>
        <time>2019-10-28T13:51:41Z</time>
      </trkpt>
      <trkpt lat="45.86135" lon="4.25843">
        <ele>592.753</ele>
        <time>2019-10-28T13:51:47Z</time>
      </trkpt>
      <trkpt lat="45.8613" lon="4.25841">
        <ele>591.297</ele>
        <time>2019-10-28T13:51:53Z</time>
      </trkpt>
      <trkpt lat="45.86124" lon="4.25838">
        <ele>591.86</ele>
        <time>2019-10-28T13:51:58Z</time>
      </trkpt>
      <trkpt lat="45.86119" lon="4.25837">
        <ele>592.193</ele>
        <time>2019-10-28T13:52:03Z</time>
      </trkpt>
      <trkpt lat="45.8611" lon="4.25837">
        <ele>592.309</ele>
        <time>2019-10-28T13:52:09Z</time>
      </trkpt>
      <trkpt lat="45.86104" lon="4.25839">
        <ele>593.702</ele>
        <time>2019-10-28T13:52:14Z</time>
      </trkpt>
      <trkpt lat="45.86099" lon="4.25841">
        <ele>591.493</ele>
        <time>2019-10-28T13:52:20Z</time>
      </trkpt>
      <trkpt lat="45.86094" lon="4.25842">
        <ele>592.15</ele>
        <time>2019-10-28T13:52:26Z</time>
      </trkpt>
      <trkpt lat="45.86087" lon="4.25843">
        <ele>592.243</ele>
        <time>2019-10-28T13:52:32Z</time>
      </trkpt>
      <trkpt lat="45.86083" lon="4.25845">
        <ele>592.145</ele>
        <time>2019-10-28T13:52:37Z</time>
      </trkpt>
      <trkpt lat="45.86076" lon="4.25848">
        <ele>590.785</ele>
        <time>2019-10-28T13:52:42Z</time>
      </trkpt>
      <trkpt lat="45.86072" lon="4.25852">
        <ele>590.136</ele>
        <time>2019-10-28T13:52:47Z</time>
      </trkpt>
      <trkpt lat="45.86065" lon="4.25855">
        <ele>590.219</ele>
        <time>2019-10-28T13:52:53Z</time>
      </trkpt>
      <trkpt lat="45.86058" lon="4.25859">
        <ele>590.97</ele>
        <time>2019-10-28T13:52:59Z</time>
      </trkpt>
      <trkpt lat="45.86055" lon="4.25864">
        <ele>591.4</ele>
        <time>2019-10-28T13:53:04Z</time>
      </trkpt>
      <trkpt lat="45.86049" lon="4.2587">
        <ele>593.625</ele>
        <time>2019-10-28T13:53:10Z</time>
      </trkpt>
      <trkpt lat="45.86043" lon="4.25873">
        <ele>593.35</ele>
        <time>2019-10-28T13:53:15Z</time>
      </trkpt>
      <trkpt lat="45.86037" lon="4.25879">
        <ele>594.3</ele>
        <time>2019-10-28T13:53:21Z</time>
      </trkpt>
      <trkpt lat="45.86031" lon="4.25883">
        <ele>594.186</ele>
        <time>2019-10-28T13:53:27Z</time>
      </trkpt>
      <trkpt lat="45.86027" lon="4.25886">
        <ele>594.286</ele>
        <time>2019-10-28T13:53:32Z</time>
      </trkpt>
      <trkpt lat="45.86022" lon="4.25888">
        <ele>594.816</ele>
        <time>2019-10-28T13:53:37Z</time>
      </trkpt>
      <trkpt lat="45.86017" lon="4.25891">
        <ele>594.968</ele>
        <time>2019-10-28T13:53:43Z</time>
      </trkpt>
      <trkpt lat="45.86011" lon="4.25897">
        <ele>594.888</ele>
        <time>2019-10-28T13:53:48Z</time>
      </trkpt>
      <trkpt lat="45.86006" lon="4.25904">
        <ele>595.124</ele>
        <time>2019-10-28T13:53:54Z</time>
      </trkpt>
      <trkpt lat="45.85998" lon="4.25907">
        <ele>594.972</ele>
        <time>2019-10-28T13:54:00Z</time>
      </trkpt>
      <trkpt lat="45.85992" lon="4.2591">
        <ele>595.809</ele>
        <time>2019-10-28T13:54:05Z</time>
      </trkpt>
      <trkpt lat="45.85986" lon="4.25912">
        <ele>596.954</ele>
        <time>2019-10-28T13:54:11Z</time>
      </trkpt>
      <trkpt lat="45.85982" lon="4.25919">
        <ele>597.848</ele>
        <time>2019-10-28T13:54:17Z</time>
      </trkpt>
      <trkpt lat="45.85973" lon="4.2592">
        <ele>595.187</ele>
        <time>2019-10-28T13:54:23Z</time>
      </trkpt>
      <trkpt lat="45.85967" lon="4.25923">
        <ele>595.268</ele>
        <time>2019-10-28T13:54:28Z</time>
      </trkpt>
      <trkpt lat="45.85963" lon="4.25928">
        <ele>595.316</ele>
        <time>2019-10-28T13:54:33Z</time>
      </trkpt>
      <trkpt lat="45.85957" lon="4.25933">
        <ele>596.045</ele>
        <time>2019-10-28T13:54:39Z</time>
      </trkpt>
      <trkpt lat="45.85951" lon="4.2594">
        <ele>595.005</ele>
        <time>2019-10-28T13:54:45Z</time>
      </trkpt>
      <trkpt lat="45.85947" lon="4.25945">
        <ele>595.914</ele>
        <time>2019-10-28T13:54:50Z</time>
      </trkpt>
      <trkpt lat="45.85941" lon="4.25953">
        <ele>594.442</ele>
        <time>2019-10-28T13:54:55Z</time>
      </trkpt>
      <trkpt lat="45.85936" lon="4.25959">
        <ele>594.816</ele>
        <time>2019-10-28T13:55:01Z</time>
      </trkpt>
      <trkpt lat="45.85932" lon="4.25965">
        <ele>594.638</ele>
        <time>2019-10-28T13:55:06Z</time>
      </trkpt>
      <trkpt lat="45.85926" lon="4.25973">
        <ele>594.717</ele>
        <time>2019-10-28T13:55:12Z</time>
      </trkpt>
      <trkpt lat="45.85923" lon="4.25977">
        <ele>595.946</ele>
        <time>2019-10-28T13:55:17Z</time>
      </trkpt>
      <trkpt lat="45.8592" lon="4.25982">
        <ele>595.666</ele>
        <time>2019-10-28T13:55:23Z</time>
      </trkpt>
      <trkpt lat="45.85919" lon="4.25982">
        <ele>597.288</ele>
        <time>2019-10-28T13:55:29Z</time>
      </trkpt>
      <trkpt lat="45.85918" lon="4.25982">
        <ele>596.488</ele>
        <time>2019-10-28T13:55:34Z</time>
      </trkpt>
      <trkpt lat="45.85917" lon="4.25983">
        <ele>596.136</ele>
        <time>2019-10-28T13:55:40Z</time>
      </trkpt>
      <trkpt lat="45.85912" lon="4.25991">
        <ele>597.148</ele>
        <time>2019-10-28T13:55:46Z</time>
      </trkpt>
      <trkpt lat="45.85908" lon="4.26004">
        <ele>595.01</ele>
        <time>2019-10-28T13:55:52Z</time>
      </trkpt>
      <trkpt lat="45.85902" lon="4.26013">
        <ele>598.525</ele>
        <time>2019-10-28T13:55:58Z</time>
      </trkpt>
      <trkpt lat="45.85897" lon="4.26021">
        <ele>599.651</ele>
        <time>2019-10-28T13:56:03Z</time>
      </trkpt>
      <trkpt lat="45.85889" lon="4.26025">
        <ele>599.605</ele>
        <time>2019-10-28T13:56:08Z</time>
      </trkpt>
      <trkpt lat="45.85884" lon="4.2603">
        <ele>601.621</ele>
        <time>2019-10-28T13:56:13Z</time>
      </trkpt>
      <trkpt lat="45.85879" lon="4.2604">
        <ele>602.196</ele>
        <time>2019-10-28T13:56:19Z</time>
      </trkpt>
      <trkpt lat="45.85875" lon="4.26049">
        <ele>599.927</ele>
        <time>2019-10-28T13:56:25Z</time>
      </trkpt>
      <trkpt lat="45.8587" lon="4.26054">
        <ele>600.371</ele>
        <time>2019-10-28T13:56:30Z</time>
      </trkpt>
      <trkpt lat="45.85866" lon="4.26057">
        <ele>599.379</ele>
        <time>2019-10-28T13:56:35Z</time>
      </trkpt>
      <trkpt lat="45.85859" lon="4.26064">
        <ele>599.384</ele>
        <time>2019-10-28T13:56:41Z</time>
      </trkpt>
      <trkpt lat="45.85853" lon="4.26071">
        <ele>601.007</ele>
        <time>2019-10-28T13:56:47Z</time>
      </trkpt>
      <trkpt lat="45.85846" lon="4.26075">
        <ele>599.746</ele>
        <time>2019-10-28T13:56:52Z</time>
      </trkpt>
      <trkpt lat="45.85845" lon="4.26078">
        <ele>597.393</ele>
        <time>2019-10-28T13:56:58Z</time>
      </trkpt>
      <trkpt lat="45.85838" lon="4.26084">
        <ele>597.932</ele>
        <time>2019-10-28T13:57:04Z</time>
      </trkpt>
      <trkpt lat="45.85832" lon="4.26086">
        <ele>597.975</ele>
        <time>2019-10-28T13:57:09Z</time>
      </trkpt>
      <trkpt lat="45.85823" lon="4.26089">
        <ele>596.366</ele>
        <time>2019-10-28T13:57:15Z</time>
      </trkpt>
      <trkpt lat="45.85816" lon="4.26091">
        <ele>598.378</ele>
        <time>2019-10-28T13:57:21Z</time>
      </trkpt>
      <trkpt lat="45.85806" lon="4.26088">
        <ele>599.562</ele>
        <time>2019-10-28T13:57:27Z</time>
      </trkpt>
      <trkpt lat="45.85799" lon="4.26089">
        <ele>596.227</ele>
        <time>2019-10-28T13:57:32Z</time>
      </trkpt>
      <trkpt lat="45.85792" lon="4.26094">
        <ele>598.305</ele>
        <time>2019-10-28T13:57:38Z</time>
      </trkpt>
      <trkpt lat="45.85785" lon="4.26096">
        <ele>601.443</ele>
        <time>2019-10-28T13:57:44Z</time>
      </trkpt>
      <trkpt lat="45.8578" lon="4.26098">
        <ele>603.155</ele>
        <time>2019-10-28T13:57:49Z</time>
      </trkpt>
      <trkpt lat="45.85772" lon="4.26098">
        <ele>604.833</ele>
        <time>2019-10-28T13:57:55Z</time>
      </trkpt>
      <trkpt lat="45.85768" lon="4.26101">
        <ele>604.538</ele>
        <time>2019-10-28T13:58:01Z</time>
      </trkpt>
      <trkpt lat="45.8576" lon="4.26104">
        <ele>604.612</ele>
        <time>2019-10-28T13:58:07Z</time>
      </trkpt>
      <trkpt lat="45.85752" lon="4.26104">
        <ele>605.596</ele>
        <time>2019-10-28T13:58:12Z</time>
      </trkpt>
      <trkpt lat="45.85748" lon="4.26107">
        <ele>605.992</ele>
        <time>2019-10-28T13:58:17Z</time>
      </trkpt>
      <trkpt lat="45.85747" lon="4.26103">
        <ele>606.641</ele>
        <time>2019-10-28T13:58:23Z</time>
      </trkpt>
      <trkpt lat="45.85745" lon="4.26097">
        <ele>607.594</ele>
        <time>2019-10-28T13:58:29Z</time>
      </trkpt>
      <trkpt lat="45.85743" lon="4.26093">
        <ele>610.294</ele>
        <time>2019-10-28T13:58:34Z</time>
      </trkpt>
      <trkpt lat="45.85743" lon="4.2609">
        <ele>610.335</ele>
        <time>2019-10-28T13:58:39Z</time>
      </trkpt>
      <trkpt lat="45.8574" lon="4.26087">
        <ele>607.584</ele>
        <time>2019-10-28T13:58:45Z</time>
      </trkpt>
      <trkpt lat="45.85737" lon="4.26088">
        <ele>607.103</ele>
        <time>2019-10-28T13:58:50Z</time>
      </trkpt>
      <trkpt lat="45.85731" lon="4.26084">
        <ele>608.609</ele>
        <time>2019-10-28T13:58:56Z</time>
      </trkpt>
      <trkpt lat="45.85728" lon="4.26082">
        <ele>608.636</ele>
        <time>2019-10-28T13:59:01Z</time>
      </trkpt>
      <trkpt lat="45.85726" lon="4.26081">
        <ele>613.17</ele>
        <time>2019-10-28T13:59:07Z</time>
      </trkpt>
      <trkpt lat="45.8572" lon="4.26079">
        <ele>613.242</ele>
        <time>2019-10-28T13:59:13Z</time>
      </trkpt>
      <trkpt lat="45.85715" lon="4.26076">
        <ele>612.747</ele>
        <time>2019-10-28T13:59:19Z</time>
      </trkpt>
      <trkpt lat="45.85711" lon="4.26075">
        <ele>612.915</ele>
        <time>2019-10-28T13:59:24Z</time>
      </trkpt>
      <trkpt lat="45.85704" lon="4.26081">
        <ele>612.708</ele>
        <time>2019-10-28T13:59:30Z</time>
      </trkpt>
      <trkpt lat="45.85687" lon="4.26088">
        <ele>612.26</ele>
        <time>2019-10-28T13:59:36Z</time>
      </trkpt>
      <trkpt lat="45.8568" lon="4.26076">
        <ele>612.299</ele>
        <time>2019-10-28T13:59:42Z</time>
      </trkpt>
      <trkpt lat="45.85669" lon="4.26081">
        <ele>611.806</ele>
        <time>2019-10-28T13:59:48Z</time>
      </trkpt>
      <trkpt lat="45.85664" lon="4.26088">
        <ele>611.171</ele>
        <time>2019-10-28T13:59:54Z</time>
      </trkpt>
      <trkpt lat="45.85657" lon="4.26091">
        <ele>610.574</ele>
        <time>2019-10-28T14:00:00Z</time>
      </trkpt>
      <trkpt lat="45.8565" lon="4.26096">
        <ele>609.797</ele>
        <time>2019-10-28T14:00:05Z</time>
      </trkpt>
      <trkpt lat="45.85649" lon="4.26097">
        <ele>607.905</ele>
        <time>2019-10-28T14:00:11Z</time>
      </trkpt>
      <trkpt lat="45.85644" lon="4.26095">
        <ele>604.846</ele>
        <time>2019-10-28T14:00:17Z</time>
      </trkpt>
      <trkpt lat="45.85638" lon="4.26099">
        <ele>605.053</ele>
        <time>2019-10-28T14:00:22Z</time>
      </trkpt>
      <trkpt lat="45.8564" lon="4.26094">
        <ele>605.831</ele>
        <time>2019-10-28T14:00:28Z</time>
      </trkpt>
      <trkpt lat="45.8564" lon="4.26092">
        <ele>605.722</ele>
        <time>2019-10-28T14:00:33Z</time>
      </trkpt>
      <trkpt lat="45.8564" lon="4.26091">
        <ele>603.028</ele>
        <time>2019-10-28T14:00:39Z</time>
      </trkpt>
      <trkpt lat="45.8564" lon="4.26091">
        <ele>602.449</ele>
        <time>2019-10-28T14:00:45Z</time>
      </trkpt>
      <trkpt lat="45.8564" lon="4.26091">
        <ele>602.343</ele>
        <time>2019-10-28T14:00:50Z</time>
      </trkpt>
      <trkpt lat="45.85639" lon="4.26091">
        <ele>598.847</ele>
        <time>2019-10-28T14:00:55Z</time>
      </trkpt>
      <trkpt lat="45.85639" lon="4.26091">
        <ele>597.48</ele>
        <time>2019-10-28T14:01:00Z</time>
      </trkpt>
      <trkpt lat="45.85639" lon="4.26091">
        <ele>597.221</ele>
        <time>2019-10-28T14:01:05Z</time>
      </trkpt>
      <trkpt lat="45.85639" lon="4.26091">
        <ele>597.181</ele>
        <time>2019-10-28T14:01:10Z</time>
      </trkpt>
      <trkpt lat="45.85639" lon="4.26091">
        <ele>597.179</ele>
        <time>2019-10-28T14:01:16Z</time>
      </trkpt>
      <trkpt lat="45.85639" lon="4.26091">
        <ele>597.232</ele>
        <time>2019-10-28T14:01:22Z</time>
      </trkpt>
      <trkpt lat="45.85639" lon="4.26091">
        <ele>595.065</ele>
        <time>2019-10-28T14:01:27Z</time>
      </trkpt>
      <trkpt lat="45.85639" lon="4.26091">
        <ele>594.815</ele>
        <time>2019-10-28T14:01:32Z</time>
      </trkpt>
      <trkpt lat="45.85639" lon="4.26091">
        <ele>595.54</ele>
        <time>2019-10-28T14:01:37Z</time>
      </trkpt>
      <trkpt lat="45.85639" lon="4.26091">
        <ele>597.173</ele>
        <time>2019-10-28T14:01:43Z</time>
      </trkpt>
      <trkpt lat="45.85639" lon="4.26091">
        <ele>597.167</ele>
        <time>2019-10-28T14:01:48Z</time>
      </trkpt>
      <trkpt lat="45.85639" lon="4.26091">
        <ele>597.174</ele>
        <time>2019-10-28T14:01:54Z</time>
      </trkpt>
      <trkpt lat="45.85639" lon="4.26093">
        <ele>596.818</ele>
        <time>2019-10-28T14:02:00Z</time>
      </trkpt>
      <trkpt lat="45.85637" lon="4.261">
        <ele>595.575</ele>
        <time>2019-10-28T14:02:06Z</time>
      </trkpt>
      <trkpt lat="45.85635" lon="4.26103">
        <ele>592.708</ele>
        <time>2019-10-28T14:02:11Z</time>
      </trkpt>
      <trkpt lat="45.85636" lon="4.26103">
        <ele>592.579</ele>
        <time>2019-10-28T14:02:16Z</time>
      </trkpt>
      <trkpt lat="45.85636" lon="4.26104">
        <ele>592.999</ele>
        <time>2019-10-28T14:02:21Z</time>
      </trkpt>
      <trkpt lat="45.85636" lon="4.26103">
        <ele>593.615</ele>
        <time>2019-10-28T14:02:27Z</time>
      </trkpt>
      <trkpt lat="45.85637" lon="4.26103">
        <ele>593.758</ele>
        <time>2019-10-28T14:02:33Z</time>
      </trkpt>
      <trkpt lat="45.85637" lon="4.26103">
        <ele>593.848</ele>
        <time>2019-10-28T14:02:38Z</time>
      </trkpt>
      <trkpt lat="45.85637" lon="4.26103">
        <ele>593.87</ele>
        <time>2019-10-28T14:02:44Z</time>
      </trkpt>
      <trkpt lat="45.85637" lon="4.26103">
        <ele>593.939</ele>
        <time>2019-10-28T14:02:49Z</time>
      </trkpt>
      <trkpt lat="45.85637" lon="4.26103">
        <ele>594.115</ele>
        <time>2019-10-28T14:02:55Z</time>
      </trkpt>
      <trkpt lat="45.85637" lon="4.26103">
        <ele>594.136</ele>
        <time>2019-10-28T14:03:00Z</time>
      </trkpt>
      <trkpt lat="45.85637" lon="4.26103">
        <ele>594.15</ele>
        <time>2019-10-28T14:03:06Z</time>
      </trkpt>
      <trkpt lat="45.85637" lon="4.26103">
        <ele>594.165</ele>
        <time>2019-10-28T14:03:12Z</time>
      </trkpt>
      <trkpt lat="45.85637" lon="4.26103">
        <ele>594.192</ele>
        <time>2019-10-28T14:03:18Z</time>
      </trkpt>
      <trkpt lat="45.85637" lon="4.26103">
        <ele>594.199</ele>
        <time>2019-10-28T14:03:24Z</time>
      </trkpt>
      <trkpt lat="45.85637" lon="4.26103">
        <ele>594.259</ele>
        <time>2019-10-28T14:03:30Z</time>
      </trkpt>
      <trkpt lat="45.85637" lon="4.26103">
        <ele>594.294</ele>
        <time>2019-10-28T14:03:35Z</time>
      </trkpt>
      <trkpt lat="45.85637" lon="4.26103">
        <ele>594.281</ele>
        <time>2019-10-28T14:03:41Z</time>
      </trkpt>
      <trkpt lat="45.85637" lon="4.26103">
        <ele>594.309</ele>
        <time>2019-10-28T14:03:46Z</time>
      </trkpt>
      <trkpt lat="45.85637" lon="4.26103">
        <ele>594.309</ele>
        <time>2019-10-28T14:03:51Z</time>
      </trkpt>
      <trkpt lat="45.85637" lon="4.26103">
        <ele>594.361</ele>
        <time>2019-10-28T14:03:57Z</time>
      </trkpt>
      <trkpt lat="45.85637" lon="4.26103">
        <ele>594.356</ele>
        <time>2019-10-28T14:04:02Z</time>
      </trkpt>
      <trkpt lat="45.85637" lon="4.26103">
        <ele>594.396</ele>
        <time>2019-10-28T14:04:07Z</time>
      </trkpt>
      <trkpt lat="45.85638" lon="4.261">
        <ele>595.608</ele>
        <time>2019-10-28T14:04:13Z</time>
      </trkpt>
      <trkpt lat="45.85644" lon="4.26084">
        <ele>590.056</ele>
        <time>2019-10-28T14:04:18Z</time>
      </trkpt>
      <trkpt lat="45.85646" lon="4.26076">
        <ele>587.612</ele>
        <time>2019-10-28T14:04:23Z</time>
      </trkpt>
      <trkpt lat="45.85653" lon="4.26069">
        <ele>585.565</ele>
        <time>2019-10-28T14:04:29Z</time>
      </trkpt>
      <trkpt lat="45.8566" lon="4.26063">
        <ele>589.211</ele>
        <time>2019-10-28T14:04:34Z</time>
      </trkpt>
      <trkpt lat="45.8567" lon="4.26062">
        <ele>587.067</ele>
        <time>2019-10-28T14:04:40Z</time>
      </trkpt>
      <trkpt lat="45.85677" lon="4.2606">
        <ele>586.756</ele>
        <time>2019-10-28T14:04:45Z</time>
      </trkpt>
      <trkpt lat="45.85685" lon="4.26052">
        <ele>586.826</ele>
        <time>2019-10-28T14:04:51Z</time>
      </trkpt>
      <trkpt lat="45.8569" lon="4.26045">
        <ele>583.042</ele>
        <time>2019-10-28T14:04:56Z</time>
      </trkpt>
      <trkpt lat="45.85694" lon="4.26037">
        <ele>581.505</ele>
        <time>2019-10-28T14:05:01Z</time>
      </trkpt>
      <trkpt lat="45.85703" lon="4.26029">
        <ele>583.953</ele>
        <time>2019-10-28T14:05:07Z</time>
      </trkpt>
      <trkpt lat="45.85708" lon="4.26022">
        <ele>581.31</ele>
        <time>2019-10-28T14:05:12Z</time>
      </trkpt>
      <trkpt lat="45.85713" lon="4.26018">
        <ele>581.348</ele>
        <time>2019-10-28T14:05:18Z</time>
      </trkpt>
      <trkpt lat="45.85718" lon="4.26011">
        <ele>583.485</ele>
        <time>2019-10-28T14:05:23Z</time>
      </trkpt>
      <trkpt lat="45.85724" lon="4.26004">
        <ele>584.301</ele>
        <time>2019-10-28T14:05:29Z</time>
      </trkpt>
      <trkpt lat="45.85729" lon="4.25998">
        <ele>582.253</ele>
        <time>2019-10-28T14:05:35Z</time>
      </trkpt>
      <trkpt lat="45.85734" lon="4.25995">
        <ele>582.822</ele>
        <time>2019-10-28T14:05:40Z</time>
      </trkpt>
      <trkpt lat="45.85738" lon="4.25992">
        <ele>579.617</ele>
        <time>2019-10-28T14:05:46Z</time>
      </trkpt>
      <trkpt lat="45.85747" lon="4.25989">
        <ele>583.036</ele>
        <time>2019-10-28T14:05:52Z</time>
      </trkpt>
      <trkpt lat="45.85752" lon="4.25987">
        <ele>585.13</ele>
        <time>2019-10-28T14:05:57Z</time>
      </trkpt>
      <trkpt lat="45.85758" lon="4.25984">
        <ele>587.473</ele>
        <time>2019-10-28T14:06:03Z</time>
      </trkpt>
      <trkpt lat="45.85763" lon="4.25982">
        <ele>586.215</ele>
        <time>2019-10-28T14:06:08Z</time>
      </trkpt>
      <trkpt lat="45.85769" lon="4.25984">
        <ele>584.508</ele>
        <time>2019-10-28T14:06:13Z</time>
      </trkpt>
      <trkpt lat="45.85778" lon="4.25985">
        <ele>584.941</ele>
        <time>2019-10-28T14:06:19Z</time>
      </trkpt>
      <trkpt lat="45.85785" lon="4.25984">
        <ele>580.686</ele>
        <time>2019-10-28T14:06:25Z</time>
      </trkpt>
      <trkpt lat="45.85791" lon="4.25981">
        <ele>581.115</ele>
        <time>2019-10-28T14:06:31Z</time>
      </trkpt>
      <trkpt lat="45.85796" lon="4.25976">
        <ele>583.491</ele>
        <time>2019-10-28T14:06:37Z</time>
      </trkpt>
      <trkpt lat="45.858" lon="4.2597">
        <ele>581.21</ele>
        <time>2019-10-28T14:06:42Z</time>
      </trkpt>
      <trkpt lat="45.85803" lon="4.25964">
        <ele>578.306</ele>
        <time>2019-10-28T14:06:47Z</time>
      </trkpt>
      <trkpt lat="45.85808" lon="4.25956">
        <ele>575.517</ele>
        <time>2019-10-28T14:06:53Z</time>
      </trkpt>
      <trkpt lat="45.8581" lon="4.25951">
        <ele>574.494</ele>
        <time>2019-10-28T14:06:58Z</time>
      </trkpt>
      <trkpt lat="45.85813" lon="4.25943">
        <ele>570.015</ele>
        <time>2019-10-28T14:07:04Z</time>
      </trkpt>
      <trkpt lat="45.85816" lon="4.25936">
        <ele>570.009</ele>
        <time>2019-10-28T14:07:10Z</time>
      </trkpt>
      <trkpt lat="45.85819" lon="4.25928">
        <ele>571.979</ele>
        <time>2019-10-28T14:07:16Z</time>
      </trkpt>
      <trkpt lat="45.85823" lon="4.2592">
        <ele>570.733</ele>
        <time>2019-10-28T14:07:21Z</time>
      </trkpt>
      <trkpt lat="45.85824" lon="4.25909">
        <ele>569.614</ele>
        <time>2019-10-28T14:07:27Z</time>
      </trkpt>
      <trkpt lat="45.85826" lon="4.25901">
        <ele>567.198</ele>
        <time>2019-10-28T14:07:33Z</time>
      </trkpt>
      <trkpt lat="45.85829" lon="4.25895">
        <ele>566.66</ele>
        <time>2019-10-28T14:07:38Z</time>
      </trkpt>
      <trkpt lat="45.85834" lon="4.25889">
        <ele>564.595</ele>
        <time>2019-10-28T14:07:43Z</time>
      </trkpt>
      <trkpt lat="45.85837" lon="4.25884">
        <ele>567.299</ele>
        <time>2019-10-28T14:07:48Z</time>
      </trkpt>
      <trkpt lat="45.85838" lon="4.25882">
        <ele>566.503</ele>
        <time>2019-10-28T14:07:54Z</time>
      </trkpt>
      <trkpt lat="45.85842" lon="4.2588">
        <ele>566.513</ele>
        <time>2019-10-28T14:08:00Z</time>
      </trkpt>
      <trkpt lat="45.85845" lon="4.25871">
        <ele>567.102</ele>
        <time>2019-10-28T14:08:06Z</time>
      </trkpt>
      <trkpt lat="45.85849" lon="4.25866">
        <ele>568.404</ele>
        <time>2019-10-28T14:08:11Z</time>
      </trkpt>
      <trkpt lat="45.85853" lon="4.25862">
        <ele>566.963</ele>
        <time>2019-10-28T14:08:16Z</time>
      </trkpt>
      <trkpt lat="45.85858" lon="4.25859">
        <ele>573.004</ele>
        <time>2019-10-28T14:08:22Z</time>
      </trkpt>
      <trkpt lat="45.85865" lon="4.25856">
        <ele>567.041</ele>
        <time>2019-10-28T14:08:27Z</time>
      </trkpt>
      <trkpt lat="45.8587" lon="4.25851">
        <ele>564.59</ele>
        <time>2019-10-28T14:08:33Z</time>
      </trkpt>
      <trkpt lat="45.85874" lon="4.25847">
        <ele>563.298</ele>
        <time>2019-10-28T14:08:38Z</time>
      </trkpt>
      <trkpt lat="45.8588" lon="4.25843">
        <ele>560.75</ele>
        <time>2019-10-28T14:08:44Z</time>
      </trkpt>
      <trkpt lat="45.85885" lon="4.2584">
        <ele>556.053</ele>
        <time>2019-10-28T14:08:49Z</time>
      </trkpt>
      <trkpt lat="45.85888" lon="4.25836">
        <ele>555.336</ele>
        <time>2019-10-28T14:08:54Z</time>
      </trkpt>
      <trkpt lat="45.85895" lon="4.25833">
        <ele>552.598</ele>
        <time>2019-10-28T14:09:00Z</time>
      </trkpt>
      <trkpt lat="45.85898" lon="4.2583">
        <ele>550.417</ele>
        <time>2019-10-28T14:09:05Z</time>
      </trkpt>
      <trkpt lat="45.85903" lon="4.25827">
        <ele>549.765</ele>
        <time>2019-10-28T14:09:10Z</time>
      </trkpt>
      <trkpt lat="45.85909" lon="4.25824">
        <ele>550.503</ele>
        <time>2019-10-28T14:09:16Z</time>
      </trkpt>
      <trkpt lat="45.85916" lon="4.25821">
        <ele>552.896</ele>
        <time>2019-10-28T14:09:22Z</time>
      </trkpt>
      <trkpt lat="45.85921" lon="4.25817">
        <ele>554.34</ele>
        <time>2019-10-28T14:09:27Z</time>
      </trkpt>
      <trkpt lat="45.85925" lon="4.25813">
        <ele>553.621</ele>
        <time>2019-10-28T14:09:32Z</time>
      </trkpt>
      <trkpt lat="45.85929" lon="4.25809">
        <ele>554.435</ele>
        <time>2019-10-28T14:09:37Z</time>
      </trkpt>
      <trkpt lat="45.85934" lon="4.25803">
        <ele>557.02</ele>
        <time>2019-10-28T14:09:43Z</time>
      </trkpt>
      <trkpt lat="45.85939" lon="4.25801">
        <ele>554.227</ele>
        <time>2019-10-28T14:09:48Z</time>
      </trkpt>
      <trkpt lat="45.85944" lon="4.25795">
        <ele>554.167</ele>
        <time>2019-10-28T14:09:54Z</time>
      </trkpt>
      <trkpt lat="45.85948" lon="4.25791">
        <ele>550.279</ele>
        <time>2019-10-28T14:09:59Z</time>
      </trkpt>
      <trkpt lat="45.85955" lon="4.25786">
        <ele>550.652</ele>
        <time>2019-10-28T14:10:05Z</time>
      </trkpt>
      <trkpt lat="45.85961" lon="4.25785">
        <ele>550.531</ele>
        <time>2019-10-28T14:10:10Z</time>
      </trkpt>
      <trkpt lat="45.85966" lon="4.25783">
        <ele>553.72</ele>
        <time>2019-10-28T14:10:15Z</time>
      </trkpt>
      <trkpt lat="45.85971" lon="4.25776">
        <ele>555.238</ele>
        <time>2019-10-28T14:10:21Z</time>
      </trkpt>
      <trkpt lat="45.85975" lon="4.25769">
        <ele>557.483</ele>
        <time>2019-10-28T14:10:27Z</time>
      </trkpt>
      <trkpt lat="45.8598" lon="4.25764">
        <ele>555.511</ele>
        <time>2019-10-28T14:10:32Z</time>
      </trkpt>
      <trkpt lat="45.85985" lon="4.25762">
        <ele>556.91</ele>
        <time>2019-10-28T14:10:38Z</time>
      </trkpt>
      <trkpt lat="45.85991" lon="4.25756">
        <ele>555.821</ele>
        <time>2019-10-28T14:10:44Z</time>
      </trkpt>
      <trkpt lat="45.85992" lon="4.25751">
        <ele>551.607</ele>
        <time>2019-10-28T14:10:49Z</time>
      </trkpt>
      <trkpt lat="45.85994" lon="4.25747">
        <ele>551.873</ele>
        <time>2019-10-28T14:10:54Z</time>
      </trkpt>
      <trkpt lat="45.85998" lon="4.25745">
        <ele>546.929</ele>
        <time>2019-10-28T14:11:00Z</time>
      </trkpt>
      <trkpt lat="45.86002" lon="4.25742">
        <ele>547.311</ele>
        <time>2019-10-28T14:11:06Z</time>
      </trkpt>
      <trkpt lat="45.86001" lon="4.25737">
        <ele>548.958</ele>
        <time>2019-10-28T14:11:11Z</time>
      </trkpt>
      <trkpt lat="45.86003" lon="4.25729">
        <ele>548.535</ele>
        <time>2019-10-28T14:11:16Z</time>
      </trkpt>
      <trkpt lat="45.86008" lon="4.25724">
        <ele>542.579</ele>
        <time>2019-10-28T14:11:22Z</time>
      </trkpt>
      <trkpt lat="45.86012" lon="4.25717">
        <ele>543.115</ele>
        <time>2019-10-28T14:11:27Z</time>
      </trkpt>
      <trkpt lat="45.86018" lon="4.25713">
        <ele>538.985</ele>
        <time>2019-10-28T14:11:32Z</time>
      </trkpt>
      <trkpt lat="45.86024" lon="4.25709">
        <ele>536.12</ele>
        <time>2019-10-28T14:11:38Z</time>
      </trkpt>
      <trkpt lat="45.86032" lon="4.25708">
        <ele>536.055</ele>
        <time>2019-10-28T14:11:44Z</time>
      </trkpt>
      <trkpt lat="45.86037" lon="4.25703">
        <ele>537.07</ele>
        <time>2019-10-28T14:11:49Z</time>
      </trkpt>
      <trkpt lat="45.86043" lon="4.25698">
        <ele>538.212</ele>
        <time>2019-10-28T14:11:55Z</time>
      </trkpt>
      <trkpt lat="45.86048" lon="4.25692">
        <ele>536.969</ele>
        <time>2019-10-28T14:12:00Z</time>
      </trkpt>
      <trkpt lat="45.86055" lon="4.25691">
        <ele>536.691</ele>
        <time>2019-10-28T14:12:06Z</time>
      </trkpt>
      <trkpt lat="45.8606" lon="4.25685">
        <ele>536.477</ele>
        <time>2019-10-28T14:12:12Z</time>
      </trkpt>
      <trkpt lat="45.86061" lon="4.25677">
        <ele>539.214</ele>
        <time>2019-10-28T14:12:17Z</time>
      </trkpt>
      <trkpt lat="45.86064" lon="4.25674">
        <ele>540.415</ele>
        <time>2019-10-28T14:12:22Z</time>
      </trkpt>
      <trkpt lat="45.8607" lon="4.25671">
        <ele>538.432</ele>
        <time>2019-10-28T14:12:28Z</time>
      </trkpt>
      <trkpt lat="45.86075" lon="4.2567">
        <ele>539.387</ele>
        <time>2019-10-28T14:12:34Z</time>
      </trkpt>
      <trkpt lat="45.8608" lon="4.25669">
        <ele>539.178</ele>
        <time>2019-10-28T14:12:39Z</time>
      </trkpt>
      <trkpt lat="45.86089" lon="4.25663">
        <ele>538.416</ele>
        <time>2019-10-28T14:12:44Z</time>
      </trkpt>
      <trkpt lat="45.86098" lon="4.2566">
        <ele>536.358</ele>
        <time>2019-10-28T14:12:50Z</time>
      </trkpt>
      <trkpt lat="45.86103" lon="4.2566">
        <ele>536.963</ele>
        <time>2019-10-28T14:12:56Z</time>
      </trkpt>
      <trkpt lat="45.8611" lon="4.25658">
        <ele>537.402</ele>
        <time>2019-10-28T14:13:01Z</time>
      </trkpt>
      <trkpt lat="45.86118" lon="4.25656">
        <ele>534.006</ele>
        <time>2019-10-28T14:13:07Z</time>
      </trkpt>
      <trkpt lat="45.86124" lon="4.25655">
        <ele>535.92</ele>
        <time>2019-10-28T14:13:13Z</time>
      </trkpt>
      <trkpt lat="45.86126" lon="4.25651">
        <ele>538.08</ele>
        <time>2019-10-28T14:13:18Z</time>
      </trkpt>
      <trkpt lat="45.86129" lon="4.2565">
        <ele>534.863</ele>
        <time>2019-10-28T14:13:23Z</time>
      </trkpt>
      <trkpt lat="45.86132" lon="4.25648">
        <ele>537.071</ele>
        <time>2019-10-28T14:13:29Z</time>
      </trkpt>
      <trkpt lat="45.86136" lon="4.25647">
        <ele>540.193</ele>
        <time>2019-10-28T14:13:34Z</time>
      </trkpt>
      <trkpt lat="45.86142" lon="4.25644">
        <ele>536.53</ele>
        <time>2019-10-28T14:13:40Z</time>
      </trkpt>
      <trkpt lat="45.86147" lon="4.25639">
        <ele>536.912</ele>
        <time>2019-10-28T14:13:45Z</time>
      </trkpt>
      <trkpt lat="45.86151" lon="4.25635">
        <ele>535.242</ele>
        <time>2019-10-28T14:13:50Z</time>
      </trkpt>
      <trkpt lat="45.86157" lon="4.25635">
        <ele>536.455</ele>
        <time>2019-10-28T14:13:55Z</time>
      </trkpt>
      <trkpt lat="45.86164" lon="4.25632">
        <ele>531.348</ele>
        <time>2019-10-28T14:14:01Z</time>
      </trkpt>
      <trkpt lat="45.8617" lon="4.25632">
        <ele>530.551</ele>
        <time>2019-10-28T14:14:07Z</time>
      </trkpt>
      <trkpt lat="45.86178" lon="4.25633">
        <ele>531.021</ele>
        <time>2019-10-28T14:14:13Z</time>
      </trkpt>
      <trkpt lat="45.86183" lon="4.25636">
        <ele>532.618</ele>
        <time>2019-10-28T14:14:19Z</time>
      </trkpt>
      <trkpt lat="45.86189" lon="4.25637">
        <ele>529.939</ele>
        <time>2019-10-28T14:14:25Z</time>
      </trkpt>
      <trkpt lat="45.86191" lon="4.25636">
        <ele>529.335</ele>
        <time>2019-10-28T14:14:31Z</time>
      </trkpt>
      <trkpt lat="45.86191" lon="4.25641">
        <ele>532.881</ele>
        <time>2019-10-28T14:14:36Z</time>
      </trkpt>
      <trkpt lat="45.86192" lon="4.25637">
        <ele>532.298</ele>
        <time>2019-10-28T14:14:42Z</time>
      </trkpt>
      <trkpt lat="45.86193" lon="4.25635">
        <ele>532.919</ele>
        <time>2019-10-28T14:14:48Z</time>
      </trkpt>
      <trkpt lat="45.86193" lon="4.25634">
        <ele>532.327</ele>
        <time>2019-10-28T14:14:53Z</time>
      </trkpt>
      <trkpt lat="45.86193" lon="4.25634">
        <ele>532.105</ele>
        <time>2019-10-28T14:14:58Z</time>
      </trkpt>
      <trkpt lat="45.86193" lon="4.25634">
        <ele>532.098</ele>
        <time>2019-10-28T14:15:03Z</time>
      </trkpt>
      <trkpt lat="45.86193" lon="4.25634">
        <ele>532.113</ele>
        <time>2019-10-28T14:15:09Z</time>
      </trkpt>
      <trkpt lat="45.86193" lon="4.25634">
        <ele>532.102</ele>
        <time>2019-10-28T14:15:15Z</time>
      </trkpt>
      <trkpt lat="45.86193" lon="4.25634">
        <ele>532.073</ele>
        <time>2019-10-28T14:15:21Z</time>
      </trkpt>
      <trkpt lat="45.86193" lon="4.25634">
        <ele>532.046</ele>
        <time>2019-10-28T14:15:26Z</time>
      </trkpt>
      <trkpt lat="45.86193" lon="4.25634">
        <ele>532.067</ele>
        <time>2019-10-28T14:15:32Z</time>
      </trkpt>
      <trkpt lat="45.86193" lon="4.25634">
        <ele>532.601</ele>
        <time>2019-10-28T14:15:37Z</time>
      </trkpt>
      <trkpt lat="45.86195" lon="4.2563">
        <ele>527.505</ele>
        <time>2019-10-28T14:15:43Z</time>
      </trkpt>
      <trkpt lat="45.86197" lon="4.25629">
        <ele>524.271</ele>
        <time>2019-10-28T14:15:49Z</time>
      </trkpt>
      <trkpt lat="45.86197" lon="4.25629">
        <ele>522.89</ele>
        <time>2019-10-28T14:15:54Z</time>
      </trkpt>
      <trkpt lat="45.86197" lon="4.25628">
        <ele>521.985</ele>
        <time>2019-10-28T14:15:59Z</time>
      </trkpt>
      <trkpt lat="45.862" lon="4.25626">
        <ele>525.398</ele>
        <time>2019-10-28T14:16:05Z</time>
      </trkpt>
      <trkpt lat="45.86204" lon="4.25624">
        <ele>524.969</ele>
        <time>2019-10-28T14:16:10Z</time>
      </trkpt>
      <trkpt lat="45.86213" lon="4.25623">
        <ele>527.466</ele>
        <time>2019-10-28T14:16:16Z</time>
      </trkpt>
      <trkpt lat="45.86223" lon="4.25622">
        <ele>525.083</ele>
        <time>2019-10-28T14:16:22Z</time>
      </trkpt>
      <trkpt lat="45.86227" lon="4.25623">
        <ele>523.554</ele>
        <time>2019-10-28T14:16:28Z</time>
      </trkpt>
      <trkpt lat="45.86232" lon="4.25625">
        <ele>521.185</ele>
        <time>2019-10-28T14:16:33Z</time>
      </trkpt>
      <trkpt lat="45.86242" lon="4.25622">
        <ele>526.174</ele>
        <time>2019-10-28T14:16:39Z</time>
      </trkpt>
      <trkpt lat="45.86248" lon="4.25622">
        <ele>524.287</ele>
        <time>2019-10-28T14:16:44Z</time>
      </trkpt>
      <trkpt lat="45.86248" lon="4.25623">
        <ele>526.47</ele>
        <time>2019-10-28T14:16:50Z</time>
      </trkpt>
      <trkpt lat="45.86255" lon="4.2562">
        <ele>526.126</ele>
        <time>2019-10-28T14:16:55Z</time>
      </trkpt>
      <trkpt lat="45.86259" lon="4.2562">
        <ele>524.867</ele>
        <time>2019-10-28T14:17:01Z</time>
      </trkpt>
      <trkpt lat="45.86264" lon="4.2562">
        <ele>526.882</ele>
        <time>2019-10-28T14:17:06Z</time>
      </trkpt>
      <trkpt lat="45.8627" lon="4.25623">
        <ele>526.642</ele>
        <time>2019-10-28T14:17:12Z</time>
      </trkpt>
      <trkpt lat="45.86271" lon="4.25622">
        <ele>527.325</ele>
        <time>2019-10-28T14:17:17Z</time>
      </trkpt>
      <trkpt lat="45.86272" lon="4.25622">
        <ele>527.746</ele>
        <time>2019-10-28T14:17:23Z</time>
      </trkpt>
      <trkpt lat="45.86273" lon="4.25622">
        <ele>527.809</ele>
        <time>2019-10-28T14:17:29Z</time>
      </trkpt>
      <trkpt lat="45.86273" lon="4.25622">
        <ele>527.839</ele>
        <time>2019-10-28T14:17:35Z</time>
      </trkpt>
      <trkpt lat="45.86273" lon="4.25622">
        <ele>527.856</ele>
        <time>2019-10-28T14:17:41Z</time>
      </trkpt>
      <trkpt lat="45.86273" lon="4.25622">
        <ele>527.867</ele>
        <time>2019-10-28T14:17:47Z</time>
      </trkpt>
      <trkpt lat="45.86273" lon="4.25622">
        <ele>527.871</ele>
        <time>2019-10-28T14:17:52Z</time>
      </trkpt>
      <trkpt lat="45.86273" lon="4.25622">
        <ele>527.857</ele>
        <time>2019-10-28T14:17:57Z</time>
      </trkpt>
      <trkpt lat="45.86273" lon="4.25622">
        <ele>527.848</ele>
        <time>2019-10-28T14:18:03Z</time>
      </trkpt>
      <trkpt lat="45.86273" lon="4.25622">
        <ele>527.862</ele>
        <time>2019-10-28T14:18:09Z</time>
      </trkpt>
      <trkpt lat="45.86273" lon="4.25622">
        <ele>527.866</ele>
        <time>2019-10-28T14:18:15Z</time>
      </trkpt>
      <trkpt lat="45.86274" lon="4.25621">
        <ele>706.225</ele>
        <time>2019-10-28T14:18:20Z</time>
      </trkpt>
      <trkpt lat="45.86282" lon="4.25616">
        <ele>708.925</ele>
        <time>2019-10-28T14:18:26Z</time>
      </trkpt>
      <trkpt lat="45.86283" lon="4.25618">
        <ele>687.114</ele>
        <time>2019-10-28T14:18:32Z</time>
      </trkpt>
      <trkpt lat="45.86283" lon="4.25618">
        <ele>669.128</ele>
        <time>2019-10-28T14:18:37Z</time>
      </trkpt>
      <trkpt lat="45.86283" lon="4.25618">
        <ele>658.273</ele>
        <time>2019-10-28T14:18:43Z</time>
      </trkpt>
      <trkpt lat="45.86283" lon="4.25618">
        <ele>647.108</ele>
        <time>2019-10-28T14:18:48Z</time>
      </trkpt>
      <trkpt lat="45.86285" lon="4.2562">
        <ele>713.003</ele>
        <time>2019-10-28T14:18:54Z</time>
      </trkpt>
      <trkpt lat="45.86287" lon="4.25622">
        <ele>631.483</ele>
        <time>2019-10-28T14:19:00Z</time>
      </trkpt>
      <trkpt lat="45.86289" lon="4.25623">
        <ele>544.528</ele>
        <time>2019-10-28T14:19:06Z</time>
      </trkpt>
      <trkpt lat="45.8629" lon="4.25628">
        <ele>533.765</ele>
        <time>2019-10-28T14:19:12Z</time>
      </trkpt>
      <trkpt lat="45.86294" lon="4.25636">
        <ele>530.656</ele>
        <time>2019-10-28T14:19:17Z</time>
      </trkpt>
      <trkpt lat="45.86297" lon="4.25649">
        <ele>532.078</ele>
        <time>2019-10-28T14:19:23Z</time>
      </trkpt>
      <trkpt lat="45.86301" lon="4.2566">
        <ele>532.959</ele>
        <time>2019-10-28T14:19:29Z</time>
      </trkpt>
      <trkpt lat="45.86305" lon="4.25667">
        <ele>536.77</ele>
        <time>2019-10-28T14:19:35Z</time>
      </trkpt>
      <trkpt lat="45.86307" lon="4.2567">
        <ele>535.779</ele>
        <time>2019-10-28T14:19:40Z</time>
      </trkpt>
      <trkpt lat="45.86308" lon="4.25674">
        <ele>535.187</ele>
        <time>2019-10-28T14:19:46Z</time>
      </trkpt>
      <trkpt lat="45.8631" lon="4.25679">
        <ele>535.363</ele>
        <time>2019-10-28T14:19:51Z</time>
      </trkpt>
      <trkpt lat="45.86312" lon="4.25683">
        <ele>532.519</ele>
        <time>2019-10-28T14:19:57Z</time>
      </trkpt>
      <trkpt lat="45.86317" lon="4.25689">
        <ele>530.48</ele>
        <time>2019-10-28T14:20:02Z</time>
      </trkpt>
      <trkpt lat="45.8632" lon="4.25693">
        <ele>533.657</ele>
        <time>2019-10-28T14:20:07Z</time>
      </trkpt>
      <trkpt lat="45.86324" lon="4.25699">
        <ele>534.189</ele>
        <time>2019-10-28T14:20:13Z</time>
      </trkpt>
      <trkpt lat="45.86327" lon="4.25705">
        <ele>532.843</ele>
        <time>2019-10-28T14:20:19Z</time>
      </trkpt>
      <trkpt lat="45.86329" lon="4.25708">
        <ele>534.469</ele>
        <time>2019-10-28T14:20:24Z</time>
      </trkpt>
      <trkpt lat="45.86333" lon="4.25715">
        <ele>533.849</ele>
        <time>2019-10-28T14:20:30Z</time>
      </trkpt>
      <trkpt lat="45.86337" lon="4.25722">
        <ele>534.581</ele>
        <time>2019-10-28T14:20:36Z</time>
      </trkpt>
      <trkpt lat="45.86342" lon="4.25726">
        <ele>533.938</ele>
        <time>2019-10-28T14:20:41Z</time>
      </trkpt>
      <trkpt lat="45.86346" lon="4.25733">
        <ele>533.739</ele>
        <time>2019-10-28T14:20:47Z</time>
      </trkpt>
      <trkpt lat="45.86349" lon="4.25737">
        <ele>534.201</ele>
        <time>2019-10-28T14:20:52Z</time>
      </trkpt>
      <trkpt lat="45.86352" lon="4.25743">
        <ele>534.578</ele>
        <time>2019-10-28T14:20:58Z</time>
      </trkpt>
      <trkpt lat="45.86354" lon="4.25746">
        <ele>534.574</ele>
        <time>2019-10-28T14:21:03Z</time>
      </trkpt>
      <trkpt lat="45.86357" lon="4.25753">
        <ele>535.85</ele>
        <time>2019-10-28T14:21:09Z</time>
      </trkpt>
      <trkpt lat="45.8636" lon="4.25759">
        <ele>536.559</ele>
        <time>2019-10-28T14:21:15Z</time>
      </trkpt>
      <trkpt lat="45.86361" lon="4.25763">
        <ele>538.544</ele>
        <time>2019-10-28T14:21:20Z</time>
      </trkpt>
      <trkpt lat="45.86364" lon="4.25772">
        <ele>599.299</ele>
        <time>2019-10-28T14:21:26Z</time>
      </trkpt>
      <trkpt lat="45.86366" lon="4.25783">
        <ele>537.905</ele>
        <time>2019-10-28T14:21:32Z</time>
      </trkpt>
      <trkpt lat="45.86366" lon="4.25793">
        <ele>538.007</ele>
        <time>2019-10-28T14:21:37Z</time>
      </trkpt>
      <trkpt lat="45.86367" lon="4.25799">
        <ele>539.019</ele>
        <time>2019-10-28T14:21:42Z</time>
      </trkpt>
      <trkpt lat="45.8637" lon="4.25808">
        <ele>540.38</ele>
        <time>2019-10-28T14:21:48Z</time>
      </trkpt>
      <trkpt lat="45.86371" lon="4.25818">
        <ele>539.118</ele>
        <time>2019-10-28T14:21:53Z</time>
      </trkpt>
      <trkpt lat="45.86374" lon="4.25825">
        <ele>539.315</ele>
        <time>2019-10-28T14:21:58Z</time>
      </trkpt>
      <trkpt lat="45.86376" lon="4.25833">
        <ele>539.19</ele>
        <time>2019-10-28T14:22:04Z</time>
      </trkpt>
      <trkpt lat="45.86377" lon="4.25836">
        <ele>538.874</ele>
        <time>2019-10-28T14:22:10Z</time>
      </trkpt>
      <trkpt lat="45.86377" lon="4.25837">
        <ele>538.911</ele>
        <time>2019-10-28T14:22:15Z</time>
      </trkpt>
      <trkpt lat="45.86377" lon="4.25837">
        <ele>538.681</ele>
        <time>2019-10-28T14:22:20Z</time>
      </trkpt>
      <trkpt lat="45.86378" lon="4.25844">
        <ele>539.482</ele>
        <time>2019-10-28T14:22:26Z</time>
      </trkpt>
      <trkpt lat="45.86379" lon="4.25846">
        <ele>539.721</ele>
        <time>2019-10-28T14:22:32Z</time>
      </trkpt>
      <trkpt lat="45.8638" lon="4.25846">
        <ele>539.689</ele>
        <time>2019-10-28T14:22:38Z</time>
      </trkpt>
      <trkpt lat="45.86381" lon="4.25848">
        <ele>539.524</ele>
        <time>2019-10-28T14:22:44Z</time>
      </trkpt>
      <trkpt lat="45.86384" lon="4.25857">
        <ele>539.672</ele>
        <time>2019-10-28T14:22:50Z</time>
      </trkpt>
      <trkpt lat="45.86387" lon="4.25862">
        <ele>539.895</ele>
        <time>2019-10-28T14:22:55Z</time>
      </trkpt>
      <trkpt lat="45.86392" lon="4.25867">
        <ele>538.766</ele>
        <time>2019-10-28T14:23:01Z</time>
      </trkpt>
      <trkpt lat="45.86394" lon="4.25872">
        <ele>539.245</ele>
        <time>2019-10-28T14:23:06Z</time>
      </trkpt>
      <trkpt lat="45.86396" lon="4.25883">
        <ele>538.984</ele>
        <time>2019-10-28T14:23:12Z</time>
      </trkpt>
      <trkpt lat="45.86399" lon="4.25892">
        <ele>539.114</ele>
        <time>2019-10-28T14:23:18Z</time>
      </trkpt>
      <trkpt lat="45.86401" lon="4.25897">
        <ele>539.331</ele>
        <time>2019-10-28T14:23:23Z</time>
      </trkpt>
      <trkpt lat="45.86401" lon="4.25905">
        <ele>538.602</ele>
        <time>2019-10-28T14:23:29Z</time>
      </trkpt>
      <trkpt lat="45.86401" lon="4.25913">
        <ele>539.585</ele>
        <time>2019-10-28T14:23:35Z</time>
      </trkpt>
      <trkpt lat="45.86403" lon="4.25918">
        <ele>539.328</ele>
        <time>2019-10-28T14:23:40Z</time>
      </trkpt>
      <trkpt lat="45.86404" lon="4.25926">
        <ele>539.577</ele>
        <time>2019-10-28T14:23:46Z</time>
      </trkpt>
      <trkpt lat="45.86405" lon="4.25928">
        <ele>539.629</ele>
        <time>2019-10-28T14:23:51Z</time>
      </trkpt>
      <trkpt lat="45.86406" lon="4.25927">
        <ele>539.426</ele>
        <time>2019-10-28T14:23:57Z</time>
      </trkpt>
      <trkpt lat="45.86406" lon="4.25927">
        <ele>539.979</ele>
        <time>2019-10-28T14:24:03Z</time>
      </trkpt>
      <trkpt lat="45.86407" lon="4.25927">
        <ele>539.978</ele>
        <time>2019-10-28T14:24:08Z</time>
      </trkpt>
      <trkpt lat="45.86407" lon="4.25928">
        <ele>540.095</ele>
        <time>2019-10-28T14:24:13Z</time>
      </trkpt>
      <trkpt lat="45.86407" lon="4.25928">
        <ele>540.113</ele>
        <time>2019-10-28T14:24:18Z</time>
      </trkpt>
      <trkpt lat="45.86407" lon="4.25928">
        <ele>540.1</ele>
        <time>2019-10-28T14:24:23Z</time>
      </trkpt>
      <trkpt lat="45.86407" lon="4.25928">
        <ele>540.179</ele>
        <time>2019-10-28T14:24:29Z</time>
      </trkpt>
      <trkpt lat="45.86408" lon="4.25925">
        <ele>539.908</ele>
        <time>2019-10-28T14:24:34Z</time>
      </trkpt>
      <trkpt lat="45.86409" lon="4.25924">
        <ele>540.29</ele>
        <time>2019-10-28T14:24:39Z</time>
      </trkpt>
      <trkpt lat="45.86409" lon="4.25923">
        <ele>540.449</ele>
        <time>2019-10-28T14:24:45Z</time>
      </trkpt>
      <trkpt lat="45.86409" lon="4.25923">
        <ele>540.516</ele>
        <time>2019-10-28T14:24:50Z</time>
      </trkpt>
      <trkpt lat="45.86409" lon="4.25923">
        <ele>540.369</ele>
        <time>2019-10-28T14:24:56Z</time>
      </trkpt>
      <trkpt lat="45.86836" lon="4.27009">
        <ele>812.124</ele>
        <time>2019-10-28T14:42:17Z</time>
      </trkpt>
      <trkpt lat="45.86827" lon="4.27039">
        <ele>811.085</ele>
        <time>2019-10-28T14:42:23Z</time>
      </trkpt>
      <trkpt lat="45.86831" lon="4.27046">
        <ele>810.739</ele>
        <time>2019-10-28T14:42:28Z</time>
      </trkpt>
      <trkpt lat="45.86827" lon="4.27055">
        <ele>808.943</ele>
        <time>2019-10-28T14:42:33Z</time>
      </trkpt>
      <trkpt lat="45.86819" lon="4.27071">
        <ele>803.088</ele>
        <time>2019-10-28T14:42:39Z</time>
      </trkpt>
      <trkpt lat="45.86814" lon="4.27094">
        <ele>709.364</ele>
        <time>2019-10-28T14:42:45Z</time>
      </trkpt>
      <trkpt lat="45.8681" lon="4.27104">
        <ele>631.061</ele>
        <time>2019-10-28T14:42:50Z</time>
      </trkpt>
      <trkpt lat="45.86808" lon="4.27114">
        <ele>597.968</ele>
        <time>2019-10-28T14:42:56Z</time>
      </trkpt>
      <trkpt lat="45.86808" lon="4.2712">
        <ele>592.706</ele>
        <time>2019-10-28T14:43:01Z</time>
      </trkpt>
      <trkpt lat="45.86808" lon="4.27133">
        <ele>587.432</ele>
        <time>2019-10-28T14:43:06Z</time>
      </trkpt>
      <trkpt lat="45.86805" lon="4.27138">
        <ele>761.152</ele>
        <time>2019-10-28T14:43:12Z</time>
      </trkpt>
      <trkpt lat="45.86806" lon="4.27142">
        <ele>741.623</ele>
        <time>2019-10-28T14:43:17Z</time>
      </trkpt>
      <trkpt lat="45.86805" lon="4.27153">
        <ele>741.77</ele>
        <time>2019-10-28T14:43:23Z</time>
      </trkpt>
      <trkpt lat="45.86805" lon="4.27163">
        <ele>731.974</ele>
        <time>2019-10-28T14:43:28Z</time>
      </trkpt>
      <trkpt lat="45.86803" lon="4.27174">
        <ele>628.683</ele>
        <time>2019-10-28T14:43:34Z</time>
      </trkpt>
      <trkpt lat="45.868" lon="4.27184">
        <ele>595.245</ele>
        <time>2019-10-28T14:43:39Z</time>
      </trkpt>
      <trkpt lat="45.86798" lon="4.27191">
        <ele>579.785</ele>
        <time>2019-10-28T14:43:44Z</time>
      </trkpt>
      <trkpt lat="45.86797" lon="4.27198">
        <ele>568.693</ele>
        <time>2019-10-28T14:43:50Z</time>
      </trkpt>
      <trkpt lat="45.86793" lon="4.27206">
        <ele>568.957</ele>
        <time>2019-10-28T14:43:56Z</time>
      </trkpt>
      <trkpt lat="45.8679" lon="4.27214">
        <ele>566.677</ele>
        <time>2019-10-28T14:44:01Z</time>
      </trkpt>
      <trkpt lat="45.86784" lon="4.27223">
        <ele>566.894</ele>
        <time>2019-10-28T14:44:07Z</time>
      </trkpt>
      <trkpt lat="45.86782" lon="4.27232">
        <ele>564.651</ele>
        <time>2019-10-28T14:44:13Z</time>
      </trkpt>
      <trkpt lat="45.86779" lon="4.27246">
        <ele>563.564</ele>
        <time>2019-10-28T14:44:19Z</time>
      </trkpt>
      <trkpt lat="45.86778" lon="4.27256">
        <ele>562.224</ele>
        <time>2019-10-28T14:44:24Z</time>
      </trkpt>
      <trkpt lat="45.86778" lon="4.2727">
        <ele>559.155</ele>
        <time>2019-10-28T14:44:30Z</time>
      </trkpt>
      <trkpt lat="45.86777" lon="4.27274">
        <ele>558.226</ele>
        <time>2019-10-28T14:44:36Z</time>
      </trkpt>
      <trkpt lat="45.86775" lon="4.27282">
        <ele>556.669</ele>
        <time>2019-10-28T14:44:41Z</time>
      </trkpt>
      <trkpt lat="45.86776" lon="4.27288">
        <ele>554.961</ele>
        <time>2019-10-28T14:44:47Z</time>
      </trkpt>
      <trkpt lat="45.86776" lon="4.27294">
        <ele>555.195</ele>
        <time>2019-10-28T14:44:53Z</time>
      </trkpt>
      <trkpt lat="45.86774" lon="4.27309">
        <ele>553.035</ele>
        <time>2019-10-28T14:44:58Z</time>
      </trkpt>
      <trkpt lat="45.86771" lon="4.27321">
        <ele>554.473</ele>
        <time>2019-10-28T14:45:04Z</time>
      </trkpt>
      <trkpt lat="45.86768" lon="4.27337">
        <ele>556.188</ele>
        <time>2019-10-28T14:45:10Z</time>
      </trkpt>
      <trkpt lat="45.86768" lon="4.27345">
        <ele>556.51</ele>
        <time>2019-10-28T14:45:15Z</time>
      </trkpt>
      <trkpt lat="45.86764" lon="4.27348">
        <ele>558.633</ele>
        <time>2019-10-28T14:45:21Z</time>
      </trkpt>
      <trkpt lat="45.86763" lon="4.27357">
        <ele>560.141</ele>
        <time>2019-10-28T14:45:26Z</time>
      </trkpt>
      <trkpt lat="45.86764" lon="4.27363">
        <ele>564.261</ele>
        <time>2019-10-28T14:45:32Z</time>
      </trkpt>
      <trkpt lat="45.86763" lon="4.2737">
        <ele>563.852</ele>
        <time>2019-10-28T14:45:38Z</time>
      </trkpt>
      <trkpt lat="45.86764" lon="4.27377">
        <ele>566.987</ele>
        <time>2019-10-28T14:45:43Z</time>
      </trkpt>
      <trkpt lat="45.8676" lon="4.27385">
        <ele>565.134</ele>
        <time>2019-10-28T14:45:49Z</time>
      </trkpt>
      <trkpt lat="45.86748" lon="4.27398">
        <ele>564.006</ele>
        <time>2019-10-28T14:45:55Z</time>
      </trkpt>
      <trkpt lat="45.86743" lon="4.27405">
        <ele>562.96</ele>
        <time>2019-10-28T14:46:00Z</time>
      </trkpt>
      <trkpt lat="45.86743" lon="4.27406">
        <ele>564.407</ele>
        <time>2019-10-28T14:46:05Z</time>
      </trkpt>
      <trkpt lat="45.86744" lon="4.27398">
        <ele>564.657</ele>
        <time>2019-10-28T14:46:11Z</time>
      </trkpt>
      <trkpt lat="45.86739" lon="4.27413">
        <ele>566.048</ele>
        <time>2019-10-28T14:46:16Z</time>
      </trkpt>
      <trkpt lat="45.86735" lon="4.27427">
        <ele>566.219</ele>
        <time>2019-10-28T14:46:21Z</time>
      </trkpt>
      <trkpt lat="45.8673" lon="4.27444">
        <ele>568.002</ele>
        <time>2019-10-28T14:46:27Z</time>
      </trkpt>
      <trkpt lat="45.86728" lon="4.27454">
        <ele>568.026</ele>
        <time>2019-10-28T14:46:32Z</time>
      </trkpt>
      <trkpt lat="45.86723" lon="4.27472">
        <ele>567.535</ele>
        <time>2019-10-28T14:46:38Z</time>
      </trkpt>
      <trkpt lat="45.86728" lon="4.27471">
        <ele>568.3</ele>
        <time>2019-10-28T14:46:44Z</time>
      </trkpt>
      <trkpt lat="45.86728" lon="4.27469">
        <ele>568.674</ele>
        <time>2019-10-28T14:46:50Z</time>
      </trkpt>
      <trkpt lat="45.86726" lon="4.27472">
        <ele>569.003</ele>
        <time>2019-10-28T14:46:55Z</time>
      </trkpt>
      <trkpt lat="45.86726" lon="4.27472">
        <ele>569.326</ele>
        <time>2019-10-28T14:47:01Z</time>
      </trkpt>
      <trkpt lat="45.86725" lon="4.27473">
        <ele>569.433</ele>
        <time>2019-10-28T14:47:07Z</time>
      </trkpt>
      <trkpt lat="45.86722" lon="4.27479">
        <ele>571.529</ele>
        <time>2019-10-28T14:47:12Z</time>
      </trkpt>
      <trkpt lat="45.8671" lon="4.27504">
        <ele>568.87</ele>
        <time>2019-10-28T14:47:17Z</time>
      </trkpt>
      <trkpt lat="45.86707" lon="4.27515">
        <ele>569.36</ele>
        <time>2019-10-28T14:47:22Z</time>
      </trkpt>
      <trkpt lat="45.86711" lon="4.27509">
        <ele>569.636</ele>
        <time>2019-10-28T14:47:28Z</time>
      </trkpt>
      <trkpt lat="45.86709" lon="4.27508">
        <ele>570.779</ele>
        <time>2019-10-28T14:47:33Z</time>
      </trkpt>
      <trkpt lat="45.86707" lon="4.27512">
        <ele>571.202</ele>
        <time>2019-10-28T14:47:38Z</time>
      </trkpt>
      <trkpt lat="45.86708" lon="4.27516">
        <ele>571.662</ele>
        <time>2019-10-28T14:47:43Z</time>
      </trkpt>
      <trkpt lat="45.86709" lon="4.27518">
        <ele>568.11</ele>
        <time>2019-10-28T14:47:49Z</time>
      </trkpt>
      <trkpt lat="45.86709" lon="4.27517">
        <ele>568.118</ele>
        <time>2019-10-28T14:47:55Z</time>
      </trkpt>
      <trkpt lat="45.86708" lon="4.27517">
        <ele>568.468</ele>
        <time>2019-10-28T14:48:01Z</time>
      </trkpt>
      <trkpt lat="45.86709" lon="4.27517">
        <ele>568.03</ele>
        <time>2019-10-28T14:48:07Z</time>
      </trkpt>
      <trkpt lat="45.86709" lon="4.27517">
        <ele>567.996</ele>
        <time>2019-10-28T14:48:13Z</time>
      </trkpt>
      <trkpt lat="45.86709" lon="4.27517">
        <ele>568.001</ele>
        <time>2019-10-28T14:48:18Z</time>
      </trkpt>
      <trkpt lat="45.86709" lon="4.27517">
        <ele>568.1</ele>
        <time>2019-10-28T14:48:24Z</time>
      </trkpt>
      <trkpt lat="45.86709" lon="4.27517">
        <ele>568.11</ele>
        <time>2019-10-28T14:48:30Z</time>
      </trkpt>
      <trkpt lat="45.86708" lon="4.27517">
        <ele>568.1</ele>
        <time>2019-10-28T14:48:36Z</time>
      </trkpt>
      <trkpt lat="45.86709" lon="4.27517">
        <ele>568.09</ele>
        <time>2019-10-28T14:48:42Z</time>
      </trkpt>
      <trkpt lat="45.86709" lon="4.27517">
        <ele>568.068</ele>
        <time>2019-10-28T14:48:48Z</time>
      </trkpt>
      <trkpt lat="45.86709" lon="4.27517">
        <ele>568.24</ele>
        <time>2019-10-28T14:48:53Z</time>
      </trkpt>
      <trkpt lat="45.86709" lon="4.27517">
        <ele>568.283</ele>
        <time>2019-10-28T14:48:59Z</time>
      </trkpt>
      <trkpt lat="45.86709" lon="4.27517">
        <ele>568.29</ele>
        <time>2019-10-28T14:49:04Z</time>
      </trkpt>
      <trkpt lat="45.86709" lon="4.27517">
        <ele>568.297</ele>
        <time>2019-10-28T14:49:09Z</time>
      </trkpt>
      <trkpt lat="45.86709" lon="4.27518">
        <ele>568.316</ele>
        <time>2019-10-28T14:49:15Z</time>
      </trkpt>
      <trkpt lat="45.8671" lon="4.27517">
        <ele>568.107</ele>
        <time>2019-10-28T14:49:20Z</time>
      </trkpt>
      <trkpt lat="45.86711" lon="4.27518">
        <ele>567.184</ele>
        <time>2019-10-28T14:49:26Z</time>
      </trkpt>
      <trkpt lat="45.86711" lon="4.27518">
        <ele>567.541</ele>
        <time>2019-10-28T14:49:32Z</time>
      </trkpt>
      <trkpt lat="45.86711" lon="4.27518">
        <ele>567.382</ele>
        <time>2019-10-28T14:49:38Z</time>
      </trkpt>
      <trkpt lat="45.86711" lon="4.27518">
        <ele>567.359</ele>
        <time>2019-10-28T14:49:43Z</time>
      </trkpt>
      <trkpt lat="45.86711" lon="4.27518">
        <ele>567.364</ele>
        <time>2019-10-28T14:49:49Z</time>
      </trkpt>
      <trkpt lat="45.86711" lon="4.27518">
        <ele>567.376</ele>
        <time>2019-10-28T14:49:55Z</time>
      </trkpt>
      <trkpt lat="45.86711" lon="4.27518">
        <ele>565.92</ele>
        <time>2019-10-28T14:50:00Z</time>
      </trkpt>
      <trkpt lat="45.86714" lon="4.27521">
        <ele>566.051</ele>
        <time>2019-10-28T14:50:06Z</time>
      </trkpt>
      <trkpt lat="45.86717" lon="4.27528">
        <ele>564.26</ele>
        <time>2019-10-28T14:50:12Z</time>
      </trkpt>
      <trkpt lat="45.86718" lon="4.27538">
        <ele>565.965</ele>
        <time>2019-10-28T14:50:18Z</time>
      </trkpt>
      <trkpt lat="45.86721" lon="4.27546">
        <ele>567.872</ele>
        <time>2019-10-28T14:50:24Z</time>
      </trkpt>
      <trkpt lat="45.86722" lon="4.27553">
        <ele>568.903</ele>
        <time>2019-10-28T14:50:30Z</time>
      </trkpt>
      <trkpt lat="45.86724" lon="4.27559">
        <ele>569.087</ele>
        <time>2019-10-28T14:50:35Z</time>
      </trkpt>
      <trkpt lat="45.86727" lon="4.27567">
        <ele>569.589</ele>
        <time>2019-10-28T14:50:41Z</time>
      </trkpt>
      <trkpt lat="45.86729" lon="4.27575">
        <ele>569.414</ele>
        <time>2019-10-28T14:50:47Z</time>
      </trkpt>
      <trkpt lat="45.86733" lon="4.27582">
        <ele>571.407</ele>
        <time>2019-10-28T14:50:52Z</time>
      </trkpt>
      <trkpt lat="45.86736" lon="4.27589">
        <ele>569.151</ele>
        <time>2019-10-28T14:50:58Z</time>
      </trkpt>
      <trkpt lat="45.86739" lon="4.27596">
        <ele>567.844</ele>
        <time>2019-10-28T14:51:03Z</time>
      </trkpt>
      <trkpt lat="45.86745" lon="4.27603">
        <ele>566.652</ele>
        <time>2019-10-28T14:51:09Z</time>
      </trkpt>
      <trkpt lat="45.8675" lon="4.27611">
        <ele>567.415</ele>
        <time>2019-10-28T14:51:15Z</time>
      </trkpt>
      <trkpt lat="45.86755" lon="4.27616">
        <ele>563.321</ele>
        <time>2019-10-28T14:51:21Z</time>
      </trkpt>
      <trkpt lat="45.86759" lon="4.27623">
        <ele>564.299</ele>
        <time>2019-10-28T14:51:26Z</time>
      </trkpt>
      <trkpt lat="45.86764" lon="4.27627">
        <ele>567.742</ele>
        <time>2019-10-28T14:51:32Z</time>
      </trkpt>
      <trkpt lat="45.8677" lon="4.27629">
        <ele>570.061</ele>
        <time>2019-10-28T14:51:38Z</time>
      </trkpt>
      <trkpt lat="45.86777" lon="4.27633">
        <ele>569.894</ele>
        <time>2019-10-28T14:51:44Z</time>
      </trkpt>
      <trkpt lat="45.86782" lon="4.27634">
        <ele>567.711</ele>
        <time>2019-10-28T14:51:49Z</time>
      </trkpt>
      <trkpt lat="45.86789" lon="4.27635">
        <ele>569.094</ele>
        <time>2019-10-28T14:51:55Z</time>
      </trkpt>
      <trkpt lat="45.86794" lon="4.27636">
        <ele>572.31</ele>
        <time>2019-10-28T14:52:01Z</time>
      </trkpt>
      <trkpt lat="45.86798" lon="4.27637">
        <ele>574.151</ele>
        <time>2019-10-28T14:52:06Z</time>
      </trkpt>
      <trkpt lat="45.86808" lon="4.2764">
        <ele>572.294</ele>
        <time>2019-10-28T14:52:12Z</time>
      </trkpt>
      <trkpt lat="45.86814" lon="4.27641">
        <ele>575.249</ele>
        <time>2019-10-28T14:52:18Z</time>
      </trkpt>
      <trkpt lat="45.86821" lon="4.27642">
        <ele>576.575</ele>
        <time>2019-10-28T14:52:24Z</time>
      </trkpt>
      <trkpt lat="45.86828" lon="4.27644">
        <ele>576.156</ele>
        <time>2019-10-28T14:52:30Z</time>
      </trkpt>
      <trkpt lat="45.86835" lon="4.27647">
        <ele>580.113</ele>
        <time>2019-10-28T14:52:36Z</time>
      </trkpt>
      <trkpt lat="45.86843" lon="4.27652">
        <ele>580.842</ele>
        <time>2019-10-28T14:52:42Z</time>
      </trkpt>
      <trkpt lat="45.86849" lon="4.27656">
        <ele>578.838</ele>
        <time>2019-10-28T14:52:48Z</time>
      </trkpt>
      <trkpt lat="45.86853" lon="4.27661">
        <ele>580.164</ele>
        <time>2019-10-28T14:52:53Z</time>
      </trkpt>
      <trkpt lat="45.86857" lon="4.27667">
        <ele>578.113</ele>
        <time>2019-10-28T14:52:59Z</time>
      </trkpt>
      <trkpt lat="45.86862" lon="4.27673">
        <ele>581.946</ele>
        <time>2019-10-28T14:53:05Z</time>
      </trkpt>
      <trkpt lat="45.86864" lon="4.27677">
        <ele>634.327</ele>
        <time>2019-10-28T14:53:11Z</time>
      </trkpt>
      <trkpt lat="45.86872" lon="4.27683">
        <ele>632.482</ele>
        <time>2019-10-28T14:53:17Z</time>
      </trkpt>
      <trkpt lat="45.86878" lon="4.27692">
        <ele>633.063</ele>
        <time>2019-10-28T14:53:22Z</time>
      </trkpt>
      <trkpt lat="45.86884" lon="4.27697">
        <ele>624.461</ele>
        <time>2019-10-28T14:53:28Z</time>
      </trkpt>
      <trkpt lat="45.8689" lon="4.27707">
        <ele>598.029</ele>
        <time>2019-10-28T14:53:34Z</time>
      </trkpt>
      <trkpt lat="45.86893" lon="4.27712">
        <ele>587.583</ele>
        <time>2019-10-28T14:53:40Z</time>
      </trkpt>
      <trkpt lat="45.869" lon="4.27715">
        <ele>583.63</ele>
        <time>2019-10-28T14:53:46Z</time>
      </trkpt>
      <trkpt lat="45.86905" lon="4.27717">
        <ele>583.928</ele>
        <time>2019-10-28T14:53:51Z</time>
      </trkpt>
      <trkpt lat="45.86909" lon="4.27721">
        <ele>582.531</ele>
        <time>2019-10-28T14:53:57Z</time>
      </trkpt>
      <trkpt lat="45.86915" lon="4.27723">
        <ele>582.905</ele>
        <time>2019-10-28T14:54:02Z</time>
      </trkpt>
      <trkpt lat="45.86922" lon="4.27729">
        <ele>590.517</ele>
        <time>2019-10-28T14:54:08Z</time>
      </trkpt>
      <trkpt lat="45.86928" lon="4.27736">
        <ele>589.788</ele>
        <time>2019-10-28T14:54:13Z</time>
      </trkpt>
      <trkpt lat="45.86933" lon="4.2774">
        <ele>592.344</ele>
        <time>2019-10-28T14:54:18Z</time>
      </trkpt>
      <trkpt lat="45.86939" lon="4.27747">
        <ele>598.962</ele>
        <time>2019-10-28T14:54:24Z</time>
      </trkpt>
      <trkpt lat="45.86947" lon="4.27756">
        <ele>598.795</ele>
        <time>2019-10-28T14:54:30Z</time>
      </trkpt>
      <trkpt lat="45.86951" lon="4.27757">
        <ele>598.76</ele>
        <time>2019-10-28T14:54:36Z</time>
      </trkpt>
      <trkpt lat="45.86957" lon="4.2776">
        <ele>594.744</ele>
        <time>2019-10-28T14:54:42Z</time>
      </trkpt>
      <trkpt lat="45.86964" lon="4.27762">
        <ele>588.99</ele>
        <time>2019-10-28T14:54:47Z</time>
      </trkpt>
      <trkpt lat="45.8697" lon="4.27763">
        <ele>589.717</ele>
        <time>2019-10-28T14:54:52Z</time>
      </trkpt>
      <trkpt lat="45.86976" lon="4.27764">
        <ele>587.188</ele>
        <time>2019-10-28T14:54:57Z</time>
      </trkpt>
      <trkpt lat="45.86984" lon="4.27767">
        <ele>587.322</ele>
        <time>2019-10-28T14:55:03Z</time>
      </trkpt>
      <trkpt lat="45.8699" lon="4.27773">
        <ele>592.478</ele>
        <time>2019-10-28T14:55:08Z</time>
      </trkpt>
      <trkpt lat="45.86995" lon="4.27777">
        <ele>595.142</ele>
        <time>2019-10-28T14:55:14Z</time>
      </trkpt>
      <trkpt lat="45.87002" lon="4.2778">
        <ele>592.539</ele>
        <time>2019-10-28T14:55:19Z</time>
      </trkpt>
      <trkpt lat="45.8701" lon="4.27785">
        <ele>595.603</ele>
        <time>2019-10-28T14:55:24Z</time>
      </trkpt>
      <trkpt lat="45.87015" lon="4.27788">
        <ele>594.135</ele>
        <time>2019-10-28T14:55:29Z</time>
      </trkpt>
      <trkpt lat="45.87018" lon="4.2779">
        <ele>593.387</ele>
        <time>2019-10-28T14:55:34Z</time>
      </trkpt>
      <trkpt lat="45.87025" lon="4.27796">
        <ele>590.764</ele>
        <time>2019-10-28T14:55:40Z</time>
      </trkpt>
      <trkpt lat="45.8703" lon="4.27799">
        <ele>590.925</ele>
        <time>2019-10-28T14:55:45Z</time>
      </trkpt>
      <trkpt lat="45.87036" lon="4.27803">
        <ele>591.918</ele>
        <time>2019-10-28T14:55:51Z</time>
      </trkpt>
      <trkpt lat="45.87041" lon="4.27805">
        <ele>588.005</ele>
        <time>2019-10-28T14:55:57Z</time>
      </trkpt>
      <trkpt lat="45.87047" lon="4.27809">
        <ele>588.956</ele>
        <time>2019-10-28T14:56:02Z</time>
      </trkpt>
      <trkpt lat="45.87053" lon="4.27811">
        <ele>588.396</ele>
        <time>2019-10-28T14:56:08Z</time>
      </trkpt>
      <trkpt lat="45.87061" lon="4.27815">
        <ele>587.581</ele>
        <time>2019-10-28T14:56:14Z</time>
      </trkpt>
      <trkpt lat="45.87066" lon="4.2782">
        <ele>589.44</ele>
        <time>2019-10-28T14:56:19Z</time>
      </trkpt>
      <trkpt lat="45.87074" lon="4.27827">
        <ele>596.786</ele>
        <time>2019-10-28T14:56:25Z</time>
      </trkpt>
      <trkpt lat="45.87078" lon="4.2783">
        <ele>591.331</ele>
        <time>2019-10-28T14:56:30Z</time>
      </trkpt>
      <trkpt lat="45.87085" lon="4.27832">
        <ele>592.695</ele>
        <time>2019-10-28T14:56:36Z</time>
      </trkpt>
      <trkpt lat="45.87091" lon="4.27837">
        <ele>595.697</ele>
        <time>2019-10-28T14:56:41Z</time>
      </trkpt>
      <trkpt lat="45.87098" lon="4.2784">
        <ele>596.47</ele>
        <time>2019-10-28T14:56:47Z</time>
      </trkpt>
      <trkpt lat="45.87104" lon="4.27841">
        <ele>595.183</ele>
        <time>2019-10-28T14:56:53Z</time>
      </trkpt>
      <trkpt lat="45.8711" lon="4.27841">
        <ele>593.354</ele>
        <time>2019-10-28T14:56:58Z</time>
      </trkpt>
      <trkpt lat="45.87116" lon="4.27843">
        <ele>614.189</ele>
        <time>2019-10-28T14:57:03Z</time>
      </trkpt>
      <trkpt lat="45.87122" lon="4.27844">
        <ele>609.815</ele>
        <time>2019-10-28T14:57:09Z</time>
      </trkpt>
      <trkpt lat="45.87127" lon="4.27848">
        <ele>610.249</ele>
        <time>2019-10-28T14:57:14Z</time>
      </trkpt>
      <trkpt lat="45.87131" lon="4.27854">
        <ele>611.219</ele>
        <time>2019-10-28T14:57:19Z</time>
      </trkpt>
      <trkpt lat="45.87134" lon="4.27861">
        <ele>611.889</ele>
        <time>2019-10-28T14:57:25Z</time>
      </trkpt>
      <trkpt lat="45.87139" lon="4.27869">
        <ele>620.432</ele>
        <time>2019-10-28T14:57:31Z</time>
      </trkpt>
      <trkpt lat="45.87144" lon="4.27876">
        <ele>631.485</ele>
        <time>2019-10-28T14:57:36Z</time>
      </trkpt>
      <trkpt lat="45.87148" lon="4.27882">
        <ele>639.612</ele>
        <time>2019-10-28T14:57:42Z</time>
      </trkpt>
      <trkpt lat="45.87155" lon="4.27888">
        <ele>639.914</ele>
        <time>2019-10-28T14:57:48Z</time>
      </trkpt>
      <trkpt lat="45.87162" lon="4.27892">
        <ele>641.097</ele>
        <time>2019-10-28T14:57:53Z</time>
      </trkpt>
      <trkpt lat="45.87169" lon="4.27895">
        <ele>650.654</ele>
        <time>2019-10-28T14:57:59Z</time>
      </trkpt>
      <trkpt lat="45.87175" lon="4.27898">
        <ele>647.959</ele>
        <time>2019-10-28T14:58:04Z</time>
      </trkpt>
      <trkpt lat="45.8718" lon="4.27897">
        <ele>646.167</ele>
        <time>2019-10-28T14:58:09Z</time>
      </trkpt>
      <trkpt lat="45.87187" lon="4.27898">
        <ele>645.184</ele>
        <time>2019-10-28T14:58:14Z</time>
      </trkpt>
      <trkpt lat="45.87192" lon="4.27902">
        <ele>651.605</ele>
        <time>2019-10-28T14:58:19Z</time>
      </trkpt>
      <trkpt lat="45.872" lon="4.27904">
        <ele>651.39</ele>
        <time>2019-10-28T14:58:25Z</time>
      </trkpt>
      <trkpt lat="45.87209" lon="4.27906">
        <ele>650.166</ele>
        <time>2019-10-28T14:58:30Z</time>
      </trkpt>
      <trkpt lat="45.87219" lon="4.27906">
        <ele>654.256</ele>
        <time>2019-10-28T14:58:36Z</time>
      </trkpt>
      <trkpt lat="45.87222" lon="4.27905">
        <ele>639.524</ele>
        <time>2019-10-28T14:58:42Z</time>
      </trkpt>
      <trkpt lat="45.87226" lon="4.27906">
        <ele>646.068</ele>
        <time>2019-10-28T14:58:48Z</time>
      </trkpt>
      <trkpt lat="45.87236" lon="4.2791">
        <ele>647.611</ele>
        <time>2019-10-28T14:58:54Z</time>
      </trkpt>
      <trkpt lat="45.87242" lon="4.27912">
        <ele>656.41</ele>
        <time>2019-10-28T14:59:00Z</time>
      </trkpt>
      <trkpt lat="45.87253" lon="4.27912">
        <ele>653.913</ele>
        <time>2019-10-28T14:59:06Z</time>
      </trkpt>
      <trkpt lat="45.87258" lon="4.27913">
        <ele>652.548</ele>
        <time>2019-10-28T14:59:11Z</time>
      </trkpt>
      <trkpt lat="45.87263" lon="4.27913">
        <ele>641.922</ele>
        <time>2019-10-28T14:59:17Z</time>
      </trkpt>
      <trkpt lat="45.87273" lon="4.27913">
        <ele>639.617</ele>
        <time>2019-10-28T14:59:22Z</time>
      </trkpt>
      <trkpt lat="45.87278" lon="4.27912">
        <ele>644.34</ele>
        <time>2019-10-28T14:59:28Z</time>
      </trkpt>
      <trkpt lat="45.8729" lon="4.27913">
        <ele>650.911</ele>
        <time>2019-10-28T14:59:33Z</time>
      </trkpt>
      <trkpt lat="45.87293" lon="4.27913">
        <ele>654.119</ele>
        <time>2019-10-28T14:59:39Z</time>
      </trkpt>
      <trkpt lat="45.87302" lon="4.27914">
        <ele>650.36</ele>
        <time>2019-10-28T14:59:45Z</time>
      </trkpt>
      <trkpt lat="45.87305" lon="4.27913">
        <ele>648.85</ele>
        <time>2019-10-28T14:59:51Z</time>
      </trkpt>
      <trkpt lat="45.87313" lon="4.27914">
        <ele>651.177</ele>
        <time>2019-10-28T14:59:57Z</time>
      </trkpt>
      <trkpt lat="45.87317" lon="4.27913">
        <ele>649.285</ele>
        <time>2019-10-28T15:00:02Z</time>
      </trkpt>
      <trkpt lat="45.87328" lon="4.27916">
        <ele>648.429</ele>
        <time>2019-10-28T15:00:08Z</time>
      </trkpt>
      <trkpt lat="45.87333" lon="4.27916">
        <ele>651.118</ele>
        <time>2019-10-28T15:00:14Z</time>
      </trkpt>
      <trkpt lat="45.87344" lon="4.27916">
        <ele>646.399</ele>
        <time>2019-10-28T15:00:20Z</time>
      </trkpt>
      <trkpt lat="45.87352" lon="4.27918">
        <ele>642.936</ele>
        <time>2019-10-28T15:00:26Z</time>
      </trkpt>
      <trkpt lat="45.87361" lon="4.2792">
        <ele>647.229</ele>
        <time>2019-10-28T15:00:32Z</time>
      </trkpt>
      <trkpt lat="45.87367" lon="4.27918">
        <ele>649.698</ele>
        <time>2019-10-28T15:00:37Z</time>
      </trkpt>
      <trkpt lat="45.87378" lon="4.27918">
        <ele>651.926</ele>
        <time>2019-10-28T15:00:42Z</time>
      </trkpt>
      <trkpt lat="45.87383" lon="4.27916">
        <ele>642.218</ele>
        <time>2019-10-28T15:00:48Z</time>
      </trkpt>
      <trkpt lat="45.87385" lon="4.27913">
        <ele>634.459</ele>
        <time>2019-10-28T15:00:54Z</time>
      </trkpt>
      <trkpt lat="45.87394" lon="4.27902">
        <ele>645.289</ele>
        <time>2019-10-28T15:00:59Z</time>
      </trkpt>
      <trkpt lat="45.87398" lon="4.27894">
        <ele>639.817</ele>
        <time>2019-10-28T15:01:06Z</time>
      </trkpt>
      <trkpt lat="45.874" lon="4.27887">
        <ele>645.69</ele>
        <time>2019-10-28T15:01:11Z</time>
      </trkpt>
      <trkpt lat="45.87401" lon="4.27876">
        <ele>639.814</ele>
        <time>2019-10-28T15:01:17Z</time>
      </trkpt>
      <trkpt lat="45.874" lon="4.27869">
        <ele>650.735</ele>
        <time>2019-10-28T15:01:22Z</time>
      </trkpt>
      <trkpt lat="45.87395" lon="4.27854">
        <ele>627.615</ele>
        <time>2019-10-28T15:01:29Z</time>
      </trkpt>
      <trkpt lat="45.87389" lon="4.27848">
        <ele>622.348</ele>
        <time>2019-10-28T15:01:34Z</time>
      </trkpt>
      <trkpt lat="45.8738" lon="4.27842">
        <ele>623.73</ele>
        <time>2019-10-28T15:01:40Z</time>
      </trkpt>
      <trkpt lat="45.87377" lon="4.27841">
        <ele>623.514</ele>
        <time>2019-10-28T15:01:45Z</time>
      </trkpt>
      <trkpt lat="45.87372" lon="4.27836">
        <ele>623.446</ele>
        <time>2019-10-28T15:01:51Z</time>
      </trkpt>
      <trkpt lat="45.87359" lon="4.27826">
        <ele>624.593</ele>
        <time>2019-10-28T15:01:56Z</time>
      </trkpt>
      <trkpt lat="45.87354" lon="4.27826">
        <ele>624.643</ele>
        <time>2019-10-28T15:02:03Z</time>
      </trkpt>
      <trkpt lat="45.87347" lon="4.27814">
        <ele>625.94</ele>
        <time>2019-10-28T15:02:08Z</time>
      </trkpt>
      <trkpt lat="45.87343" lon="4.27805">
        <ele>624.32</ele>
        <time>2019-10-28T15:02:14Z</time>
      </trkpt>
      <trkpt lat="45.8734" lon="4.27799">
        <ele>624.455</ele>
        <time>2019-10-28T15:02:19Z</time>
      </trkpt>
      <trkpt lat="45.87335" lon="4.27788">
        <ele>627.704</ele>
        <time>2019-10-28T15:02:25Z</time>
      </trkpt>
      <trkpt lat="45.87328" lon="4.27776">
        <ele>631.475</ele>
        <time>2019-10-28T15:02:30Z</time>
      </trkpt>
      <trkpt lat="45.87326" lon="4.27769">
        <ele>630.92</ele>
        <time>2019-10-28T15:02:36Z</time>
      </trkpt>
      <trkpt lat="45.87322" lon="4.27763">
        <ele>631.199</ele>
        <time>2019-10-28T15:02:42Z</time>
      </trkpt>
      <trkpt lat="45.87315" lon="4.2775">
        <ele>635.446</ele>
        <time>2019-10-28T15:02:47Z</time>
      </trkpt>
      <trkpt lat="45.87312" lon="4.27747">
        <ele>633.715</ele>
        <time>2019-10-28T15:02:53Z</time>
      </trkpt>
      <trkpt lat="45.87306" lon="4.27737">
        <ele>634.95</ele>
        <time>2019-10-28T15:02:59Z</time>
      </trkpt>
      <trkpt lat="45.873" lon="4.27728">
        <ele>635.839</ele>
        <time>2019-10-28T15:03:04Z</time>
      </trkpt>
      <trkpt lat="45.87295" lon="4.27725">
        <ele>634.911</ele>
        <time>2019-10-28T15:03:09Z</time>
      </trkpt>
      <trkpt lat="45.87292" lon="4.27715">
        <ele>633.707</ele>
        <time>2019-10-28T15:03:14Z</time>
      </trkpt>
      <trkpt lat="45.87289" lon="4.27701">
        <ele>635.852</ele>
        <time>2019-10-28T15:03:21Z</time>
      </trkpt>
      <trkpt lat="45.87286" lon="4.27696">
        <ele>636.384</ele>
        <time>2019-10-28T15:03:26Z</time>
      </trkpt>
      <trkpt lat="45.87282" lon="4.27683">
        <ele>634.617</ele>
        <time>2019-10-28T15:03:31Z</time>
      </trkpt>
      <trkpt lat="45.87281" lon="4.27668">
        <ele>636.609</ele>
        <time>2019-10-28T15:03:38Z</time>
      </trkpt>
      <trkpt lat="45.8728" lon="4.27662">
        <ele>637.658</ele>
        <time>2019-10-28T15:03:44Z</time>
      </trkpt>
      <trkpt lat="45.87284" lon="4.27646">
        <ele>633.5</ele>
        <time>2019-10-28T15:03:49Z</time>
      </trkpt>
      <trkpt lat="45.87289" lon="4.2764">
        <ele>636.512</ele>
        <time>2019-10-28T15:03:55Z</time>
      </trkpt>
      <trkpt lat="45.87296" lon="4.27636">
        <ele>633.104</ele>
        <time>2019-10-28T15:04:01Z</time>
      </trkpt>
      <trkpt lat="45.87304" lon="4.2763">
        <ele>633.574</ele>
        <time>2019-10-28T15:04:06Z</time>
      </trkpt>
      <trkpt lat="45.87307" lon="4.27628">
        <ele>632.516</ele>
        <time>2019-10-28T15:04:12Z</time>
      </trkpt>
      <trkpt lat="45.87313" lon="4.27624">
        <ele>631.936</ele>
        <time>2019-10-28T15:04:17Z</time>
      </trkpt>
      <trkpt lat="45.87317" lon="4.27621">
        <ele>631.333</ele>
        <time>2019-10-28T15:04:23Z</time>
      </trkpt>
      <trkpt lat="45.87317" lon="4.27621">
        <ele>629.295</ele>
        <time>2019-10-28T15:04:29Z</time>
      </trkpt>
      <trkpt lat="45.87316" lon="4.27622">
        <ele>629.114</ele>
        <time>2019-10-28T15:04:35Z</time>
      </trkpt>
      <trkpt lat="45.87316" lon="4.27622">
        <ele>629.093</ele>
        <time>2019-10-28T15:04:40Z</time>
      </trkpt>
      <trkpt lat="45.87317" lon="4.27623">
        <ele>629.933</ele>
        <time>2019-10-28T15:04:46Z</time>
      </trkpt>
      <trkpt lat="45.87316" lon="4.27622">
        <ele>630.323</ele>
        <time>2019-10-28T15:04:52Z</time>
      </trkpt>
      <trkpt lat="45.87316" lon="4.27622">
        <ele>630.72</ele>
        <time>2019-10-28T15:04:58Z</time>
      </trkpt>
      <trkpt lat="45.87316" lon="4.27622">
        <ele>630.717</ele>
        <time>2019-10-28T15:05:03Z</time>
      </trkpt>
      <trkpt lat="45.87316" lon="4.27622">
        <ele>630.712</ele>
        <time>2019-10-28T15:05:08Z</time>
      </trkpt>
      <trkpt lat="45.87316" lon="4.27622">
        <ele>630.725</ele>
        <time>2019-10-28T15:05:15Z</time>
      </trkpt>
      <trkpt lat="45.87316" lon="4.27622">
        <ele>630.725</ele>
        <time>2019-10-28T15:05:21Z</time>
      </trkpt>
      <trkpt lat="45.87316" lon="4.27622">
        <ele>630.726</ele>
        <time>2019-10-28T15:05:27Z</time>
      </trkpt>
      <trkpt lat="45.87316" lon="4.27622">
        <ele>630.75</ele>
        <time>2019-10-28T15:05:33Z</time>
      </trkpt>
      <trkpt lat="45.87316" lon="4.27622">
        <ele>630.811</ele>
        <time>2019-10-28T15:05:38Z</time>
      </trkpt>
      <trkpt lat="45.87319" lon="4.27621">
        <ele>631.272</ele>
        <time>2019-10-28T15:05:44Z</time>
      </trkpt>
      <trkpt lat="45.87326" lon="4.27622">
        <ele>630.89</ele>
        <time>2019-10-28T15:05:49Z</time>
      </trkpt>
      <trkpt lat="45.87329" lon="4.27621">
        <ele>632.325</ele>
        <time>2019-10-28T15:05:55Z</time>
      </trkpt>
      <trkpt lat="45.87334" lon="4.27618">
        <ele>629.907</ele>
        <time>2019-10-28T15:06:01Z</time>
      </trkpt>
      <trkpt lat="45.87337" lon="4.27614">
        <ele>632.533</ele>
        <time>2019-10-28T15:06:07Z</time>
      </trkpt>
      <trkpt lat="45.87336" lon="4.27611">
        <ele>631.778</ele>
        <time>2019-10-28T15:06:12Z</time>
      </trkpt>
      <trkpt lat="45.87339" lon="4.27608">
        <ele>633.745</ele>
        <time>2019-10-28T15:06:17Z</time>
      </trkpt>
      <trkpt lat="45.87346" lon="4.27607">
        <ele>634.745</ele>
        <time>2019-10-28T15:06:24Z</time>
      </trkpt>
      <trkpt lat="45.87351" lon="4.27604">
        <ele>634.824</ele>
        <time>2019-10-28T15:06:30Z</time>
      </trkpt>
      <trkpt lat="45.87357" lon="4.27601">
        <ele>631.99</ele>
        <time>2019-10-28T15:06:36Z</time>
      </trkpt>
      <trkpt lat="45.8736" lon="4.27599">
        <ele>632.81</ele>
        <time>2019-10-28T15:06:41Z</time>
      </trkpt>
      <trkpt lat="45.87367" lon="4.27594">
        <ele>634.696</ele>
        <time>2019-10-28T15:06:46Z</time>
      </trkpt>
      <trkpt lat="45.87372" lon="4.27592">
        <ele>633.942</ele>
        <time>2019-10-28T15:06:52Z</time>
      </trkpt>
      <trkpt lat="45.87378" lon="4.27591">
        <ele>632.307</ele>
        <time>2019-10-28T15:06:58Z</time>
      </trkpt>
      <trkpt lat="45.87385" lon="4.27586">
        <ele>634.695</ele>
        <time>2019-10-28T15:07:04Z</time>
      </trkpt>
      <trkpt lat="45.87391" lon="4.2758">
        <ele>631.415</ele>
        <time>2019-10-28T15:07:09Z</time>
      </trkpt>
      <trkpt lat="45.87395" lon="4.27575">
        <ele>631.392</ele>
        <time>2019-10-28T15:07:15Z</time>
      </trkpt>
      <trkpt lat="45.87402" lon="4.27571">
        <ele>629.813</ele>
        <time>2019-10-28T15:07:20Z</time>
      </trkpt>
      <trkpt lat="45.87405" lon="4.27567">
        <ele>627.753</ele>
        <time>2019-10-28T15:07:26Z</time>
      </trkpt>
      <trkpt lat="45.8741" lon="4.27557">
        <ele>626.835</ele>
        <time>2019-10-28T15:07:31Z</time>
      </trkpt>
      <trkpt lat="45.87414" lon="4.27552">
        <ele>623.963</ele>
        <time>2019-10-28T15:07:36Z</time>
      </trkpt>
      <trkpt lat="45.8742" lon="4.27542">
        <ele>630.072</ele>
        <time>2019-10-28T15:07:43Z</time>
      </trkpt>
      <trkpt lat="45.87423" lon="4.27537">
        <ele>627.338</ele>
        <time>2019-10-28T15:07:48Z</time>
      </trkpt>
      <trkpt lat="45.8743" lon="4.27531">
        <ele>627.561</ele>
        <time>2019-10-28T15:07:53Z</time>
      </trkpt>
      <trkpt lat="45.87435" lon="4.2753">
        <ele>625.807</ele>
        <time>2019-10-28T15:07:59Z</time>
      </trkpt>
      <trkpt lat="45.87443" lon="4.27528">
        <ele>625.905</ele>
        <time>2019-10-28T15:08:04Z</time>
      </trkpt>
      <trkpt lat="45.8745" lon="4.27525">
        <ele>628.417</ele>
        <time>2019-10-28T15:08:09Z</time>
      </trkpt>
      <trkpt lat="45.87455" lon="4.27522">
        <ele>629.592</ele>
        <time>2019-10-28T15:08:14Z</time>
      </trkpt>
      <trkpt lat="45.87462" lon="4.27521">
        <ele>632.375</ele>
        <time>2019-10-28T15:08:19Z</time>
      </trkpt>
      <trkpt lat="45.87468" lon="4.2752">
        <ele>635.821</ele>
        <time>2019-10-28T15:08:25Z</time>
      </trkpt>
      <trkpt lat="45.87473" lon="4.27519">
        <ele>638.582</ele>
        <time>2019-10-28T15:08:31Z</time>
      </trkpt>
      <trkpt lat="45.87479" lon="4.27517">
        <ele>641.257</ele>
        <time>2019-10-28T15:08:36Z</time>
      </trkpt>
      <trkpt lat="45.87485" lon="4.27516">
        <ele>644.729</ele>
        <time>2019-10-28T15:08:41Z</time>
      </trkpt>
      <trkpt lat="45.87491" lon="4.27514">
        <ele>643.259</ele>
        <time>2019-10-28T15:08:47Z</time>
      </trkpt>
      <trkpt lat="45.87495" lon="4.27512">
        <ele>642.895</ele>
        <time>2019-10-28T15:08:52Z</time>
      </trkpt>
      <trkpt lat="45.87495" lon="4.27512">
        <ele>641.295</ele>
        <time>2019-10-28T15:08:57Z</time>
      </trkpt>
      <trkpt lat="45.875" lon="4.27513">
        <ele>638.292</ele>
        <time>2019-10-28T15:09:02Z</time>
      </trkpt>
      <trkpt lat="45.87508" lon="4.27517">
        <ele>640.245</ele>
        <time>2019-10-28T15:09:07Z</time>
      </trkpt>
      <trkpt lat="45.87513" lon="4.27515">
        <ele>640.893</ele>
        <time>2019-10-28T15:09:13Z</time>
      </trkpt>
      <trkpt lat="45.87518" lon="4.2751">
        <ele>643.027</ele>
        <time>2019-10-28T15:09:18Z</time>
      </trkpt>
      <trkpt lat="45.87523" lon="4.27501">
        <ele>646.491</ele>
        <time>2019-10-28T15:09:24Z</time>
      </trkpt>
      <trkpt lat="45.87529" lon="4.27495">
        <ele>644.832</ele>
        <time>2019-10-28T15:09:30Z</time>
      </trkpt>
      <trkpt lat="45.87536" lon="4.2749">
        <ele>647.226</ele>
        <time>2019-10-28T15:09:36Z</time>
      </trkpt>
      <trkpt lat="45.87541" lon="4.27487">
        <ele>649.136</ele>
        <time>2019-10-28T15:09:42Z</time>
      </trkpt>
      <trkpt lat="45.87547" lon="4.2748">
        <ele>649.573</ele>
        <time>2019-10-28T15:09:48Z</time>
      </trkpt>
      <trkpt lat="45.87552" lon="4.27472">
        <ele>651.935</ele>
        <time>2019-10-28T15:09:53Z</time>
      </trkpt>
      <trkpt lat="45.87558" lon="4.27465">
        <ele>650.809</ele>
        <time>2019-10-28T15:09:58Z</time>
      </trkpt>
      <trkpt lat="45.87565" lon="4.27461">
        <ele>653.539</ele>
        <time>2019-10-28T15:10:05Z</time>
      </trkpt>
      <trkpt lat="45.87572" lon="4.27459">
        <ele>653.382</ele>
        <time>2019-10-28T15:10:11Z</time>
      </trkpt>
      <trkpt lat="45.87577" lon="4.27455">
        <ele>653.975</ele>
        <time>2019-10-28T15:10:16Z</time>
      </trkpt>
      <trkpt lat="45.87584" lon="4.27447">
        <ele>652.511</ele>
        <time>2019-10-28T15:10:21Z</time>
      </trkpt>
      <trkpt lat="45.87589" lon="4.27444">
        <ele>653.713</ele>
        <time>2019-10-28T15:10:26Z</time>
      </trkpt>
      <trkpt lat="45.87594" lon="4.2744">
        <ele>651.055</ele>
        <time>2019-10-28T15:10:33Z</time>
      </trkpt>
      <trkpt lat="45.876" lon="4.2744">
        <ele>649.139</ele>
        <time>2019-10-28T15:10:39Z</time>
      </trkpt>
      <trkpt lat="45.87605" lon="4.27433">
        <ele>652.708</ele>
        <time>2019-10-28T15:10:44Z</time>
      </trkpt>
      <trkpt lat="45.8761" lon="4.27431">
        <ele>652.46</ele>
        <time>2019-10-28T15:10:50Z</time>
      </trkpt>
      <trkpt lat="45.87613" lon="4.27427">
        <ele>656.141</ele>
        <time>2019-10-28T15:10:55Z</time>
      </trkpt>
      <trkpt lat="45.87618" lon="4.27424">
        <ele>656.714</ele>
        <time>2019-10-28T15:11:01Z</time>
      </trkpt>
      <trkpt lat="45.87625" lon="4.27421">
        <ele>654</ele>
        <time>2019-10-28T15:11:06Z</time>
      </trkpt>
      <trkpt lat="45.87631" lon="4.27426">
        <ele>652.548</ele>
        <time>2019-10-28T15:11:12Z</time>
      </trkpt>
      <trkpt lat="45.87633" lon="4.2743">
        <ele>652.555</ele>
        <time>2019-10-28T15:11:17Z</time>
      </trkpt>
      <trkpt lat="45.87634" lon="4.27431">
        <ele>652.02</ele>
        <time>2019-10-28T15:11:23Z</time>
      </trkpt>
      <trkpt lat="45.87641" lon="4.27433">
        <ele>651.425</ele>
        <time>2019-10-28T15:11:28Z</time>
      </trkpt>
      <trkpt lat="45.87648" lon="4.27435">
        <ele>651.712</ele>
        <time>2019-10-28T15:11:33Z</time>
      </trkpt>
      <trkpt lat="45.87653" lon="4.27437">
        <ele>648.155</ele>
        <time>2019-10-28T15:11:39Z</time>
      </trkpt>
      <trkpt lat="45.87655" lon="4.27436">
        <ele>647.577</ele>
        <time>2019-10-28T15:11:44Z</time>
      </trkpt>
      <trkpt lat="45.87659" lon="4.27435">
        <ele>647.536</ele>
        <time>2019-10-28T15:11:50Z</time>
      </trkpt>
      <trkpt lat="45.87666" lon="4.27439">
        <ele>646.633</ele>
        <time>2019-10-28T15:11:55Z</time>
      </trkpt>
      <trkpt lat="45.87672" lon="4.27442">
        <ele>645.489</ele>
        <time>2019-10-28T15:12:01Z</time>
      </trkpt>
      <trkpt lat="45.87675" lon="4.27444">
        <ele>644.528</ele>
        <time>2019-10-28T15:12:06Z</time>
      </trkpt>
      <trkpt lat="45.8768" lon="4.27446">
        <ele>642.749</ele>
        <time>2019-10-28T15:12:12Z</time>
      </trkpt>
      <trkpt lat="45.87685" lon="4.27446">
        <ele>642.239</ele>
        <time>2019-10-28T15:12:17Z</time>
      </trkpt>
      <trkpt lat="45.8769" lon="4.27446">
        <ele>643.514</ele>
        <time>2019-10-28T15:12:23Z</time>
      </trkpt>
      <trkpt lat="45.87692" lon="4.27446">
        <ele>645.82</ele>
        <time>2019-10-28T15:12:28Z</time>
      </trkpt>
      <trkpt lat="45.87697" lon="4.27447">
        <ele>642.971</ele>
        <time>2019-10-28T15:12:34Z</time>
      </trkpt>
      <trkpt lat="45.87702" lon="4.27452">
        <ele>639.853</ele>
        <time>2019-10-28T15:12:40Z</time>
      </trkpt>
      <trkpt lat="45.8771" lon="4.27462">
        <ele>636.246</ele>
        <time>2019-10-28T15:12:45Z</time>
      </trkpt>
      <trkpt lat="45.87714" lon="4.27467">
        <ele>637.873</ele>
        <time>2019-10-28T15:12:50Z</time>
      </trkpt>
      <trkpt lat="45.87718" lon="4.27474">
        <ele>635.807</ele>
        <time>2019-10-28T15:12:55Z</time>
      </trkpt>
      <trkpt lat="45.87724" lon="4.27479">
        <ele>634.59</ele>
        <time>2019-10-28T15:13:02Z</time>
      </trkpt>
      <trkpt lat="45.87727" lon="4.27483">
        <ele>635.936</ele>
        <time>2019-10-28T15:13:07Z</time>
      </trkpt>
      <trkpt lat="45.87727" lon="4.27485">
        <ele>635.527</ele>
        <time>2019-10-28T15:13:12Z</time>
      </trkpt>
      <trkpt lat="45.87729" lon="4.27485">
        <ele>635.399</ele>
        <time>2019-10-28T15:13:18Z</time>
      </trkpt>
      <trkpt lat="45.87734" lon="4.27488">
        <ele>634.429</ele>
        <time>2019-10-28T15:13:23Z</time>
      </trkpt>
      <trkpt lat="45.87739" lon="4.27488">
        <ele>635.26</ele>
        <time>2019-10-28T15:13:29Z</time>
      </trkpt>
      <trkpt lat="45.87744" lon="4.27493">
        <ele>633.656</ele>
        <time>2019-10-28T15:13:35Z</time>
      </trkpt>
      <trkpt lat="45.87744" lon="4.27494">
        <ele>633.691</ele>
        <time>2019-10-28T15:13:40Z</time>
      </trkpt>
      <trkpt lat="45.87744" lon="4.27493">
        <ele>634.764</ele>
        <time>2019-10-28T15:13:45Z</time>
      </trkpt>
      <trkpt lat="45.87743" lon="4.27493">
        <ele>635.87</ele>
        <time>2019-10-28T15:13:52Z</time>
      </trkpt>
      <trkpt lat="45.87743" lon="4.27493">
        <ele>635.835</ele>
        <time>2019-10-28T15:13:57Z</time>
      </trkpt>
      <trkpt lat="45.87743" lon="4.27493">
        <ele>635.141</ele>
        <time>2019-10-28T15:14:02Z</time>
      </trkpt>
      <trkpt lat="45.87743" lon="4.27492">
        <ele>635.058</ele>
        <time>2019-10-28T15:14:08Z</time>
      </trkpt>
      <trkpt lat="45.87745" lon="4.27491">
        <ele>631.308</ele>
        <time>2019-10-28T15:14:14Z</time>
      </trkpt>
      <trkpt lat="45.87746" lon="4.27491">
        <ele>630.807</ele>
        <time>2019-10-28T15:14:20Z</time>
      </trkpt>
      <trkpt lat="45.87746" lon="4.27491">
        <ele>631.322</ele>
        <time>2019-10-28T15:14:26Z</time>
      </trkpt>
      <trkpt lat="45.87746" lon="4.27491">
        <ele>631.385</ele>
        <time>2019-10-28T15:14:32Z</time>
      </trkpt>
      <trkpt lat="45.87746" lon="4.27491">
        <ele>631.288</ele>
        <time>2019-10-28T15:14:37Z</time>
      </trkpt>
      <trkpt lat="45.87748" lon="4.27489">
        <ele>632.098</ele>
        <time>2019-10-28T15:14:42Z</time>
      </trkpt>
      <trkpt lat="45.8775" lon="4.27484">
        <ele>629.928</ele>
        <time>2019-10-28T15:14:48Z</time>
      </trkpt>
      <trkpt lat="45.87752" lon="4.27481">
        <ele>629.973</ele>
        <time>2019-10-28T15:14:53Z</time>
      </trkpt>
      <trkpt lat="45.87754" lon="4.27476">
        <ele>633.742</ele>
        <time>2019-10-28T15:14:58Z</time>
      </trkpt>
      <trkpt lat="45.87758" lon="4.27469">
        <ele>631.794</ele>
        <time>2019-10-28T15:15:04Z</time>
      </trkpt>
      <trkpt lat="45.87763" lon="4.27463">
        <ele>632.11</ele>
        <time>2019-10-28T15:15:09Z</time>
      </trkpt>
      <trkpt lat="45.87767" lon="4.27457">
        <ele>631.949</ele>
        <time>2019-10-28T15:15:16Z</time>
      </trkpt>
      <trkpt lat="45.87772" lon="4.2745">
        <ele>629.766</ele>
        <time>2019-10-28T15:15:21Z</time>
      </trkpt>
      <trkpt lat="45.87778" lon="4.27446">
        <ele>630.016</ele>
        <time>2019-10-28T15:15:26Z</time>
      </trkpt>
      <trkpt lat="45.87784" lon="4.27443">
        <ele>628.784</ele>
        <time>2019-10-28T15:15:32Z</time>
      </trkpt>
      <trkpt lat="45.8779" lon="4.27437">
        <ele>627.75</ele>
        <time>2019-10-28T15:15:38Z</time>
      </trkpt>
      <trkpt lat="45.87793" lon="4.27431">
        <ele>633.074</ele>
        <time>2019-10-28T15:15:44Z</time>
      </trkpt>
      <trkpt lat="45.87798" lon="4.27425">
        <ele>633.804</ele>
        <time>2019-10-28T15:15:49Z</time>
      </trkpt>
      <trkpt lat="45.87803" lon="4.27417">
        <ele>633.67</ele>
        <time>2019-10-28T15:15:54Z</time>
      </trkpt>
      <trkpt lat="45.87811" lon="4.2741">
        <ele>632.235</ele>
        <time>2019-10-28T15:16:01Z</time>
      </trkpt>
      <trkpt lat="45.87815" lon="4.27405">
        <ele>629.036</ele>
        <time>2019-10-28T15:16:07Z</time>
      </trkpt>
      <trkpt lat="45.87819" lon="4.27399">
        <ele>624.047</ele>
        <time>2019-10-28T15:16:12Z</time>
      </trkpt>
      <trkpt lat="45.87824" lon="4.27394">
        <ele>625.777</ele>
        <time>2019-10-28T15:16:18Z</time>
      </trkpt>
      <trkpt lat="45.87828" lon="4.27391">
        <ele>622.808</ele>
        <time>2019-10-28T15:16:23Z</time>
      </trkpt>
      <trkpt lat="45.8783" lon="4.27393">
        <ele>622.739</ele>
        <time>2019-10-28T15:16:29Z</time>
      </trkpt>
      <trkpt lat="45.87832" lon="4.27392">
        <ele>623.822</ele>
        <time>2019-10-28T15:16:34Z</time>
      </trkpt>
      <trkpt lat="45.87842" lon="4.27385">
        <ele>625.166</ele>
        <time>2019-10-28T15:16:39Z</time>
      </trkpt>
      <trkpt lat="45.87846" lon="4.27378">
        <ele>620.671</ele>
        <time>2019-10-28T15:16:45Z</time>
      </trkpt>
      <trkpt lat="45.87852" lon="4.27372">
        <ele>620.262</ele>
        <time>2019-10-28T15:16:51Z</time>
      </trkpt>
      <trkpt lat="45.87855" lon="4.27367">
        <ele>620.756</ele>
        <time>2019-10-28T15:16:56Z</time>
      </trkpt>
      <trkpt lat="45.87857" lon="4.27364">
        <ele>620.399</ele>
        <time>2019-10-28T15:17:01Z</time>
      </trkpt>
      <trkpt lat="45.87857" lon="4.27361">
        <ele>618.626</ele>
        <time>2019-10-28T15:17:06Z</time>
      </trkpt>
      <trkpt lat="45.87858" lon="4.2736">
        <ele>617.875</ele>
        <time>2019-10-28T15:17:12Z</time>
      </trkpt>
      <trkpt lat="45.8786" lon="4.27355">
        <ele>616.758</ele>
        <time>2019-10-28T15:17:17Z</time>
      </trkpt>
      <trkpt lat="45.87864" lon="4.27349">
        <ele>615.65</ele>
        <time>2019-10-28T15:17:23Z</time>
      </trkpt>
      <trkpt lat="45.87869" lon="4.2734">
        <ele>616.231</ele>
        <time>2019-10-28T15:17:28Z</time>
      </trkpt>
      <trkpt lat="45.87876" lon="4.27334">
        <ele>616.458</ele>
        <time>2019-10-28T15:17:35Z</time>
      </trkpt>
      <trkpt lat="45.87881" lon="4.2733">
        <ele>615.937</ele>
        <time>2019-10-28T15:17:40Z</time>
      </trkpt>
      <trkpt lat="45.87888" lon="4.27335">
        <ele>615.819</ele>
        <time>2019-10-28T15:17:45Z</time>
      </trkpt>
      <trkpt lat="45.87889" lon="4.27344">
        <ele>616.146</ele>
        <time>2019-10-28T15:17:51Z</time>
      </trkpt>
      <trkpt lat="45.87889" lon="4.27352">
        <ele>614.594</ele>
        <time>2019-10-28T15:17:57Z</time>
      </trkpt>
      <trkpt lat="45.87886" lon="4.27357">
        <ele>615.991</ele>
        <time>2019-10-28T15:18:03Z</time>
      </trkpt>
      <trkpt lat="45.87886" lon="4.27367">
        <ele>613.783</ele>
        <time>2019-10-28T15:18:08Z</time>
      </trkpt>
      <trkpt lat="45.8789" lon="4.27378">
        <ele>612.731</ele>
        <time>2019-10-28T15:18:14Z</time>
      </trkpt>
      <trkpt lat="45.87894" lon="4.27388">
        <ele>611.556</ele>
        <time>2019-10-28T15:18:20Z</time>
      </trkpt>
      <trkpt lat="45.87898" lon="4.27392">
        <ele>609.985</ele>
        <time>2019-10-28T15:18:26Z</time>
      </trkpt>
      <trkpt lat="45.87899" lon="4.27397">
        <ele>611.965</ele>
        <time>2019-10-28T15:18:32Z</time>
      </trkpt>
      <trkpt lat="45.87899" lon="4.27398">
        <ele>612.014</ele>
        <time>2019-10-28T15:18:37Z</time>
      </trkpt>
    </trkseg>
  </trk>
</gpx>